<?xml version='1.0' encoding='UTF-8'?><gpx version="1.1" creator="JPX - https://github.com/jenetics/jpx" xmlns="http://www.topografix.com/GPX/1/1"><trk><trkseg><trkpt lat="45.7093256" lon="8.5257091"><ele>342.0</ele><time>2026-04-22T11:41:51.496Z</time></trkpt><trkpt lat="45.709253" lon="8.5256719"><ele>342.0</ele><time>2026-04-22T11:41:54.497Z</time></trkpt><trkpt lat="45.7091677" lon="8.5256145"><ele>342.0</ele><time>2026-04-22T11:42:04.497Z</time></trkpt><trkpt lat="45.7091453" lon="8.5254899"><ele>342.0</ele><time>2026-04-22T11:42:05.497Z</time></trkpt><trkpt lat="45.7091132" lon="8.5253467"><ele>342.0</ele><time>2026-04-22T11:42:06.497Z</time></trkpt><trkpt lat="45.7090719" lon="8.5251616"><ele>342.75</ele><time>2026-04-22T11:42:07.497Z</time></trkpt><trkpt lat="45.7090283" lon="8.5249774"><ele>343.5</ele><time>2026-04-22T11:42:08.497Z</time></trkpt><trkpt lat="45.7089787" lon="8.5247859"><ele>344.25</ele><time>2026-04-22T11:42:09.497Z</time></trkpt><trkpt lat="45.7089271" lon="8.5245844"><ele>345.0</ele><time>2026-04-22T11:42:10.497Z</time></trkpt><trkpt lat="45.7088881" lon="8.5243693"><ele>348.0</ele><time>2026-04-22T11:42:11.496Z</time></trkpt><trkpt lat="45.7088727" lon="8.524148"><ele>351.0</ele><time>2026-04-22T11:42:12.497Z</time></trkpt><trkpt lat="45.7088901" lon="8.5239304"><ele>354.0</ele><time>2026-04-22T11:42:13.496Z</time></trkpt><trkpt lat="45.7089208" lon="8.5237222"><ele>355.0</ele><time>2026-04-22T11:42:14.496Z</time></trkpt><trkpt lat="45.7089638" lon="8.523532"><ele>356.0</ele><time>2026-04-22T11:42:15.497Z</time></trkpt><trkpt lat="45.7090276" lon="8.5233304"><ele>357.0</ele><time>2026-04-22T11:42:16.497Z</time></trkpt><trkpt lat="45.7090957" lon="8.5231198"><ele>357.0</ele><time>2026-04-22T11:42:17.495Z</time></trkpt><trkpt lat="45.7091542" lon="8.5229138"><ele>357.0</ele><time>2026-04-22T11:42:18.496Z</time></trkpt><trkpt lat="45.70919" lon="8.5227333"><ele>357.0</ele><time>2026-04-22T11:42:19.496Z</time></trkpt><trkpt lat="45.7091584" lon="8.5225463"><ele>357.0</ele><time>2026-04-22T11:42:20.497Z</time></trkpt><trkpt lat="45.7090942" lon="8.5224297"><ele>358.25</ele><time>2026-04-22T11:42:21.497Z</time></trkpt><trkpt lat="45.7089932" lon="8.5223157"><ele>359.5</ele><time>2026-04-22T11:42:22.496Z</time></trkpt><trkpt lat="45.7088715" lon="8.5222481"><ele>360.75</ele><time>2026-04-22T11:42:23.497Z</time></trkpt><trkpt lat="45.7086991" lon="8.5222726"><ele>362.0</ele><time>2026-04-22T11:42:24.496Z</time></trkpt><trkpt lat="45.708532" lon="8.5223668"><ele>363.0</ele><time>2026-04-22T11:42:25.496Z</time></trkpt><trkpt lat="45.7084151" lon="8.5223878"><ele>364.0</ele><time>2026-04-22T11:42:26.496Z</time></trkpt><trkpt lat="45.7083135" lon="8.5224045"><ele>365.0</ele><time>2026-04-22T11:42:27.497Z</time></trkpt><trkpt lat="45.7081774" lon="8.5224224"><ele>366.0</ele><time>2026-04-22T11:42:28.496Z</time></trkpt><trkpt lat="45.7080952" lon="8.5223979"><ele>367.0</ele><time>2026-04-22T11:42:29.496Z</time></trkpt><trkpt lat="45.7079834" lon="8.5223627"><ele>367.0</ele><time>2026-04-22T11:42:30.496Z</time></trkpt><trkpt lat="45.7078912" lon="8.5223071"><ele>367.0</ele><time>2026-04-22T11:42:31.496Z</time></trkpt><trkpt lat="45.7078075" lon="8.5222501"><ele>367.0</ele><time>2026-04-22T11:42:32.496Z</time></trkpt><trkpt lat="45.7077482" lon="8.5221408"><ele>367.0</ele><time>2026-04-22T11:42:33.497Z</time></trkpt><trkpt lat="45.7076974" lon="8.5220271"><ele>367.0</ele><time>2026-04-22T11:42:34.496Z</time></trkpt><trkpt lat="45.7076735" lon="8.5218896"><ele>368.40000000000003</ele><time>2026-04-22T11:42:35.496Z</time></trkpt><trkpt lat="45.7076721" lon="8.521743"><ele>369.8</ele><time>2026-04-22T11:42:36.496Z</time></trkpt><trkpt lat="45.7076928" lon="8.5216063"><ele>371.2</ele><time>2026-04-22T11:42:37.497Z</time></trkpt><trkpt lat="45.7077381" lon="8.5214788"><ele>372.6</ele><time>2026-04-22T11:42:38.497Z</time></trkpt><trkpt lat="45.7078039" lon="8.52137"><ele>374.0</ele><time>2026-04-22T11:42:39.497Z</time></trkpt><trkpt lat="45.7078825" lon="8.5212809"><ele>374.6</ele><time>2026-04-22T11:42:40.495Z</time></trkpt><trkpt lat="45.707966" lon="8.5211929"><ele>375.2</ele><time>2026-04-22T11:42:41.496Z</time></trkpt><trkpt lat="45.7080506" lon="8.5211056"><ele>375.8</ele><time>2026-04-22T11:42:42.496Z</time></trkpt><trkpt lat="45.7081297" lon="8.5210161"><ele>376.40000000000003</ele><time>2026-04-22T11:42:43.495Z</time></trkpt><trkpt lat="45.7082167" lon="8.5209259"><ele>377.0</ele><time>2026-04-22T11:42:44.497Z</time></trkpt><trkpt lat="45.7083077" lon="8.5208353"><ele>377.0</ele><time>2026-04-22T11:42:45.497Z</time></trkpt><trkpt lat="45.7083982" lon="8.5207406"><ele>377.0</ele><time>2026-04-22T11:42:46.496Z</time></trkpt><trkpt lat="45.7084926" lon="8.520643"><ele>377.0</ele><time>2026-04-22T11:42:47.497Z</time></trkpt><trkpt lat="45.7085906" lon="8.520541"><ele>377.0</ele><time>2026-04-22T11:42:48.497Z</time></trkpt><trkpt lat="45.7086904" lon="8.520442"><ele>377.5</ele><time>2026-04-22T11:42:49.497Z</time></trkpt><trkpt lat="45.7087905" lon="8.520342"><ele>378.0</ele><time>2026-04-22T11:42:50.496Z</time></trkpt><trkpt lat="45.7088843" lon="8.5202455"><ele>378.5</ele><time>2026-04-22T11:42:51.497Z</time></trkpt><trkpt lat="45.7089766" lon="8.5201527"><ele>379.0</ele><time>2026-04-22T11:42:52.497Z</time></trkpt><trkpt lat="45.7090711" lon="8.5200577"><ele>379.0</ele><time>2026-04-22T11:42:53.497Z</time></trkpt><trkpt lat="45.7091612" lon="8.5199628"><ele>379.0</ele><time>2026-04-22T11:42:54.497Z</time></trkpt><trkpt lat="45.7092419" lon="8.5198722"><ele>379.0</ele><time>2026-04-22T11:42:55.496Z</time></trkpt><trkpt lat="45.7093185" lon="8.5197885"><ele>379.0</ele><time>2026-04-22T11:42:56.496Z</time></trkpt><trkpt lat="45.7093879" lon="8.5197148"><ele>379.0</ele><time>2026-04-22T11:42:57.497Z</time></trkpt><trkpt lat="45.7094523" lon="8.5196488"><ele>379.2</ele><time>2026-04-22T11:42:58.497Z</time></trkpt><trkpt lat="45.7095231" lon="8.51958"><ele>379.4</ele><time>2026-04-22T11:42:59.497Z</time></trkpt><trkpt lat="45.7095971" lon="8.5195097"><ele>379.6</ele><time>2026-04-22T11:43:00.495Z</time></trkpt><trkpt lat="45.7096742" lon="8.5194341"><ele>379.8</ele><time>2026-04-22T11:43:01.496Z</time></trkpt><trkpt lat="45.7097538" lon="8.5193493"><ele>380.0</ele><time>2026-04-22T11:43:02.496Z</time></trkpt><trkpt lat="45.709828" lon="8.5192695"><ele>380.0</ele><time>2026-04-22T11:43:03.496Z</time></trkpt><trkpt lat="45.7098941" lon="8.5192005"><ele>380.0</ele><time>2026-04-22T11:43:04.497Z</time></trkpt><trkpt lat="45.7099484" lon="8.5191322"><ele>380.0</ele><time>2026-04-22T11:43:05.496Z</time></trkpt><trkpt lat="45.7100504" lon="8.5190829"><ele>380.0</ele><time>2026-04-22T11:43:07.497Z</time></trkpt><trkpt lat="45.7101435" lon="8.5192126"><ele>380.0</ele><time>2026-04-22T11:43:09.497Z</time></trkpt><trkpt lat="45.7102083" lon="8.5192944"><ele>379.8</ele><time>2026-04-22T11:43:10.497Z</time></trkpt><trkpt lat="45.7102874" lon="8.5193771"><ele>379.6</ele><time>2026-04-22T11:43:11.496Z</time></trkpt><trkpt lat="45.710375" lon="8.5194556"><ele>379.4</ele><time>2026-04-22T11:43:12.496Z</time></trkpt><trkpt lat="45.7104687" lon="8.5195209"><ele>379.2</ele><time>2026-04-22T11:43:13.496Z</time></trkpt><trkpt lat="45.7105775" lon="8.5195798"><ele>379.0</ele><time>2026-04-22T11:43:14.496Z</time></trkpt><trkpt lat="45.7106893" lon="8.519638"><ele>379.0</ele><time>2026-04-22T11:43:15.497Z</time></trkpt><trkpt lat="45.7108032" lon="8.5197059"><ele>379.0</ele><time>2026-04-22T11:43:16.497Z</time></trkpt><trkpt lat="45.7109188" lon="8.5197806"><ele>379.0</ele><time>2026-04-22T11:43:17.497Z</time></trkpt><trkpt lat="45.7110394" lon="8.5198645"><ele>379.0</ele><time>2026-04-22T11:43:18.496Z</time></trkpt><trkpt lat="45.7111662" lon="8.5199542"><ele>379.0</ele><time>2026-04-22T11:43:19.495Z</time></trkpt><trkpt lat="45.7113" lon="8.5200512"><ele>379.0</ele><time>2026-04-22T11:43:20.495Z</time></trkpt><trkpt lat="45.7114325" lon="8.5201499"><ele>379.0</ele><time>2026-04-22T11:43:21.497Z</time></trkpt><trkpt lat="45.7115624" lon="8.5202406"><ele>379.0</ele><time>2026-04-22T11:43:22.497Z</time></trkpt><trkpt lat="45.711697" lon="8.5203129"><ele>379.0</ele><time>2026-04-22T11:43:23.496Z</time></trkpt><trkpt lat="45.7118326" lon="8.5203398"><ele>379.0</ele><time>2026-04-22T11:43:24.497Z</time></trkpt><trkpt lat="45.7119712" lon="8.5203303"><ele>379.0</ele><time>2026-04-22T11:43:25.496Z</time></trkpt><trkpt lat="45.7121154" lon="8.5203034"><ele>379.0</ele><time>2026-04-22T11:43:26.497Z</time></trkpt><trkpt lat="45.7122616" lon="8.5202858"><ele>377.75</ele><time>2026-04-22T11:43:27.496Z</time></trkpt><trkpt lat="45.712403" lon="8.5202686"><ele>376.5</ele><time>2026-04-22T11:43:28.496Z</time></trkpt><trkpt lat="45.7125437" lon="8.520252"><ele>375.25</ele><time>2026-04-22T11:43:29.496Z</time></trkpt><trkpt lat="45.712682" lon="8.520235"><ele>374.0</ele><time>2026-04-22T11:43:30.496Z</time></trkpt><trkpt lat="45.7128157" lon="8.5202207"><ele>371.25</ele><time>2026-04-22T11:43:31.496Z</time></trkpt><trkpt lat="45.7129488" lon="8.5202065"><ele>368.5</ele><time>2026-04-22T11:43:32.496Z</time></trkpt><trkpt lat="45.7130798" lon="8.5201921"><ele>365.75</ele><time>2026-04-22T11:43:33.497Z</time></trkpt><trkpt lat="45.7132096" lon="8.5201823"><ele>363.0</ele><time>2026-04-22T11:43:34.497Z</time></trkpt><trkpt lat="45.7133305" lon="8.5201816"><ele>363.0</ele><time>2026-04-22T11:43:35.496Z</time></trkpt><trkpt lat="45.7134339" lon="8.520184"><ele>363.0</ele><time>2026-04-22T11:43:36.497Z</time></trkpt><trkpt lat="45.713515" lon="8.5201873"><ele>363.0</ele><time>2026-04-22T11:43:37.497Z</time></trkpt><trkpt lat="45.7136249" lon="8.5201982"><ele>363.0</ele><time>2026-04-22T11:43:39.497Z</time></trkpt><trkpt lat="45.7137234" lon="8.5202571"><ele>363.0</ele><time>2026-04-22T11:43:42.497Z</time></trkpt><trkpt lat="45.7137785" lon="8.5203101"><ele>362.79999999999995</ele><time>2026-04-22T11:43:43.497Z</time></trkpt><trkpt lat="45.7138507" lon="8.5203642"><ele>362.6</ele><time>2026-04-22T11:43:44.497Z</time></trkpt><trkpt lat="45.7139349" lon="8.5204295"><ele>362.4</ele><time>2026-04-22T11:43:45.496Z</time></trkpt><trkpt lat="45.7140229" lon="8.5205159"><ele>362.20000000000005</ele><time>2026-04-22T11:43:46.497Z</time></trkpt><trkpt lat="45.7141138" lon="8.5206193"><ele>362.0</ele><time>2026-04-22T11:43:47.496Z</time></trkpt><trkpt lat="45.7142095" lon="8.5207411"><ele>362.6666666666667</ele><time>2026-04-22T11:43:48.497Z</time></trkpt><trkpt lat="45.7143056" lon="8.5208847"><ele>363.3333333333333</ele><time>2026-04-22T11:43:49.496Z</time></trkpt><trkpt lat="45.7143965" lon="8.5210396"><ele>364.0</ele><time>2026-04-22T11:43:50.497Z</time></trkpt><trkpt lat="45.7145507" lon="8.5213696"><ele>363.0</ele><time>2026-04-22T11:43:52.496Z</time></trkpt><trkpt lat="45.7146142" lon="8.5215519"><ele>362.0</ele><time>2026-04-22T11:43:53.497Z</time></trkpt><trkpt lat="45.7146682" lon="8.5217488"><ele>361.0</ele><time>2026-04-22T11:43:54.497Z</time></trkpt><trkpt lat="45.7147174" lon="8.5219562"><ele>360.0</ele><time>2026-04-22T11:43:55.497Z</time></trkpt><trkpt lat="45.7147627" lon="8.522174"><ele>358.6666666666667</ele><time>2026-04-22T11:43:56.497Z</time></trkpt><trkpt lat="45.7148006" lon="8.5223954"><ele>357.33333333333337</ele><time>2026-04-22T11:43:57.497Z</time></trkpt><trkpt lat="45.7148381" lon="8.5226202"><ele>356.0</ele><time>2026-04-22T11:43:58.496Z</time></trkpt><trkpt lat="45.7148762" lon="8.5228412"><ele>355.33333333333337</ele><time>2026-04-22T11:43:59.496Z</time></trkpt><trkpt lat="45.7149166" lon="8.5230598"><ele>354.6666666666667</ele><time>2026-04-22T11:44:00.497Z</time></trkpt><trkpt lat="45.7149564" lon="8.5232826"><ele>354.0</ele><time>2026-04-22T11:44:01.496Z</time></trkpt><trkpt lat="45.7149947" lon="8.5235037"><ele>354.0</ele><time>2026-04-22T11:44:02.497Z</time></trkpt><trkpt lat="45.7150307" lon="8.5237196"><ele>354.0</ele><time>2026-04-22T11:44:03.497Z</time></trkpt><trkpt lat="45.7150641" lon="8.523929"><ele>354.0</ele><time>2026-04-22T11:44:04.496Z</time></trkpt><trkpt lat="45.7151033" lon="8.5241232"><ele>354.0</ele><time>2026-04-22T11:44:05.496Z</time></trkpt><trkpt lat="45.7151532" lon="8.5242945"><ele>353.0</ele><time>2026-04-22T11:44:06.497Z</time></trkpt><trkpt lat="45.7152141" lon="8.5244474"><ele>352.0</ele><time>2026-04-22T11:44:07.497Z</time></trkpt><trkpt lat="45.7152763" lon="8.5245831"><ele>351.0</ele><time>2026-04-22T11:44:08.497Z</time></trkpt><trkpt lat="45.7153322" lon="8.5246936"><ele>350.0</ele><time>2026-04-22T11:44:09.496Z</time></trkpt><trkpt lat="45.7153824" lon="8.5247881"><ele>349.0</ele><time>2026-04-22T11:44:10.497Z</time></trkpt><trkpt lat="45.7154227" lon="8.5248613"><ele>348.2857142857143</ele><time>2026-04-22T11:44:11.497Z</time></trkpt><trkpt lat="45.7154901" lon="8.5249362"><ele>347.57142857142856</ele><time>2026-04-22T11:44:13.496Z</time></trkpt><trkpt lat="45.7155589" lon="8.5248849"><ele>346.8571428571429</ele><time>2026-04-22T11:44:15.497Z</time></trkpt><trkpt lat="45.7156144" lon="8.5248099"><ele>346.1428571428571</ele><time>2026-04-22T11:44:18.496Z</time></trkpt><trkpt lat="45.7156572" lon="8.5247421"><ele>345.42857142857144</ele><time>2026-04-22T11:44:21.497Z</time></trkpt><trkpt lat="45.7156359" lon="8.5248303"><ele>344.7142857142857</ele><time>2026-04-22T11:44:44.496Z</time></trkpt><trkpt lat="45.7155741" lon="8.5248781"><ele>344.0</ele><time>2026-04-22T11:44:46.496Z</time></trkpt><trkpt lat="45.7155156" lon="8.5249641"><ele>344.0</ele><time>2026-04-22T11:44:51.496Z</time></trkpt><trkpt lat="45.7155822" lon="8.5251214"><ele>344.0</ele><time>2026-04-22T11:44:53.496Z</time></trkpt><trkpt lat="45.715628" lon="8.5252155"><ele>344.0</ele><time>2026-04-22T11:44:54.496Z</time></trkpt><trkpt lat="45.7156909" lon="8.5253381"><ele>344.0</ele><time>2026-04-22T11:44:55.497Z</time></trkpt><trkpt lat="45.7157638" lon="8.5254731"><ele>344.0</ele><time>2026-04-22T11:44:56.496Z</time></trkpt><trkpt lat="45.7158495" lon="8.5256265"><ele>343.25</ele><time>2026-04-22T11:44:57.497Z</time></trkpt><trkpt lat="45.7159444" lon="8.5257731"><ele>342.5</ele><time>2026-04-22T11:44:58.497Z</time></trkpt><trkpt lat="45.7160677" lon="8.5258833"><ele>341.75</ele><time>2026-04-22T11:44:59.496Z</time></trkpt><trkpt lat="45.7162088" lon="8.5259634"><ele>341.0</ele><time>2026-04-22T11:45:00.496Z</time></trkpt><trkpt lat="45.7163619" lon="8.5260447"><ele>341.0</ele><time>2026-04-22T11:45:01.496Z</time></trkpt><trkpt lat="45.7165155" lon="8.5261193"><ele>341.0</ele><time>2026-04-22T11:45:02.497Z</time></trkpt><trkpt lat="45.7166582" lon="8.5261936"><ele>341.0</ele><time>2026-04-22T11:45:03.497Z</time></trkpt><trkpt lat="45.7167877" lon="8.5262598"><ele>340.0</ele><time>2026-04-22T11:45:04.496Z</time></trkpt><trkpt lat="45.7169068" lon="8.5263206"><ele>339.0</ele><time>2026-04-22T11:45:05.496Z</time></trkpt><trkpt lat="45.7170225" lon="8.5263787"><ele>338.0</ele><time>2026-04-22T11:45:06.496Z</time></trkpt><trkpt lat="45.717138" lon="8.5264346"><ele>337.0</ele><time>2026-04-22T11:45:07.496Z</time></trkpt><trkpt lat="45.7172501" lon="8.5264944"><ele>337.0</ele><time>2026-04-22T11:45:08.496Z</time></trkpt><trkpt lat="45.7173761" lon="8.5265576"><ele>337.0</ele><time>2026-04-22T11:45:09.497Z</time></trkpt><trkpt lat="45.7175067" lon="8.5266148"><ele>337.0</ele><time>2026-04-22T11:45:10.497Z</time></trkpt><trkpt lat="45.717637" lon="8.5266764"><ele>337.0</ele><time>2026-04-22T11:45:11.497Z</time></trkpt><trkpt lat="45.7177681" lon="8.5267396"><ele>337.0</ele><time>2026-04-22T11:45:12.496Z</time></trkpt><trkpt lat="45.7178941" lon="8.5268063"><ele>337.0</ele><time>2026-04-22T11:45:13.497Z</time></trkpt><trkpt lat="45.718013" lon="8.5268776"><ele>337.0</ele><time>2026-04-22T11:45:14.496Z</time></trkpt><trkpt lat="45.7181264" lon="8.5269623"><ele>337.0</ele><time>2026-04-22T11:45:15.497Z</time></trkpt><trkpt lat="45.7182345" lon="8.5270559"><ele>335.20000000000005</ele><time>2026-04-22T11:45:16.497Z</time></trkpt><trkpt lat="45.718344" lon="8.5271563"><ele>333.4</ele><time>2026-04-22T11:45:17.497Z</time></trkpt><trkpt lat="45.7184477" lon="8.5272559"><ele>331.6</ele><time>2026-04-22T11:45:18.497Z</time></trkpt><trkpt lat="45.7185279" lon="8.5273424"><ele>329.79999999999995</ele><time>2026-04-22T11:45:19.497Z</time></trkpt><trkpt lat="45.7185908" lon="8.5273979"><ele>328.0</ele><time>2026-04-22T11:45:20.496Z</time></trkpt><trkpt lat="45.7186896" lon="8.5273884"><ele>327.4</ele><time>2026-04-22T11:45:22.496Z</time></trkpt><trkpt lat="45.7187526" lon="8.5273064"><ele>326.79999999999995</ele><time>2026-04-22T11:45:24.496Z</time></trkpt><trkpt lat="45.7188089" lon="8.5272457"><ele>326.2</ele><time>2026-04-22T11:45:27.497Z</time></trkpt><trkpt lat="45.7188641" lon="8.5271806"><ele>325.6</ele><time>2026-04-22T11:45:28.497Z</time></trkpt><trkpt lat="45.7189596" lon="8.5269109"><ele>325.0</ele><time>2026-04-22T11:45:29.496Z</time></trkpt><trkpt lat="45.7190213" lon="8.5268253"><ele>326.2</ele><time>2026-04-22T11:45:30.496Z</time></trkpt><trkpt lat="45.719074" lon="8.5267456"><ele>327.4</ele><time>2026-04-22T11:45:31.497Z</time></trkpt><trkpt lat="45.719167" lon="8.5266086"><ele>328.6</ele><time>2026-04-22T11:45:33.496Z</time></trkpt><trkpt lat="45.7192168" lon="8.5265232"><ele>329.8</ele><time>2026-04-22T11:45:34.497Z</time></trkpt><trkpt lat="45.7192771" lon="8.5264298"><ele>331.0</ele><time>2026-04-22T11:45:35.497Z</time></trkpt><trkpt lat="45.7193348" lon="8.5263381"><ele>331.0</ele><time>2026-04-22T11:45:36.496Z</time></trkpt><trkpt lat="45.7193904" lon="8.5262335"><ele>331.0</ele><time>2026-04-22T11:45:37.497Z</time></trkpt><trkpt lat="45.7194429" lon="8.5261361"><ele>331.0</ele><time>2026-04-22T11:45:38.496Z</time></trkpt><trkpt lat="45.7194975" lon="8.5260204"><ele>331.0</ele><time>2026-04-22T11:45:39.496Z</time></trkpt><trkpt lat="45.7195448" lon="8.5259369"><ele>331.0</ele><time>2026-04-22T11:45:40.497Z</time></trkpt><trkpt lat="45.719631" lon="8.5258938"><ele>331.0</ele><time>2026-04-22T11:45:41.497Z</time></trkpt><trkpt lat="45.719685" lon="8.5257833"><ele>330.8</ele><time>2026-04-22T11:45:42.496Z</time></trkpt><trkpt lat="45.7197564" lon="8.5257156"><ele>330.6</ele><time>2026-04-22T11:45:43.497Z</time></trkpt><trkpt lat="45.7198323" lon="8.5256356"><ele>330.4</ele><time>2026-04-22T11:45:44.496Z</time></trkpt><trkpt lat="45.7199011" lon="8.5255362"><ele>330.2</ele><time>2026-04-22T11:45:45.497Z</time></trkpt><trkpt lat="45.7199738" lon="8.5254403"><ele>330.0</ele><time>2026-04-22T11:45:46.497Z</time></trkpt><trkpt lat="45.7200414" lon="8.5253435"><ele>330.6</ele><time>2026-04-22T11:45:47.497Z</time></trkpt><trkpt lat="45.7201131" lon="8.5252368"><ele>331.2</ele><time>2026-04-22T11:45:48.496Z</time></trkpt><trkpt lat="45.720179" lon="8.5251372"><ele>331.79999999999995</ele><time>2026-04-22T11:45:49.497Z</time></trkpt><trkpt lat="45.7202708" lon="8.5250526"><ele>332.4</ele><time>2026-04-22T11:45:50.497Z</time></trkpt><trkpt lat="45.7203548" lon="8.5249751"><ele>333.0</ele><time>2026-04-22T11:45:51.497Z</time></trkpt><trkpt lat="45.7204416" lon="8.5248839"><ele>333.0</ele><time>2026-04-22T11:45:52.496Z</time></trkpt><trkpt lat="45.7205203" lon="8.5247867"><ele>333.0</ele><time>2026-04-22T11:45:53.497Z</time></trkpt><trkpt lat="45.7205959" lon="8.5246868"><ele>333.0</ele><time>2026-04-22T11:45:54.496Z</time></trkpt><trkpt lat="45.7206773" lon="8.5245862"><ele>333.0</ele><time>2026-04-22T11:45:55.497Z</time></trkpt><trkpt lat="45.7207583" lon="8.5244825"><ele>333.0</ele><time>2026-04-22T11:45:56.497Z</time></trkpt><trkpt lat="45.7208377" lon="8.5243747"><ele>333.1666666666667</ele><time>2026-04-22T11:45:57.496Z</time></trkpt><trkpt lat="45.7209096" lon="8.5242809"><ele>333.3333333333333</ele><time>2026-04-22T11:45:58.497Z</time></trkpt><trkpt lat="45.7209736" lon="8.5242002"><ele>333.5</ele><time>2026-04-22T11:45:59.496Z</time></trkpt><trkpt lat="45.7210277" lon="8.5241247"><ele>333.66666666666663</ele><time>2026-04-22T11:46:00.497Z</time></trkpt><trkpt lat="45.7210837" lon="8.5240506"><ele>333.8333333333333</ele><time>2026-04-22T11:46:01.496Z</time></trkpt><trkpt lat="45.7211427" lon="8.5239715"><ele>334.0</ele><time>2026-04-22T11:46:02.496Z</time></trkpt><trkpt lat="45.7212078" lon="8.5238911"><ele>334.0</ele><time>2026-04-22T11:46:03.497Z</time></trkpt><trkpt lat="45.7212787" lon="8.5238179"><ele>334.0</ele><time>2026-04-22T11:46:04.496Z</time></trkpt><trkpt lat="45.7213522" lon="8.5237516"><ele>334.0</ele><time>2026-04-22T11:46:05.496Z</time></trkpt><trkpt lat="45.7214305" lon="8.5236762"><ele>334.0</ele><time>2026-04-22T11:46:06.496Z</time></trkpt><trkpt lat="45.7215056" lon="8.523609"><ele>334.0</ele><time>2026-04-22T11:46:07.495Z</time></trkpt><trkpt lat="45.721582" lon="8.5235272"><ele>333.8333333333333</ele><time>2026-04-22T11:46:08.496Z</time></trkpt><trkpt lat="45.7216589" lon="8.5235062"><ele>333.66666666666663</ele><time>2026-04-22T11:46:09.497Z</time></trkpt><trkpt lat="45.7217242" lon="8.5234637"><ele>333.5</ele><time>2026-04-22T11:46:10.497Z</time></trkpt><trkpt lat="45.7217217" lon="8.5233216"><ele>333.3333333333333</ele><time>2026-04-22T11:46:11.496Z</time></trkpt><trkpt lat="45.7217856" lon="8.5232941"><ele>333.1666666666667</ele><time>2026-04-22T11:46:12.497Z</time></trkpt><trkpt lat="45.7218475" lon="8.5232719"><ele>333.0</ele><time>2026-04-22T11:46:13.496Z</time></trkpt><trkpt lat="45.7219064" lon="8.5231974"><ele>333.0</ele><time>2026-04-22T11:46:17.496Z</time></trkpt><trkpt lat="45.7219743" lon="8.5231347"><ele>333.0</ele><time>2026-04-22T11:46:19.497Z</time></trkpt><trkpt lat="45.7220673" lon="8.5230371"><ele>333.0</ele><time>2026-04-22T11:46:21.496Z</time></trkpt><trkpt lat="45.7221643" lon="8.5229304"><ele>333.0</ele><time>2026-04-22T11:46:23.497Z</time></trkpt><trkpt lat="45.7222603" lon="8.5227838"><ele>334.1666666666667</ele><time>2026-04-22T11:46:25.497Z</time></trkpt><trkpt lat="45.7223001" lon="8.52271"><ele>335.3333333333333</ele><time>2026-04-22T11:46:26.497Z</time></trkpt><trkpt lat="45.7223574" lon="8.5226268"><ele>336.5</ele><time>2026-04-22T11:46:27.496Z</time></trkpt><trkpt lat="45.7224151" lon="8.5225301"><ele>337.66666666666663</ele><time>2026-04-22T11:46:28.496Z</time></trkpt><trkpt lat="45.7224867" lon="8.5224463"><ele>338.8333333333333</ele><time>2026-04-22T11:46:29.497Z</time></trkpt><trkpt lat="45.7225556" lon="8.5223707"><ele>340.0</ele><time>2026-04-22T11:46:30.496Z</time></trkpt><trkpt lat="45.722625" lon="8.5222817"><ele>340.0</ele><time>2026-04-22T11:46:31.496Z</time></trkpt><trkpt lat="45.7227026" lon="8.522192"><ele>340.0</ele><time>2026-04-22T11:46:32.496Z</time></trkpt><trkpt lat="45.7227836" lon="8.5221001"><ele>340.0</ele><time>2026-04-22T11:46:33.496Z</time></trkpt><trkpt lat="45.7228782" lon="8.5220073"><ele>340.0</ele><time>2026-04-22T11:46:34.497Z</time></trkpt><trkpt lat="45.722965" lon="8.5219043"><ele>340.0</ele><time>2026-04-22T11:46:35.496Z</time></trkpt><trkpt lat="45.7230609" lon="8.5218086"><ele>340.75</ele><time>2026-04-22T11:46:36.496Z</time></trkpt><trkpt lat="45.7231565" lon="8.5217147"><ele>341.5</ele><time>2026-04-22T11:46:37.496Z</time></trkpt><trkpt lat="45.7232526" lon="8.5216176"><ele>342.25</ele><time>2026-04-22T11:46:38.496Z</time></trkpt><trkpt lat="45.723356" lon="8.5215215"><ele>343.0</ele><time>2026-04-22T11:46:39.496Z</time></trkpt><trkpt lat="45.7234478" lon="8.5214281"><ele>343.0</ele><time>2026-04-22T11:46:40.496Z</time></trkpt><trkpt lat="45.7235449" lon="8.5213321"><ele>343.0</ele><time>2026-04-22T11:46:41.497Z</time></trkpt><trkpt lat="45.7236447" lon="8.5212288"><ele>343.0</ele><time>2026-04-22T11:46:42.496Z</time></trkpt><trkpt lat="45.7237598" lon="8.5211114"><ele>343.0</ele><time>2026-04-22T11:46:43.496Z</time></trkpt><trkpt lat="45.7238674" lon="8.5209963"><ele>344.25</ele><time>2026-04-22T11:46:44.497Z</time></trkpt><trkpt lat="45.7239701" lon="8.5208719"><ele>345.5</ele><time>2026-04-22T11:46:45.497Z</time></trkpt><trkpt lat="45.7240713" lon="8.5207579"><ele>346.75</ele><time>2026-04-22T11:46:46.496Z</time></trkpt><trkpt lat="45.7241785" lon="8.5206365"><ele>348.0</ele><time>2026-04-22T11:46:47.497Z</time></trkpt><trkpt lat="45.7242794" lon="8.5205212"><ele>348.0</ele><time>2026-04-22T11:46:48.497Z</time></trkpt><trkpt lat="45.7243779" lon="8.5204052"><ele>348.0</ele><time>2026-04-22T11:46:49.497Z</time></trkpt><trkpt lat="45.7244767" lon="8.5202839"><ele>348.0</ele><time>2026-04-22T11:46:50.496Z</time></trkpt><trkpt lat="45.7245751" lon="8.5201651"><ele>348.0</ele><time>2026-04-22T11:46:51.495Z</time></trkpt><trkpt lat="45.7246698" lon="8.5200466"><ele>348.5</ele><time>2026-04-22T11:46:52.497Z</time></trkpt><trkpt lat="45.7247667" lon="8.519932"><ele>349.0</ele><time>2026-04-22T11:46:53.497Z</time></trkpt><trkpt lat="45.7248542" lon="8.5198578"><ele>349.5</ele><time>2026-04-22T11:46:54.496Z</time></trkpt><trkpt lat="45.7249444" lon="8.5197592"><ele>350.0</ele><time>2026-04-22T11:46:55.496Z</time></trkpt><trkpt lat="45.7250051" lon="8.5196237"><ele>351.0</ele><time>2026-04-22T11:46:56.495Z</time></trkpt><trkpt lat="45.7250606" lon="8.5195591"><ele>352.0</ele><time>2026-04-22T11:46:57.497Z</time></trkpt><trkpt lat="45.7251192" lon="8.5195068"><ele>353.0</ele><time>2026-04-22T11:46:58.496Z</time></trkpt><trkpt lat="45.7251698" lon="8.5194523"><ele>354.0</ele><time>2026-04-22T11:46:59.497Z</time></trkpt><trkpt lat="45.7252025" lon="8.5193483"><ele>355.0</ele><time>2026-04-22T11:47:01.497Z</time></trkpt><trkpt lat="45.7251797" lon="8.5192355"><ele>356.0</ele><time>2026-04-22T11:47:03.497Z</time></trkpt><trkpt lat="45.7251596" lon="8.5191299"><ele>357.0</ele><time>2026-04-22T11:47:05.497Z</time></trkpt><trkpt lat="45.725215" lon="8.5190533"><ele>356.6666666666667</ele><time>2026-04-22T11:47:07.497Z</time></trkpt><trkpt lat="45.7252755" lon="8.5190076"><ele>356.3333333333333</ele><time>2026-04-22T11:47:09.497Z</time></trkpt><trkpt lat="45.7253386" lon="8.518944"><ele>356.0</ele><time>2026-04-22T11:47:12.497Z</time></trkpt><trkpt lat="45.725397" lon="8.518858"><ele>355.66666666666663</ele><time>2026-04-22T11:47:14.496Z</time></trkpt><trkpt lat="45.72546" lon="8.5188094"><ele>355.3333333333333</ele><time>2026-04-22T11:47:15.496Z</time></trkpt><trkpt lat="45.7255625" lon="8.5187105"><ele>355.0</ele><time>2026-04-22T11:47:17.496Z</time></trkpt><trkpt lat="45.7256183" lon="8.5186556"><ele>355.0</ele><time>2026-04-22T11:47:18.496Z</time></trkpt><trkpt lat="45.7256731" lon="8.5186065"><ele>355.0</ele><time>2026-04-22T11:47:19.496Z</time></trkpt><trkpt lat="45.725763" lon="8.5185256"><ele>355.0</ele><time>2026-04-22T11:47:21.496Z</time></trkpt><trkpt lat="45.7258749" lon="8.5184823"><ele>355.0</ele><time>2026-04-22T11:47:23.496Z</time></trkpt><trkpt lat="45.7259536" lon="8.518468"><ele>355.0</ele><time>2026-04-22T11:47:24.497Z</time></trkpt><trkpt lat="45.7260477" lon="8.5185122"><ele>353.8</ele><time>2026-04-22T11:47:27.497Z</time></trkpt><trkpt lat="45.7261496" lon="8.5185276"><ele>352.6</ele><time>2026-04-22T11:47:30.497Z</time></trkpt><trkpt lat="45.7262257" lon="8.5184832"><ele>351.4</ele><time>2026-04-22T11:47:32.497Z</time></trkpt><trkpt lat="45.7262975" lon="8.5183047"><ele>350.2</ele><time>2026-04-22T11:47:36.497Z</time></trkpt><trkpt lat="45.7263378" lon="8.5182172"><ele>349.0</ele><time>2026-04-22T11:47:37.497Z</time></trkpt><trkpt lat="45.7263133" lon="8.5183186"><ele>349.0</ele><time>2026-04-22T11:47:38.497Z</time></trkpt><trkpt lat="45.7262553" lon="8.5183796"><ele>349.0</ele><time>2026-04-22T11:47:40.497Z</time></trkpt><trkpt lat="45.7261651" lon="8.5184006"><ele>349.0</ele><time>2026-04-22T11:47:42.496Z</time></trkpt><trkpt lat="45.7259936" lon="8.5183301"><ele>349.0</ele><time>2026-04-22T11:47:43.497Z</time></trkpt><trkpt lat="45.7259043" lon="8.5184198"><ele>349.16666666666663</ele><time>2026-04-22T11:47:45.496Z</time></trkpt><trkpt lat="45.7258006" lon="8.5184108"><ele>349.3333333333333</ele><time>2026-04-22T11:47:47.497Z</time></trkpt><trkpt lat="45.7257356" lon="8.5184863"><ele>349.5</ele><time>2026-04-22T11:47:48.497Z</time></trkpt><trkpt lat="45.7256757" lon="8.518535"><ele>349.6666666666667</ele><time>2026-04-22T11:47:49.497Z</time></trkpt><trkpt lat="45.7256178" lon="8.5185942"><ele>349.83333333333337</ele><time>2026-04-22T11:47:50.496Z</time></trkpt><trkpt lat="45.7255539" lon="8.5186674"><ele>350.0</ele><time>2026-04-22T11:47:51.496Z</time></trkpt><trkpt lat="45.7254652" lon="8.5187436"><ele>350.0</ele><time>2026-04-22T11:47:52.496Z</time></trkpt><trkpt lat="45.7254011" lon="8.5188017"><ele>350.0</ele><time>2026-04-22T11:47:53.496Z</time></trkpt><trkpt lat="45.7253433" lon="8.518884"><ele>350.0</ele><time>2026-04-22T11:47:54.497Z</time></trkpt><trkpt lat="45.7252825" lon="8.5189505"><ele>350.0</ele><time>2026-04-22T11:47:55.496Z</time></trkpt><trkpt lat="45.7251893" lon="8.5190389"><ele>350.0</ele><time>2026-04-22T11:47:57.497Z</time></trkpt><trkpt lat="45.7251185" lon="8.5190127"><ele>350.0</ele><time>2026-04-22T11:48:02.496Z</time></trkpt><trkpt lat="45.725178" lon="8.5189488"><ele>350.0</ele><time>2026-04-22T11:48:04.496Z</time></trkpt><trkpt lat="45.7252451" lon="8.5189077"><ele>350.0</ele><time>2026-04-22T11:48:05.497Z</time></trkpt><trkpt lat="45.7253076" lon="8.5188659"><ele>350.0</ele><time>2026-04-22T11:48:06.497Z</time></trkpt><trkpt lat="45.7253531" lon="8.518803"><ele>350.0</ele><time>2026-04-22T11:48:07.496Z</time></trkpt><trkpt lat="45.7254081" lon="8.5187252"><ele>350.0</ele><time>2026-04-22T11:48:08.497Z</time></trkpt><trkpt lat="45.7254696" lon="8.5186356"><ele>350.0</ele><time>2026-04-22T11:48:09.496Z</time></trkpt><trkpt lat="45.7255367" lon="8.5185657"><ele>351.0</ele><time>2026-04-22T11:48:10.497Z</time></trkpt><trkpt lat="45.7256056" lon="8.5185031"><ele>352.0</ele><time>2026-04-22T11:48:11.496Z</time></trkpt><trkpt lat="45.7256965" lon="8.5184174"><ele>353.0</ele><time>2026-04-22T11:48:13.496Z</time></trkpt><trkpt lat="45.7258214" lon="8.5183132"><ele>354.0</ele><time>2026-04-22T11:48:15.497Z</time></trkpt><trkpt lat="45.7258935" lon="8.5182613"><ele>355.0</ele><time>2026-04-22T11:48:16.497Z</time></trkpt><trkpt lat="45.7259693" lon="8.518203"><ele>355.0</ele><time>2026-04-22T11:48:17.496Z</time></trkpt><trkpt lat="45.7260308" lon="8.5181621"><ele>355.0</ele><time>2026-04-22T11:48:18.496Z</time></trkpt><trkpt lat="45.7260871" lon="8.5181192"><ele>355.0</ele><time>2026-04-22T11:48:19.496Z</time></trkpt><trkpt lat="45.7261762" lon="8.5180345"><ele>355.0</ele><time>2026-04-22T11:48:21.496Z</time></trkpt><trkpt lat="45.7262857" lon="8.517936"><ele>355.0</ele><time>2026-04-22T11:48:23.496Z</time></trkpt><trkpt lat="45.7263462" lon="8.5178823"><ele>355.0</ele><time>2026-04-22T11:48:24.496Z</time></trkpt><trkpt lat="45.7264009" lon="8.5178072"><ele>354.6</ele><time>2026-04-22T11:48:25.496Z</time></trkpt><trkpt lat="45.7264531" lon="8.5177221"><ele>354.2</ele><time>2026-04-22T11:48:26.497Z</time></trkpt><trkpt lat="45.7264893" lon="8.517632"><ele>353.79999999999995</ele><time>2026-04-22T11:48:27.496Z</time></trkpt><trkpt lat="45.7265395" lon="8.5174584"><ele>353.4</ele><time>2026-04-22T11:48:29.496Z</time></trkpt><trkpt lat="45.7266064" lon="8.5172917"><ele>353.0</ele><time>2026-04-22T11:48:31.496Z</time></trkpt><trkpt lat="45.7266505" lon="8.5172061"><ele>353.0</ele><time>2026-04-22T11:48:32.496Z</time></trkpt><trkpt lat="45.7266966" lon="8.5171199"><ele>353.0</ele><time>2026-04-22T11:48:33.496Z</time></trkpt><trkpt lat="45.7267517" lon="8.5170522"><ele>353.0</ele><time>2026-04-22T11:48:34.497Z</time></trkpt><trkpt lat="45.7268" lon="8.5169843"><ele>353.0</ele><time>2026-04-22T11:48:35.496Z</time></trkpt><trkpt lat="45.7268661" lon="8.5169237"><ele>353.0</ele><time>2026-04-22T11:48:36.497Z</time></trkpt><trkpt lat="45.7269458" lon="8.5168895"><ele>353.0</ele><time>2026-04-22T11:48:37.497Z</time></trkpt><trkpt lat="45.7270334" lon="8.5167515"><ele>353.0</ele><time>2026-04-22T11:48:39.497Z</time></trkpt><trkpt lat="45.7270904" lon="8.5166921"><ele>353.0</ele><time>2026-04-22T11:48:40.496Z</time></trkpt><trkpt lat="45.7271435" lon="8.5166211"><ele>353.0</ele><time>2026-04-22T11:48:41.496Z</time></trkpt><trkpt lat="45.7272015" lon="8.516546"><ele>353.0</ele><time>2026-04-22T11:48:42.497Z</time></trkpt><trkpt lat="45.7272624" lon="8.5164532"><ele>353.0</ele><time>2026-04-22T11:48:43.495Z</time></trkpt><trkpt lat="45.7273256" lon="8.5163653"><ele>353.0</ele><time>2026-04-22T11:48:44.497Z</time></trkpt><trkpt lat="45.7273894" lon="8.5162618"><ele>353.79999999999995</ele><time>2026-04-22T11:48:45.496Z</time></trkpt><trkpt lat="45.7274556" lon="8.5161527"><ele>354.6</ele><time>2026-04-22T11:48:46.497Z</time></trkpt><trkpt lat="45.7275266" lon="8.5160365"><ele>355.4</ele><time>2026-04-22T11:48:47.496Z</time></trkpt><trkpt lat="45.7275983" lon="8.5159201"><ele>356.20000000000005</ele><time>2026-04-22T11:48:48.496Z</time></trkpt><trkpt lat="45.7276754" lon="8.5157927"><ele>357.0</ele><time>2026-04-22T11:48:49.496Z</time></trkpt><trkpt lat="45.7277533" lon="8.5156704"><ele>357.0</ele><time>2026-04-22T11:48:50.497Z</time></trkpt><trkpt lat="45.7278255" lon="8.515538"><ele>357.0</ele><time>2026-04-22T11:48:51.496Z</time></trkpt><trkpt lat="45.7279012" lon="8.5154236"><ele>357.0</ele><time>2026-04-22T11:48:52.497Z</time></trkpt><trkpt lat="45.7279847" lon="8.515301"><ele>357.0</ele><time>2026-04-22T11:48:53.497Z</time></trkpt><trkpt lat="45.7280753" lon="8.5151741"><ele>357.8</ele><time>2026-04-22T11:48:54.497Z</time></trkpt><trkpt lat="45.728157" lon="8.5150561"><ele>358.6</ele><time>2026-04-22T11:48:55.497Z</time></trkpt><trkpt lat="45.728224" lon="8.514949"><ele>359.40000000000003</ele><time>2026-04-22T11:48:56.497Z</time></trkpt><trkpt lat="45.7282747" lon="8.514856"><ele>360.20000000000005</ele><time>2026-04-22T11:48:57.497Z</time></trkpt><trkpt lat="45.7283165" lon="8.514762"><ele>361.0</ele><time>2026-04-22T11:48:58.497Z</time></trkpt><trkpt lat="45.7283743" lon="8.5146018"><ele>360.5</ele><time>2026-04-22T11:49:00.497Z</time></trkpt><trkpt lat="45.7283989" lon="8.5145065"><ele>360.0</ele><time>2026-04-22T11:49:01.497Z</time></trkpt><trkpt lat="45.7284307" lon="8.5143461"><ele>359.5</ele><time>2026-04-22T11:49:03.496Z</time></trkpt><trkpt lat="45.7285403" lon="8.5142271"><ele>359.0</ele><time>2026-04-22T11:49:05.497Z</time></trkpt><trkpt lat="45.728643" lon="8.5141"><ele>359.0</ele><time>2026-04-22T11:49:07.496Z</time></trkpt><trkpt lat="45.7286992" lon="8.5140275"><ele>359.0</ele><time>2026-04-22T11:49:08.497Z</time></trkpt><trkpt lat="45.7287513" lon="8.5139499"><ele>359.0</ele><time>2026-04-22T11:49:09.497Z</time></trkpt><trkpt lat="45.7288008" lon="8.5138537"><ele>359.0</ele><time>2026-04-22T11:49:10.496Z</time></trkpt><trkpt lat="45.7288586" lon="8.5137804"><ele>359.0</ele><time>2026-04-22T11:49:11.496Z</time></trkpt><trkpt lat="45.7289158" lon="8.513705"><ele>359.0</ele><time>2026-04-22T11:49:12.497Z</time></trkpt><trkpt lat="45.7289604" lon="8.5136377"><ele>360.0</ele><time>2026-04-22T11:49:13.497Z</time></trkpt><trkpt lat="45.7290136" lon="8.513575"><ele>361.0</ele><time>2026-04-22T11:49:14.497Z</time></trkpt><trkpt lat="45.7290677" lon="8.5135025"><ele>362.0</ele><time>2026-04-22T11:49:15.496Z</time></trkpt><trkpt lat="45.7291196" lon="8.5134226"><ele>363.0</ele><time>2026-04-22T11:49:16.496Z</time></trkpt><trkpt lat="45.7291716" lon="8.5133412"><ele>364.0</ele><time>2026-04-22T11:49:17.497Z</time></trkpt><trkpt lat="45.7292223" lon="8.5132604"><ele>365.0</ele><time>2026-04-22T11:49:18.497Z</time></trkpt><trkpt lat="45.7292673" lon="8.5131762"><ele>366.0</ele><time>2026-04-22T11:49:19.496Z</time></trkpt><trkpt lat="45.7293133" lon="8.5130906"><ele>366.0</ele><time>2026-04-22T11:49:20.496Z</time></trkpt><trkpt lat="45.7293631" lon="8.513005"><ele>366.0</ele><time>2026-04-22T11:49:21.496Z</time></trkpt><trkpt lat="45.7294175" lon="8.5129226"><ele>366.0</ele><time>2026-04-22T11:49:22.497Z</time></trkpt><trkpt lat="45.7294744" lon="8.5128393"><ele>366.0</ele><time>2026-04-22T11:49:23.497Z</time></trkpt><trkpt lat="45.7295332" lon="8.512753"><ele>366.0</ele><time>2026-04-22T11:49:24.496Z</time></trkpt><trkpt lat="45.7295859" lon="8.512674"><ele>366.0</ele><time>2026-04-22T11:49:25.496Z</time></trkpt><trkpt lat="45.7296366" lon="8.5125911"><ele>365.3333333333333</ele><time>2026-04-22T11:49:26.497Z</time></trkpt><trkpt lat="45.7296851" lon="8.5125153"><ele>364.6666666666667</ele><time>2026-04-22T11:49:27.497Z</time></trkpt><trkpt lat="45.7297334" lon="8.5124385"><ele>364.0</ele><time>2026-04-22T11:49:28.496Z</time></trkpt><trkpt lat="45.7298219" lon="8.5123055"><ele>363.33333333333337</ele><time>2026-04-22T11:49:30.496Z</time></trkpt><trkpt lat="45.7298723" lon="8.5122463"><ele>362.6666666666667</ele><time>2026-04-22T11:49:31.497Z</time></trkpt><trkpt lat="45.729923" lon="8.5121868"><ele>362.0</ele><time>2026-04-22T11:49:32.497Z</time></trkpt><trkpt lat="45.7299841" lon="8.512117"><ele>362.0</ele><time>2026-04-22T11:49:33.496Z</time></trkpt><trkpt lat="45.7300372" lon="8.5120359"><ele>362.0</ele><time>2026-04-22T11:49:34.496Z</time></trkpt><trkpt lat="45.7300963" lon="8.5119537"><ele>362.0</ele><time>2026-04-22T11:49:35.497Z</time></trkpt><trkpt lat="45.7301866" lon="8.5118425"><ele>362.0</ele><time>2026-04-22T11:49:37.497Z</time></trkpt><trkpt lat="45.7302584" lon="8.5116909"><ele>362.0</ele><time>2026-04-22T11:49:39.497Z</time></trkpt><trkpt lat="45.7303069" lon="8.5116221"><ele>362.0</ele><time>2026-04-22T11:49:40.496Z</time></trkpt><trkpt lat="45.730358" lon="8.5115334"><ele>362.0</ele><time>2026-04-22T11:49:41.497Z</time></trkpt><trkpt lat="45.7304085" lon="8.5114425"><ele>362.0</ele><time>2026-04-22T11:49:42.497Z</time></trkpt><trkpt lat="45.7304579" lon="8.5113588"><ele>362.0</ele><time>2026-04-22T11:49:43.496Z</time></trkpt><trkpt lat="45.7305125" lon="8.5112683"><ele>362.0</ele><time>2026-04-22T11:49:44.496Z</time></trkpt><trkpt lat="45.7305635" lon="8.5111914"><ele>362.0</ele><time>2026-04-22T11:49:45.496Z</time></trkpt><trkpt lat="45.7306089" lon="8.5111252"><ele>362.8</ele><time>2026-04-22T11:49:46.497Z</time></trkpt><trkpt lat="45.7306516" lon="8.5110544"><ele>363.6</ele><time>2026-04-22T11:49:47.497Z</time></trkpt><trkpt lat="45.730694" lon="8.5109823"><ele>364.40000000000003</ele><time>2026-04-22T11:49:48.497Z</time></trkpt><trkpt lat="45.7307543" lon="8.5108282"><ele>365.20000000000005</ele><time>2026-04-22T11:49:50.495Z</time></trkpt><trkpt lat="45.7307906" lon="8.5106526"><ele>366.0</ele><time>2026-04-22T11:49:52.496Z</time></trkpt><trkpt lat="45.7308178" lon="8.5105595"><ele>366.0</ele><time>2026-04-22T11:49:53.497Z</time></trkpt><trkpt lat="45.7308358" lon="8.5104556"><ele>366.0</ele><time>2026-04-22T11:49:54.496Z</time></trkpt><trkpt lat="45.7308533" lon="8.5103454"><ele>366.0</ele><time>2026-04-22T11:49:55.496Z</time></trkpt><trkpt lat="45.7308574" lon="8.5102344"><ele>366.0</ele><time>2026-04-22T11:49:56.497Z</time></trkpt><trkpt lat="45.7308562" lon="8.5101361"><ele>366.0</ele><time>2026-04-22T11:49:57.497Z</time></trkpt><trkpt lat="45.7308578" lon="8.5100412"><ele>366.0</ele><time>2026-04-22T11:49:58.497Z</time></trkpt><trkpt lat="45.7308622" lon="8.5099474"><ele>366.0</ele><time>2026-04-22T11:49:59.496Z</time></trkpt><trkpt lat="45.7308647" lon="8.5097706"><ele>365.8</ele><time>2026-04-22T11:50:01.496Z</time></trkpt><trkpt lat="45.7308752" lon="8.5095998"><ele>365.6</ele><time>2026-04-22T11:50:03.497Z</time></trkpt><trkpt lat="45.7308761" lon="8.5094161"><ele>365.4</ele><time>2026-04-22T11:50:05.496Z</time></trkpt><trkpt lat="45.7308779" lon="8.5093253"><ele>365.2</ele><time>2026-04-22T11:50:06.497Z</time></trkpt><trkpt lat="45.7308874" lon="8.5092269"><ele>365.0</ele><time>2026-04-22T11:50:07.496Z</time></trkpt><trkpt lat="45.7308939" lon="8.5091266"><ele>364.6666666666667</ele><time>2026-04-22T11:50:08.497Z</time></trkpt><trkpt lat="45.7308839" lon="8.5089408"><ele>364.33333333333337</ele><time>2026-04-22T11:50:10.497Z</time></trkpt><trkpt lat="45.730876" lon="8.5088391"><ele>364.0</ele><time>2026-04-22T11:50:11.497Z</time></trkpt><trkpt lat="45.7308627" lon="8.5087371"><ele>363.6666666666667</ele><time>2026-04-22T11:50:12.497Z</time></trkpt><trkpt lat="45.730846" lon="8.5086326"><ele>363.3333333333333</ele><time>2026-04-22T11:50:13.496Z</time></trkpt><trkpt lat="45.7308374" lon="8.5085199"><ele>363.0</ele><time>2026-04-22T11:50:14.497Z</time></trkpt><trkpt lat="45.7308288" lon="8.5083989"><ele>363.0</ele><time>2026-04-22T11:50:15.497Z</time></trkpt><trkpt lat="45.7308176" lon="8.5082818"><ele>363.0</ele><time>2026-04-22T11:50:16.497Z</time></trkpt><trkpt lat="45.7308063" lon="8.5081647"><ele>363.0</ele><time>2026-04-22T11:50:17.497Z</time></trkpt><trkpt lat="45.7307999" lon="8.508053"><ele>363.0</ele><time>2026-04-22T11:50:18.497Z</time></trkpt><trkpt lat="45.7308023" lon="8.5079506"><ele>363.0</ele><time>2026-04-22T11:50:19.497Z</time></trkpt><trkpt lat="45.7308088" lon="8.5078522"><ele>363.0</ele><time>2026-04-22T11:50:20.497Z</time></trkpt><trkpt lat="45.7308262" lon="8.5077575"><ele>362.8333333333333</ele><time>2026-04-22T11:50:21.497Z</time></trkpt><trkpt lat="45.7308491" lon="8.5076583"><ele>362.6666666666667</ele><time>2026-04-22T11:50:22.497Z</time></trkpt><trkpt lat="45.7308825" lon="8.5075696"><ele>362.5</ele><time>2026-04-22T11:50:23.497Z</time></trkpt><trkpt lat="45.7309425" lon="8.5074876"><ele>362.33333333333337</ele><time>2026-04-22T11:50:24.497Z</time></trkpt><trkpt lat="45.7309935" lon="8.5073916"><ele>362.1666666666667</ele><time>2026-04-22T11:50:25.496Z</time></trkpt><trkpt lat="45.7310484" lon="8.5073052"><ele>362.0</ele><time>2026-04-22T11:50:26.497Z</time></trkpt><trkpt lat="45.7311089" lon="8.5072294"><ele>362.0</ele><time>2026-04-22T11:50:27.496Z</time></trkpt><trkpt lat="45.731174" lon="8.5071683"><ele>362.0</ele><time>2026-04-22T11:50:28.497Z</time></trkpt><trkpt lat="45.7312463" lon="8.5071016"><ele>362.0</ele><time>2026-04-22T11:50:29.497Z</time></trkpt><trkpt lat="45.7313205" lon="8.5070387"><ele>362.0</ele><time>2026-04-22T11:50:30.496Z</time></trkpt><trkpt lat="45.7313886" lon="8.5069835"><ele>362.0</ele><time>2026-04-22T11:50:31.497Z</time></trkpt><trkpt lat="45.7314579" lon="8.5069333"><ele>362.0</ele><time>2026-04-22T11:50:32.497Z</time></trkpt><trkpt lat="45.7315213" lon="8.5069097"><ele>362.0</ele><time>2026-04-22T11:50:33.496Z</time></trkpt><trkpt lat="45.7315943" lon="8.5068813"><ele>362.0</ele><time>2026-04-22T11:50:34.497Z</time></trkpt><trkpt lat="45.7316706" lon="8.5068438"><ele>362.0</ele><time>2026-04-22T11:50:35.496Z</time></trkpt><trkpt lat="45.7317398" lon="8.5068122"><ele>362.0</ele><time>2026-04-22T11:50:36.497Z</time></trkpt><trkpt lat="45.7318086" lon="8.5067741"><ele>362.0</ele><time>2026-04-22T11:50:37.496Z</time></trkpt><trkpt lat="45.7318599" lon="8.5067162"><ele>362.0</ele><time>2026-04-22T11:50:38.497Z</time></trkpt><trkpt lat="45.7319298" lon="8.5066823"><ele>362.0</ele><time>2026-04-22T11:50:39.496Z</time></trkpt><trkpt lat="45.7319986" lon="8.5066342"><ele>362.0</ele><time>2026-04-22T11:50:40.497Z</time></trkpt><trkpt lat="45.7320778" lon="8.506578"><ele>362.0</ele><time>2026-04-22T11:50:41.496Z</time></trkpt><trkpt lat="45.7321536" lon="8.5065127"><ele>362.0</ele><time>2026-04-22T11:50:42.497Z</time></trkpt><trkpt lat="45.7322289" lon="8.5064531"><ele>362.0</ele><time>2026-04-22T11:50:43.496Z</time></trkpt><trkpt lat="45.7323" lon="8.5064002"><ele>362.0</ele><time>2026-04-22T11:50:44.497Z</time></trkpt><trkpt lat="45.7323703" lon="8.5063477"><ele>362.0</ele><time>2026-04-22T11:50:45.497Z</time></trkpt><trkpt lat="45.732441" lon="8.5063058"><ele>362.0</ele><time>2026-04-22T11:50:46.496Z</time></trkpt><trkpt lat="45.7325058" lon="8.5062539"><ele>362.0</ele><time>2026-04-22T11:50:47.496Z</time></trkpt><trkpt lat="45.7325658" lon="8.5062225"><ele>362.0</ele><time>2026-04-22T11:50:49.497Z</time></trkpt><trkpt lat="45.7326415" lon="8.5061792"><ele>362.0</ele><time>2026-04-22T11:50:51.497Z</time></trkpt><trkpt lat="45.7327254" lon="8.5061262"><ele>362.0</ele><time>2026-04-22T11:50:54.497Z</time></trkpt><trkpt lat="45.7328142" lon="8.506069"><ele>362.0</ele><time>2026-04-22T11:50:56.497Z</time></trkpt><trkpt lat="45.7329058" lon="8.5060269"><ele>362.83333333333337</ele><time>2026-04-22T11:50:58.496Z</time></trkpt><trkpt lat="45.7330209" lon="8.5059669"><ele>363.6666666666667</ele><time>2026-04-22T11:51:00.496Z</time></trkpt><trkpt lat="45.7330919" lon="8.505928"><ele>364.5</ele><time>2026-04-22T11:51:01.497Z</time></trkpt><trkpt lat="45.7331614" lon="8.5058928"><ele>365.3333333333333</ele><time>2026-04-22T11:51:02.496Z</time></trkpt><trkpt lat="45.7332377" lon="8.505863"><ele>366.16666666666663</ele><time>2026-04-22T11:51:03.496Z</time></trkpt><trkpt lat="45.7333117" lon="8.5058283"><ele>367.0</ele><time>2026-04-22T11:51:04.497Z</time></trkpt><trkpt lat="45.7333768" lon="8.5057844"><ele>367.0</ele><time>2026-04-22T11:51:05.496Z</time></trkpt><trkpt lat="45.7334392" lon="8.5057349"><ele>367.0</ele><time>2026-04-22T11:51:06.496Z</time></trkpt><trkpt lat="45.7334944" lon="8.5056776"><ele>367.0</ele><time>2026-04-22T11:51:07.496Z</time></trkpt><trkpt lat="45.7335462" lon="8.5056124"><ele>367.0</ele><time>2026-04-22T11:51:08.497Z</time></trkpt><trkpt lat="45.7336022" lon="8.5055535"><ele>367.0</ele><time>2026-04-22T11:51:09.496Z</time></trkpt><trkpt lat="45.7336597" lon="8.5054815"><ele>367.0</ele><time>2026-04-22T11:51:10.497Z</time></trkpt><trkpt lat="45.7337184" lon="8.5054121"><ele>367.0</ele><time>2026-04-22T11:51:11.497Z</time></trkpt><trkpt lat="45.733767" lon="8.5053431"><ele>366.66666666666663</ele><time>2026-04-22T11:51:12.496Z</time></trkpt><trkpt lat="45.7338105" lon="8.5052772"><ele>366.3333333333333</ele><time>2026-04-22T11:51:13.496Z</time></trkpt><trkpt lat="45.7338672" lon="8.5052031"><ele>366.0</ele><time>2026-04-22T11:51:14.497Z</time></trkpt><trkpt lat="45.733924" lon="8.5051179"><ele>365.6666666666667</ele><time>2026-04-22T11:51:15.497Z</time></trkpt><trkpt lat="45.7339694" lon="8.5050404"><ele>365.33333333333337</ele><time>2026-04-22T11:51:16.497Z</time></trkpt><trkpt lat="45.7340225" lon="8.5049509"><ele>365.0</ele><time>2026-04-22T11:51:17.496Z</time></trkpt><trkpt lat="45.7340735" lon="8.5048689"><ele>365.0</ele><time>2026-04-22T11:51:18.497Z</time></trkpt><trkpt lat="45.7341267" lon="8.5047759"><ele>365.0</ele><time>2026-04-22T11:51:19.497Z</time></trkpt><trkpt lat="45.7341601" lon="8.5046875"><ele>365.0</ele><time>2026-04-22T11:51:20.497Z</time></trkpt><trkpt lat="45.7341919" lon="8.5045933"><ele>365.0</ele><time>2026-04-22T11:51:21.496Z</time></trkpt><trkpt lat="45.7342036" lon="8.5044839"><ele>365.0</ele><time>2026-04-22T11:51:22.496Z</time></trkpt><trkpt lat="45.7342109" lon="8.5043704"><ele>365.0</ele><time>2026-04-22T11:51:23.497Z</time></trkpt><trkpt lat="45.7342088" lon="8.5042635"><ele>365.1666666666667</ele><time>2026-04-22T11:51:24.497Z</time></trkpt><trkpt lat="45.7341913" lon="8.5041655"><ele>365.33333333333337</ele><time>2026-04-22T11:51:25.496Z</time></trkpt><trkpt lat="45.7341605" lon="8.5040673"><ele>365.5</ele><time>2026-04-22T11:51:26.495Z</time></trkpt><trkpt lat="45.734117" lon="8.5039763"><ele>365.6666666666667</ele><time>2026-04-22T11:51:27.496Z</time></trkpt><trkpt lat="45.7340621" lon="8.5038891"><ele>365.8333333333333</ele><time>2026-04-22T11:51:28.496Z</time></trkpt><trkpt lat="45.734006" lon="8.5038122"><ele>366.0</ele><time>2026-04-22T11:51:29.497Z</time></trkpt><trkpt lat="45.7339491" lon="8.5037351"><ele>365.6666666666667</ele><time>2026-04-22T11:51:30.496Z</time></trkpt><trkpt lat="45.7338874" lon="8.5036685"><ele>365.3333333333333</ele><time>2026-04-22T11:51:31.496Z</time></trkpt><trkpt lat="45.7338335" lon="8.5035866"><ele>365.0</ele><time>2026-04-22T11:51:32.496Z</time></trkpt><trkpt lat="45.7337815" lon="8.5034995"><ele>364.66666666666663</ele><time>2026-04-22T11:51:33.497Z</time></trkpt><trkpt lat="45.7337269" lon="8.5034151"><ele>364.3333333333333</ele><time>2026-04-22T11:51:34.495Z</time></trkpt><trkpt lat="45.733665" lon="8.5033248"><ele>364.0</ele><time>2026-04-22T11:51:35.496Z</time></trkpt><trkpt lat="45.7336077" lon="8.5032446"><ele>364.0</ele><time>2026-04-22T11:51:36.495Z</time></trkpt><trkpt lat="45.7335609" lon="8.503158"><ele>364.0</ele><time>2026-04-22T11:51:37.497Z</time></trkpt><trkpt lat="45.7335044" lon="8.5030583"><ele>364.0</ele><time>2026-04-22T11:51:38.497Z</time></trkpt><trkpt lat="45.7334677" lon="8.5029772"><ele>364.0</ele><time>2026-04-22T11:51:39.496Z</time></trkpt><trkpt lat="45.7334057" lon="8.5028515"><ele>364.0</ele><time>2026-04-22T11:51:41.495Z</time></trkpt><trkpt lat="45.7333937" lon="8.5027478"><ele>364.0</ele><time>2026-04-22T11:51:43.497Z</time></trkpt><trkpt lat="45.7334248" lon="8.5026553"><ele>362.25</ele><time>2026-04-22T11:51:46.497Z</time></trkpt><trkpt lat="45.7334078" lon="8.5024878"><ele>360.5</ele><time>2026-04-22T11:51:52.497Z</time></trkpt><trkpt lat="45.7333614" lon="8.502378"><ele>358.75</ele><time>2026-04-22T11:51:53.497Z</time></trkpt><trkpt lat="45.7332754" lon="8.502257"><ele>357.0</ele><time>2026-04-22T11:51:54.497Z</time></trkpt><trkpt lat="45.7331834" lon="8.5021253"><ele>356.3333333333333</ele><time>2026-04-22T11:51:55.496Z</time></trkpt><trkpt lat="45.7330789" lon="8.5019714"><ele>355.66666666666663</ele><time>2026-04-22T11:51:56.496Z</time></trkpt><trkpt lat="45.7329637" lon="8.5018096"><ele>355.0</ele><time>2026-04-22T11:51:57.497Z</time></trkpt><trkpt lat="45.7328381" lon="8.501646"><ele>355.3333333333333</ele><time>2026-04-22T11:51:58.496Z</time></trkpt><trkpt lat="45.732703" lon="8.5014811"><ele>355.6666666666667</ele><time>2026-04-22T11:51:59.497Z</time></trkpt><trkpt lat="45.7325592" lon="8.5013203"><ele>356.0</ele><time>2026-04-22T11:52:00.496Z</time></trkpt><trkpt lat="45.732408" lon="8.5011674"><ele>355.33333333333337</ele><time>2026-04-22T11:52:01.496Z</time></trkpt><trkpt lat="45.7322555" lon="8.5010119"><ele>354.6666666666667</ele><time>2026-04-22T11:52:02.497Z</time></trkpt><trkpt lat="45.7321079" lon="8.5008637"><ele>354.0</ele><time>2026-04-22T11:52:03.496Z</time></trkpt><trkpt lat="45.7319673" lon="8.5007233"><ele>353.0</ele><time>2026-04-22T11:52:04.496Z</time></trkpt><trkpt lat="45.7318305" lon="8.5005948"><ele>352.0</ele><time>2026-04-22T11:52:05.497Z</time></trkpt><trkpt lat="45.731703" lon="8.5004656"><ele>351.0</ele><time>2026-04-22T11:52:06.497Z</time></trkpt><trkpt lat="45.7315834" lon="8.5003445"><ele>350.4</ele><time>2026-04-22T11:52:07.497Z</time></trkpt><trkpt lat="45.7314711" lon="8.5002348"><ele>349.8</ele><time>2026-04-22T11:52:08.496Z</time></trkpt><trkpt lat="45.7313764" lon="8.5001458"><ele>349.2</ele><time>2026-04-22T11:52:09.497Z</time></trkpt><trkpt lat="45.7313015" lon="8.5000792"><ele>348.59999999999997</ele><time>2026-04-22T11:52:10.496Z</time></trkpt><trkpt lat="45.7312462" lon="8.5000181"><ele>348.0</ele><time>2026-04-22T11:52:11.497Z</time></trkpt><trkpt lat="45.7312209" lon="8.499871"><ele>348.0</ele><time>2026-04-22T11:52:13.497Z</time></trkpt><trkpt lat="45.7312814" lon="8.4997949"><ele>348.0</ele><time>2026-04-22T11:52:15.497Z</time></trkpt><trkpt lat="45.7313758" lon="8.4998122"><ele>348.0</ele><time>2026-04-22T11:52:17.497Z</time></trkpt><trkpt lat="45.7314741" lon="8.4999132"><ele>348.0</ele><time>2026-04-22T11:52:19.496Z</time></trkpt><trkpt lat="45.7315729" lon="8.5000026"><ele>348.0</ele><time>2026-04-22T11:52:21.495Z</time></trkpt><trkpt lat="45.7316675" lon="8.5000895"><ele>348.0</ele><time>2026-04-22T11:52:23.497Z</time></trkpt><trkpt lat="45.7317412" lon="8.5001596"><ele>348.0</ele><time>2026-04-22T11:52:25.497Z</time></trkpt><trkpt lat="45.7318396" lon="8.5001597"><ele>348.0</ele><time>2026-04-22T11:52:27.497Z</time></trkpt><trkpt lat="45.7319088" lon="8.5000489"><ele>348.0</ele><time>2026-04-22T11:52:29.496Z</time></trkpt><trkpt lat="45.7319593" lon="8.4998739"><ele>348.0</ele><time>2026-04-22T11:52:31.497Z</time></trkpt><trkpt lat="45.7319815" lon="8.4997769"><ele>348.1666666666667</ele><time>2026-04-22T11:52:32.497Z</time></trkpt><trkpt lat="45.732003" lon="8.499682"><ele>348.3333333333333</ele><time>2026-04-22T11:52:33.497Z</time></trkpt><trkpt lat="45.7320277" lon="8.4995972"><ele>348.5</ele><time>2026-04-22T11:52:34.495Z</time></trkpt><trkpt lat="45.7320528" lon="8.4994461"><ele>348.66666666666663</ele><time>2026-04-22T11:52:36.496Z</time></trkpt><trkpt lat="45.7320274" lon="8.4993372"><ele>348.8333333333333</ele><time>2026-04-22T11:52:38.497Z</time></trkpt><trkpt lat="45.7320902" lon="8.4992785"><ele>349.0</ele><time>2026-04-22T11:52:42.495Z</time></trkpt><trkpt lat="45.7322094" lon="8.4993018"><ele>349.0</ele><time>2026-04-22T11:52:44.495Z</time></trkpt><trkpt lat="45.7322821" lon="8.4993051"><ele>349.0</ele><time>2026-04-22T11:52:45.497Z</time></trkpt><trkpt lat="45.7323651" lon="8.4993105"><ele>349.0</ele><time>2026-04-22T11:52:46.497Z</time></trkpt><trkpt lat="45.732456" lon="8.4993076"><ele>349.0</ele><time>2026-04-22T11:52:47.497Z</time></trkpt><trkpt lat="45.732552" lon="8.499295"><ele>349.0</ele><time>2026-04-22T11:52:48.496Z</time></trkpt><trkpt lat="45.7326436" lon="8.4992707"><ele>349.0</ele><time>2026-04-22T11:52:49.497Z</time></trkpt><trkpt lat="45.7327405" lon="8.4992496"><ele>349.6</ele><time>2026-04-22T11:52:50.497Z</time></trkpt><trkpt lat="45.7328465" lon="8.4992375"><ele>350.2</ele><time>2026-04-22T11:52:51.496Z</time></trkpt><trkpt lat="45.7329498" lon="8.4992365"><ele>350.8</ele><time>2026-04-22T11:52:52.496Z</time></trkpt><trkpt lat="45.7330572" lon="8.499249"><ele>351.40000000000003</ele><time>2026-04-22T11:52:53.497Z</time></trkpt><trkpt lat="45.7331632" lon="8.4992731"><ele>352.0</ele><time>2026-04-22T11:52:54.497Z</time></trkpt><trkpt lat="45.7332683" lon="8.4993116"><ele>352.0</ele><time>2026-04-22T11:52:55.496Z</time></trkpt><trkpt lat="45.7333764" lon="8.4993587"><ele>352.0</ele><time>2026-04-22T11:52:56.496Z</time></trkpt><trkpt lat="45.7334767" lon="8.4993878"><ele>352.0</ele><time>2026-04-22T11:52:57.496Z</time></trkpt><trkpt lat="45.7335776" lon="8.4994318"><ele>352.0</ele><time>2026-04-22T11:52:58.497Z</time></trkpt><trkpt lat="45.7336741" lon="8.4994927"><ele>352.0</ele><time>2026-04-22T11:52:59.497Z</time></trkpt><trkpt lat="45.7337692" lon="8.4995682"><ele>352.8</ele><time>2026-04-22T11:53:00.497Z</time></trkpt><trkpt lat="45.7338653" lon="8.4996398"><ele>353.6</ele><time>2026-04-22T11:53:01.496Z</time></trkpt><trkpt lat="45.7339731" lon="8.4996975"><ele>354.40000000000003</ele><time>2026-04-22T11:53:02.496Z</time></trkpt><trkpt lat="45.7340793" lon="8.4997435"><ele>355.20000000000005</ele><time>2026-04-22T11:53:03.497Z</time></trkpt><trkpt lat="45.7341891" lon="8.4997861"><ele>356.0</ele><time>2026-04-22T11:53:04.496Z</time></trkpt><trkpt lat="45.7342955" lon="8.4998396"><ele>356.6</ele><time>2026-04-22T11:53:05.497Z</time></trkpt><trkpt lat="45.7344075" lon="8.4998954"><ele>357.20000000000005</ele><time>2026-04-22T11:53:06.497Z</time></trkpt><trkpt lat="45.7345098" lon="8.4999472"><ele>357.79999999999995</ele><time>2026-04-22T11:53:07.497Z</time></trkpt><trkpt lat="45.7346017" lon="8.4999986"><ele>358.4</ele><time>2026-04-22T11:53:08.497Z</time></trkpt><trkpt lat="45.7346847" lon="8.5000448"><ele>359.0</ele><time>2026-04-22T11:53:09.495Z</time></trkpt><trkpt lat="45.7347723" lon="8.5000863"><ele>359.0</ele><time>2026-04-22T11:53:10.497Z</time></trkpt><trkpt lat="45.7348529" lon="8.5001265"><ele>359.0</ele><time>2026-04-22T11:53:11.496Z</time></trkpt><trkpt lat="45.734926" lon="8.5001633"><ele>359.0</ele><time>2026-04-22T11:53:12.495Z</time></trkpt><trkpt lat="45.7350047" lon="8.500197"><ele>359.0</ele><time>2026-04-22T11:53:13.496Z</time></trkpt><trkpt lat="45.7350813" lon="8.5002242"><ele>359.0</ele><time>2026-04-22T11:53:14.497Z</time></trkpt><trkpt lat="45.7351928" lon="8.5002654"><ele>359.0</ele><time>2026-04-22T11:53:16.497Z</time></trkpt><trkpt lat="45.7352698" lon="8.5002274"><ele>360.6666666666667</ele><time>2026-04-22T11:53:19.497Z</time></trkpt><trkpt lat="45.7353191" lon="8.5001651"><ele>362.33333333333337</ele><time>2026-04-22T11:53:21.497Z</time></trkpt><trkpt lat="45.7353612" lon="8.5000913"><ele>364.0</ele><time>2026-04-22T11:53:23.497Z</time></trkpt><trkpt lat="45.7354012" lon="8.5000071"><ele>365.6666666666667</ele><time>2026-04-22T11:53:25.496Z</time></trkpt><trkpt lat="45.7355236" lon="8.4999902"><ele>367.3333333333333</ele><time>2026-04-22T11:53:28.497Z</time></trkpt><trkpt lat="45.735586" lon="8.5000321"><ele>369.0</ele><time>2026-04-22T11:53:29.496Z</time></trkpt><trkpt lat="45.7356935" lon="8.500102"><ele>369.0</ele><time>2026-04-22T11:53:31.497Z</time></trkpt><trkpt lat="45.7357574" lon="8.5001425"><ele>369.0</ele><time>2026-04-22T11:53:32.497Z</time></trkpt><trkpt lat="45.735863" lon="8.5002191"><ele>369.0</ele><time>2026-04-22T11:53:34.495Z</time></trkpt><trkpt lat="45.7359213" lon="8.5002614"><ele>369.0</ele><time>2026-04-22T11:53:35.496Z</time></trkpt><trkpt lat="45.7359744" lon="8.50031"><ele>369.0</ele><time>2026-04-22T11:53:36.496Z</time></trkpt><trkpt lat="45.7360421" lon="8.5003274"><ele>369.0</ele><time>2026-04-22T11:53:37.496Z</time></trkpt><trkpt lat="45.7361604" lon="8.5003799"><ele>368.6</ele><time>2026-04-22T11:53:39.496Z</time></trkpt><trkpt lat="45.7362329" lon="8.5003651"><ele>368.2</ele><time>2026-04-22T11:53:40.496Z</time></trkpt><trkpt lat="45.7362948" lon="8.5003865"><ele>367.8</ele><time>2026-04-22T11:53:41.496Z</time></trkpt><trkpt lat="45.7364177" lon="8.5004523"><ele>367.40000000000003</ele><time>2026-04-22T11:53:43.496Z</time></trkpt><trkpt lat="45.7364885" lon="8.5004862"><ele>367.0</ele><time>2026-04-22T11:53:44.495Z</time></trkpt><trkpt lat="45.7366051" lon="8.5005242"><ele>367.0</ele><time>2026-04-22T11:53:46.497Z</time></trkpt><trkpt lat="45.7367399" lon="8.5004826"><ele>367.0</ele><time>2026-04-22T11:53:48.497Z</time></trkpt><trkpt lat="45.7368177" lon="8.500511"><ele>367.0</ele><time>2026-04-22T11:53:49.497Z</time></trkpt><trkpt lat="45.7369462" lon="8.5005075"><ele>367.0</ele><time>2026-04-22T11:53:51.497Z</time></trkpt><trkpt lat="45.7370719" lon="8.5005393"><ele>367.3333333333333</ele><time>2026-04-22T11:53:53.496Z</time></trkpt><trkpt lat="45.7371411" lon="8.5005454"><ele>367.66666666666663</ele><time>2026-04-22T11:53:56.497Z</time></trkpt><trkpt lat="45.7372156" lon="8.5004784"><ele>368.0</ele><time>2026-04-22T11:54:00.497Z</time></trkpt><trkpt lat="45.7372778" lon="8.5004203"><ele>368.3333333333333</ele><time>2026-04-22T11:54:02.496Z</time></trkpt><trkpt lat="45.7373482" lon="8.5003617"><ele>368.6666666666667</ele><time>2026-04-22T11:54:04.497Z</time></trkpt><trkpt lat="45.7374139" lon="8.5002967"><ele>369.0</ele><time>2026-04-22T11:54:06.497Z</time></trkpt><trkpt lat="45.7375024" lon="8.5001781"><ele>369.8333333333333</ele><time>2026-04-22T11:54:08.496Z</time></trkpt><trkpt lat="45.7375973" lon="8.5001142"><ele>370.6666666666667</ele><time>2026-04-22T11:54:10.496Z</time></trkpt><trkpt lat="45.7376717" lon="8.5000224"><ele>371.5</ele><time>2026-04-22T11:54:13.497Z</time></trkpt><trkpt lat="45.7377441" lon="8.500006"><ele>372.33333333333337</ele><time>2026-04-22T11:54:15.496Z</time></trkpt><trkpt lat="45.7378301" lon="8.5000242"><ele>373.1666666666667</ele><time>2026-04-22T11:54:17.497Z</time></trkpt><trkpt lat="45.7379145" lon="8.5000438"><ele>374.0</ele><time>2026-04-22T11:54:19.497Z</time></trkpt><trkpt lat="45.7379918" lon="8.5000176"><ele>374.83333333333337</ele><time>2026-04-22T11:54:20.497Z</time></trkpt><trkpt lat="45.7380535" lon="8.4999964"><ele>375.6666666666667</ele><time>2026-04-22T11:54:21.497Z</time></trkpt><trkpt lat="45.7381448" lon="8.499998"><ele>376.5</ele><time>2026-04-22T11:54:22.497Z</time></trkpt><trkpt lat="45.7382088" lon="8.5000376"><ele>377.3333333333333</ele><time>2026-04-22T11:54:24.496Z</time></trkpt><trkpt lat="45.7383017" lon="8.5000188"><ele>378.16666666666663</ele><time>2026-04-22T11:54:29.497Z</time></trkpt><trkpt lat="45.7384119" lon="8.5000332"><ele>379.0</ele><time>2026-04-22T11:54:31.496Z</time></trkpt><trkpt lat="45.7384933" lon="8.5000451"><ele>380.16666666666663</ele><time>2026-04-22T11:54:33.497Z</time></trkpt><trkpt lat="45.7385783" lon="8.5000336"><ele>381.3333333333333</ele><time>2026-04-22T11:54:35.496Z</time></trkpt><trkpt lat="45.7386628" lon="8.5000271"><ele>382.5</ele><time>2026-04-22T11:54:37.497Z</time></trkpt><trkpt lat="45.738744" lon="8.5000178"><ele>383.66666666666663</ele><time>2026-04-22T11:54:39.495Z</time></trkpt><trkpt lat="45.7388057" lon="8.5000416"><ele>384.8333333333333</ele><time>2026-04-22T11:54:43.496Z</time></trkpt><trkpt lat="45.7387412" lon="8.5000645"><ele>386.0</ele><time>2026-04-22T11:54:53.497Z</time></trkpt><trkpt lat="45.7386384" lon="8.5000424"><ele>385.99999999999994</ele><time>2026-04-22T11:54:55.497Z</time></trkpt><trkpt lat="45.7385612" lon="8.5000298"><ele>386.0</ele><time>2026-04-22T11:54:57.497Z</time></trkpt><trkpt lat="45.738494" lon="8.5000078"><ele>386.0</ele><time>2026-04-22T11:54:58.496Z</time></trkpt><trkpt lat="45.7384037" lon="8.5000001"><ele>386.0</ele><time>2026-04-22T11:55:00.497Z</time></trkpt><trkpt lat="45.7383163" lon="8.5000153"><ele>385.99999999999994</ele><time>2026-04-22T11:55:02.497Z</time></trkpt><trkpt lat="45.7382347" lon="8.5000348"><ele>386.0</ele><time>2026-04-22T11:55:04.497Z</time></trkpt><trkpt lat="45.7381527" lon="8.5000154"><ele>384.6</ele><time>2026-04-22T11:55:06.497Z</time></trkpt><trkpt lat="45.7380608" lon="8.5000353"><ele>383.20000000000005</ele><time>2026-04-22T11:55:08.497Z</time></trkpt><trkpt lat="45.7379697" lon="8.5000564"><ele>381.79999999999995</ele><time>2026-04-22T11:55:10.497Z</time></trkpt><trkpt lat="45.7378658" lon="8.5000359"><ele>380.4</ele><time>2026-04-22T11:55:12.496Z</time></trkpt><trkpt lat="45.7377876" lon="8.5000334"><ele>379.0</ele><time>2026-04-22T11:55:14.496Z</time></trkpt><trkpt lat="45.7377048" lon="8.5001024"><ele>378.28571428571433</ele><time>2026-04-22T11:55:17.497Z</time></trkpt><trkpt lat="45.7376373" lon="8.5001581"><ele>377.57142857142856</ele><time>2026-04-22T11:55:19.497Z</time></trkpt><trkpt lat="45.7375717" lon="8.5002281"><ele>376.8571428571429</ele><time>2026-04-22T11:55:23.497Z</time></trkpt><trkpt lat="45.7375103" lon="8.5002666"><ele>376.14285714285717</ele><time>2026-04-22T11:55:25.497Z</time></trkpt><trkpt lat="45.7374476" lon="8.5003013"><ele>375.42857142857144</ele><time>2026-04-22T11:55:27.496Z</time></trkpt><trkpt lat="45.737398" lon="8.5003606"><ele>374.7142857142857</ele><time>2026-04-22T11:55:29.496Z</time></trkpt><trkpt lat="45.7373272" lon="8.5004332"><ele>374.0</ele><time>2026-04-22T11:55:32.497Z</time></trkpt><trkpt lat="45.7372737" lon="8.5005129"><ele>373.57142857142856</ele><time>2026-04-22T11:55:35.496Z</time></trkpt><trkpt lat="45.7373579" lon="8.5005402"><ele>373.14285714285717</ele><time>2026-04-22T11:55:51.496Z</time></trkpt><trkpt lat="45.7374327" lon="8.5005097"><ele>372.7142857142857</ele><time>2026-04-22T11:55:53.497Z</time></trkpt><trkpt lat="45.7374909" lon="8.5005489"><ele>372.2857142857143</ele><time>2026-04-22T11:55:58.496Z</time></trkpt><trkpt lat="45.7375638" lon="8.5005748"><ele>371.8571428571429</ele><time>2026-04-22T11:56:04.496Z</time></trkpt><trkpt lat="45.7376198" lon="8.5006278"><ele>371.42857142857144</ele><time>2026-04-22T11:56:11.496Z</time></trkpt><trkpt lat="45.7376955" lon="8.5006087"><ele>371.0</ele><time>2026-04-22T11:56:18.496Z</time></trkpt><trkpt lat="45.7377614" lon="8.5006046"><ele>371.0</ele><time>2026-04-22T11:56:46.497Z</time></trkpt><trkpt lat="45.7378265" lon="8.5006121"><ele>371.0</ele><time>2026-04-22T11:56:53.497Z</time></trkpt><trkpt lat="45.7379187" lon="8.5006143"><ele>371.0</ele><time>2026-04-22T11:56:56.497Z</time></trkpt><trkpt lat="45.7379849" lon="8.5006192"><ele>371.0</ele><time>2026-04-22T11:57:04.496Z</time></trkpt><trkpt lat="45.7380499" lon="8.5006204"><ele>371.0</ele><time>2026-04-22T11:57:25.497Z</time></trkpt><trkpt lat="45.7381202" lon="8.5006284"><ele>371.0</ele><time>2026-04-22T11:57:30.496Z</time></trkpt><trkpt lat="45.7381905" lon="8.5006207"><ele>371.0</ele><time>2026-04-22T11:57:45.497Z</time></trkpt><trkpt lat="45.7382536" lon="8.5006685"><ele>373.0</ele><time>2026-04-22T11:57:50.497Z</time></trkpt><trkpt lat="45.7387391" lon="8.5008548"><ele>373.0</ele><time>2026-04-22T12:00:16.497Z</time></trkpt><trkpt lat="45.7387524" lon="8.5009432"><ele>373.0</ele><time>2026-04-22T12:00:38.496Z</time></trkpt><trkpt lat="45.738793" lon="8.5010193"><ele>373.0</ele><time>2026-04-22T12:00:58.497Z</time></trkpt><trkpt lat="45.7388579" lon="8.5009934"><ele>373.0</ele><time>2026-04-22T12:01:25.496Z</time></trkpt><trkpt lat="45.7387985" lon="8.5010376"><ele>373.0</ele><time>2026-04-22T12:02:16.496Z</time></trkpt><trkpt lat="45.7387277" lon="8.5010493"><ele>373.0</ele><time>2026-04-22T12:02:24.497Z</time></trkpt><trkpt lat="45.7387335" lon="8.5009478"><ele>373.0</ele><time>2026-04-22T12:02:36.496Z</time></trkpt><trkpt lat="45.738717" lon="8.500852"><ele>373.0</ele><time>2026-04-22T12:02:44.496Z</time></trkpt><trkpt lat="45.7386417" lon="8.500818"><ele>373.0</ele><time>2026-04-22T12:02:49.497Z</time></trkpt><trkpt lat="45.7385752" lon="8.5007753"><ele>373.0</ele><time>2026-04-22T12:02:52.497Z</time></trkpt><trkpt lat="45.7385034" lon="8.5007429"><ele>373.0</ele><time>2026-04-22T12:03:22.497Z</time></trkpt><trkpt lat="45.7384301" lon="8.5007278"><ele>373.0</ele><time>2026-04-22T12:03:26.497Z</time></trkpt><trkpt lat="45.7383682" lon="8.5007019"><ele>373.0</ele><time>2026-04-22T12:03:29.497Z</time></trkpt><trkpt lat="45.7382985" lon="8.5006996"><ele>373.0</ele><time>2026-04-22T12:03:33.497Z</time></trkpt><trkpt lat="45.7382224" lon="8.5006689"><ele>372.7142857142857</ele><time>2026-04-22T12:03:39.497Z</time></trkpt><trkpt lat="45.7381635" lon="8.5006324"><ele>372.42857142857144</ele><time>2026-04-22T12:03:45.497Z</time></trkpt><trkpt lat="45.7380961" lon="8.5006381"><ele>372.1428571428571</ele><time>2026-04-22T12:03:52.497Z</time></trkpt><trkpt lat="45.7380339" lon="8.5006148"><ele>371.8571428571429</ele><time>2026-04-22T12:03:55.497Z</time></trkpt><trkpt lat="45.737954" lon="8.500625"><ele>371.57142857142856</ele><time>2026-04-22T12:04:01.497Z</time></trkpt><trkpt lat="45.73789" lon="8.5006109"><ele>371.2857142857143</ele><time>2026-04-22T12:04:04.497Z</time></trkpt><trkpt lat="45.7378293" lon="8.5006389"><ele>371.0</ele><time>2026-04-22T12:04:06.496Z</time></trkpt><trkpt lat="45.7377427" lon="8.5006274"><ele>367.0</ele><time>2026-04-22T12:04:09.496Z</time></trkpt><trkpt lat="45.7366883" lon="8.5004817"><ele>367.0</ele><time>2026-04-22T12:05:31.497Z</time></trkpt><trkpt lat="45.7366155" lon="8.5004768"><ele>367.0</ele><time>2026-04-22T12:05:33.497Z</time></trkpt><trkpt lat="45.7365421" lon="8.5004722"><ele>367.0</ele><time>2026-04-22T12:05:35.497Z</time></trkpt><trkpt lat="45.7364694" lon="8.5005016"><ele>367.0</ele><time>2026-04-22T12:05:45.497Z</time></trkpt><trkpt lat="45.7362305" lon="8.5004036"><ele>367.3333333333333</ele><time>2026-04-22T12:05:48.496Z</time></trkpt><trkpt lat="45.7361589" lon="8.5003731"><ele>367.66666666666663</ele><time>2026-04-22T12:05:49.496Z</time></trkpt><trkpt lat="45.7360767" lon="8.5003223"><ele>368.0</ele><time>2026-04-22T12:05:50.497Z</time></trkpt><trkpt lat="45.7359944" lon="8.5002936"><ele>368.3333333333333</ele><time>2026-04-22T12:05:51.497Z</time></trkpt><trkpt lat="45.7359353" lon="8.5002561"><ele>368.6666666666667</ele><time>2026-04-22T12:05:52.496Z</time></trkpt><trkpt lat="45.7358713" lon="8.5002158"><ele>369.0</ele><time>2026-04-22T12:05:53.497Z</time></trkpt><trkpt lat="45.7358108" lon="8.5001624"><ele>369.0</ele><time>2026-04-22T12:05:54.496Z</time></trkpt><trkpt lat="45.7357461" lon="8.5001222"><ele>369.0</ele><time>2026-04-22T12:05:55.497Z</time></trkpt><trkpt lat="45.7356746" lon="8.5000785"><ele>369.0</ele><time>2026-04-22T12:05:56.497Z</time></trkpt><trkpt lat="45.7356071" lon="8.5000487"><ele>369.0</ele><time>2026-04-22T12:05:57.497Z</time></trkpt><trkpt lat="45.7355449" lon="8.500025"><ele>369.0</ele><time>2026-04-22T12:05:58.497Z</time></trkpt><trkpt lat="45.7354625" lon="8.4999724"><ele>369.0</ele><time>2026-04-22T12:06:00.497Z</time></trkpt><trkpt lat="45.7353889" lon="8.4999948"><ele>369.0</ele><time>2026-04-22T12:06:01.496Z</time></trkpt><trkpt lat="45.735339" lon="8.5000542"><ele>369.0</ele><time>2026-04-22T12:06:02.496Z</time></trkpt><trkpt lat="45.7353393" lon="8.5001864"><ele>369.0</ele><time>2026-04-22T12:06:04.496Z</time></trkpt><trkpt lat="45.7352718" lon="8.5002717"><ele>369.0</ele><time>2026-04-22T12:06:07.497Z</time></trkpt><trkpt lat="45.7353386" lon="8.5004374"><ele>369.0</ele><time>2026-04-22T12:06:19.497Z</time></trkpt><trkpt lat="45.7353999" lon="8.5004964"><ele>369.0</ele><time>2026-04-22T12:06:25.496Z</time></trkpt><trkpt lat="45.7354585" lon="8.5005709"><ele>368.2</ele><time>2026-04-22T12:06:32.496Z</time></trkpt><trkpt lat="45.735592" lon="8.5007992"><ele>367.4</ele><time>2026-04-22T12:07:31.497Z</time></trkpt><trkpt lat="45.7356558" lon="8.5008616"><ele>366.6</ele><time>2026-04-22T12:07:37.498Z</time></trkpt><trkpt lat="45.735707" lon="8.5009429"><ele>365.8</ele><time>2026-04-22T12:07:40.498Z</time></trkpt><trkpt lat="45.735763" lon="8.501022"><ele>365.0</ele><time>2026-04-22T12:07:43.496Z</time></trkpt><trkpt lat="45.7358135" lon="8.5010874"><ele>365.00000000000006</ele><time>2026-04-22T12:07:46.498Z</time></trkpt><trkpt lat="45.7358691" lon="8.5011547"><ele>365.0</ele><time>2026-04-22T12:07:48.498Z</time></trkpt><trkpt lat="45.7359296" lon="8.5012158"><ele>365.0</ele><time>2026-04-22T12:07:49.497Z</time></trkpt><trkpt lat="45.7359798" lon="8.5012803"><ele>365.0</ele><time>2026-04-22T12:07:51.498Z</time></trkpt><trkpt lat="45.7360356" lon="8.5013238"><ele>365.0</ele><time>2026-04-22T12:07:53.498Z</time></trkpt><trkpt lat="45.7360973" lon="8.5013812"><ele>365.00000000000006</ele><time>2026-04-22T12:07:55.498Z</time></trkpt><trkpt lat="45.7361553" lon="8.5014226"><ele>365.0</ele><time>2026-04-22T12:07:58.498Z</time></trkpt><trkpt lat="45.7362203" lon="8.5014408"><ele>365.8</ele><time>2026-04-22T12:08:00.498Z</time></trkpt><trkpt lat="45.7363294" lon="8.5014407"><ele>366.6</ele><time>2026-04-22T12:08:02.498Z</time></trkpt><trkpt lat="45.736417" lon="8.5014388"><ele>367.4</ele><time>2026-04-22T12:08:03.497Z</time></trkpt><trkpt lat="45.7365173" lon="8.5014219"><ele>368.2</ele><time>2026-04-22T12:08:05.498Z</time></trkpt><trkpt lat="45.7366156" lon="8.5014192"><ele>369.0</ele><time>2026-04-22T12:08:07.498Z</time></trkpt><trkpt lat="45.736729" lon="8.5013906"><ele>369.0</ele><time>2026-04-22T12:08:09.498Z</time></trkpt><trkpt lat="45.736818" lon="8.5013653"><ele>369.0</ele><time>2026-04-22T12:08:10.497Z</time></trkpt><trkpt lat="45.7368826" lon="8.5013644"><ele>369.0</ele><time>2026-04-22T12:08:11.497Z</time></trkpt><trkpt lat="45.7369567" lon="8.5013355"><ele>369.0</ele><time>2026-04-22T12:08:13.498Z</time></trkpt><trkpt lat="45.7370171" lon="8.5013003"><ele>369.0</ele><time>2026-04-22T12:08:14.498Z</time></trkpt><trkpt lat="45.7370636" lon="8.5014011"><ele>369.0</ele><time>2026-04-22T12:08:15.498Z</time></trkpt><trkpt lat="45.737151" lon="8.5013901"><ele>370.0</ele><time>2026-04-22T12:08:17.498Z</time></trkpt><trkpt lat="45.7372591" lon="8.5013782"><ele>371.0</ele><time>2026-04-22T12:08:19.497Z</time></trkpt><trkpt lat="45.7373912" lon="8.5013564"><ele>372.0</ele><time>2026-04-22T12:08:21.497Z</time></trkpt><trkpt lat="45.7374561" lon="8.5013519"><ele>373.0</ele><time>2026-04-22T12:08:22.497Z</time></trkpt><trkpt lat="45.7375258" lon="8.5013301"><ele>374.0</ele><time>2026-04-22T12:08:23.497Z</time></trkpt><trkpt lat="45.7376359" lon="8.5013022"><ele>373.6</ele><time>2026-04-22T12:08:25.497Z</time></trkpt><trkpt lat="45.7377493" lon="8.5012625"><ele>373.2</ele><time>2026-04-22T12:08:27.498Z</time></trkpt><trkpt lat="45.7378191" lon="8.5012379"><ele>372.8</ele><time>2026-04-22T12:08:28.497Z</time></trkpt><trkpt lat="45.737961" lon="8.5012287"><ele>372.40000000000003</ele><time>2026-04-22T12:08:30.498Z</time></trkpt><trkpt lat="45.7380592" lon="8.5012528"><ele>372.0</ele><time>2026-04-22T12:08:31.498Z</time></trkpt><trkpt lat="45.7381752" lon="8.5012498"><ele>372.0</ele><time>2026-04-22T12:08:32.497Z</time></trkpt><trkpt lat="45.738251" lon="8.5012494"><ele>372.0</ele><time>2026-04-22T12:08:33.498Z</time></trkpt><trkpt lat="45.7383176" lon="8.5012371"><ele>372.0</ele><time>2026-04-22T12:08:34.497Z</time></trkpt><trkpt lat="45.73843" lon="8.5012254"><ele>372.0</ele><time>2026-04-22T12:08:36.498Z</time></trkpt><trkpt lat="45.7384996" lon="8.5012071"><ele>372.0</ele><time>2026-04-22T12:08:37.497Z</time></trkpt><trkpt lat="45.7386127" lon="8.5011734"><ele>372.0</ele><time>2026-04-22T12:08:39.498Z</time></trkpt><trkpt lat="45.7387295" lon="8.5011637"><ele>372.20000000000005</ele><time>2026-04-22T12:08:41.498Z</time></trkpt><trkpt lat="45.738799" lon="8.5011565"><ele>372.4</ele><time>2026-04-22T12:08:42.497Z</time></trkpt><trkpt lat="45.7389284" lon="8.5011746"><ele>372.6</ele><time>2026-04-22T12:08:44.497Z</time></trkpt><trkpt lat="45.7390134" lon="8.5012033"><ele>372.79999999999995</ele><time>2026-04-22T12:08:46.498Z</time></trkpt><trkpt lat="45.739078" lon="8.5012294"><ele>373.0</ele><time>2026-04-22T12:08:56.496Z</time></trkpt><trkpt lat="45.7392026" lon="8.5012527"><ele>373.2</ele><time>2026-04-22T12:08:58.497Z</time></trkpt><trkpt lat="45.7393141" lon="8.5012635"><ele>373.4</ele><time>2026-04-22T12:09:00.498Z</time></trkpt><trkpt lat="45.739411" lon="8.5012602"><ele>373.59999999999997</ele><time>2026-04-22T12:09:02.498Z</time></trkpt><trkpt lat="45.7395358" lon="8.5012478"><ele>373.79999999999995</ele><time>2026-04-22T12:09:04.497Z</time></trkpt><trkpt lat="45.7396091" lon="8.5012207"><ele>374.0</ele><time>2026-04-22T12:09:06.498Z</time></trkpt><trkpt lat="45.7396718" lon="8.5012109"><ele>374.0</ele><time>2026-04-22T12:09:07.498Z</time></trkpt><trkpt lat="45.7397914" lon="8.5011907"><ele>374.0</ele><time>2026-04-22T12:09:09.497Z</time></trkpt><trkpt lat="45.7398591" lon="8.5011628"><ele>374.0</ele><time>2026-04-22T12:09:10.497Z</time></trkpt><trkpt lat="45.7399331" lon="8.5011364"><ele>374.0</ele><time>2026-04-22T12:09:11.497Z</time></trkpt><trkpt lat="45.7399987" lon="8.5011312"><ele>374.0</ele><time>2026-04-22T12:09:12.498Z</time></trkpt><trkpt lat="45.740058" lon="8.5010907"><ele>374.0</ele><time>2026-04-22T12:09:13.498Z</time></trkpt><trkpt lat="45.7401649" lon="8.5010809"><ele>374.0</ele><time>2026-04-22T12:09:15.497Z</time></trkpt><trkpt lat="45.7402777" lon="8.5010802"><ele>374.0</ele><time>2026-04-22T12:09:17.498Z</time></trkpt><trkpt lat="45.740357" lon="8.5011076"><ele>374.0</ele><time>2026-04-22T12:09:19.498Z</time></trkpt><trkpt lat="45.7404371" lon="8.5011154"><ele>374.0</ele><time>2026-04-22T12:09:21.497Z</time></trkpt><trkpt lat="45.7405263" lon="8.5011229"><ele>374.0</ele><time>2026-04-22T12:09:23.498Z</time></trkpt><trkpt lat="45.7406283" lon="8.5011067"><ele>374.0</ele><time>2026-04-22T12:09:25.498Z</time></trkpt><trkpt lat="45.7407313" lon="8.5010634"><ele>374.0</ele><time>2026-04-22T12:09:27.497Z</time></trkpt><trkpt lat="45.7408188" lon="8.5010514"><ele>374.0</ele><time>2026-04-22T12:09:29.497Z</time></trkpt><trkpt lat="45.7409141" lon="8.5010394"><ele>374.0</ele><time>2026-04-22T12:09:31.498Z</time></trkpt><trkpt lat="45.7409979" lon="8.5010255"><ele>374.0</ele><time>2026-04-22T12:09:32.498Z</time></trkpt><trkpt lat="45.7411063" lon="8.5010143"><ele>374.6666666666667</ele><time>2026-04-22T12:09:34.497Z</time></trkpt><trkpt lat="45.7411695" lon="8.5009912"><ele>375.33333333333337</ele><time>2026-04-22T12:09:35.497Z</time></trkpt><trkpt lat="45.7412331" lon="8.5009617"><ele>376.0</ele><time>2026-04-22T12:09:36.498Z</time></trkpt><trkpt lat="45.7413485" lon="8.5009387"><ele>376.6666666666667</ele><time>2026-04-22T12:09:38.497Z</time></trkpt><trkpt lat="45.7414188" lon="8.5009133"><ele>377.3333333333333</ele><time>2026-04-22T12:09:39.497Z</time></trkpt><trkpt lat="45.7415003" lon="8.5008824"><ele>378.0</ele><time>2026-04-22T12:09:40.498Z</time></trkpt><trkpt lat="45.7416065" lon="8.5008144"><ele>378.0</ele><time>2026-04-22T12:09:42.498Z</time></trkpt><trkpt lat="45.7417169" lon="8.5007761"><ele>378.0</ele><time>2026-04-22T12:09:44.498Z</time></trkpt><trkpt lat="45.7417799" lon="8.5007688"><ele>378.0</ele><time>2026-04-22T12:09:45.497Z</time></trkpt><trkpt lat="45.7418447" lon="8.5007556"><ele>378.0</ele><time>2026-04-22T12:09:46.497Z</time></trkpt><trkpt lat="45.7419635" lon="8.5007243"><ele>378.0</ele><time>2026-04-22T12:09:48.497Z</time></trkpt><trkpt lat="45.7420412" lon="8.5006759"><ele>378.0</ele><time>2026-04-22T12:09:49.496Z</time></trkpt><trkpt lat="45.7421355" lon="8.5006896"><ele>378.79999999999995</ele><time>2026-04-22T12:09:50.498Z</time></trkpt><trkpt lat="45.7422211" lon="8.5006989"><ele>379.6</ele><time>2026-04-22T12:09:51.497Z</time></trkpt><trkpt lat="45.7423504" lon="8.5007137"><ele>380.4</ele><time>2026-04-22T12:09:53.497Z</time></trkpt><trkpt lat="45.7424202" lon="8.5007248"><ele>381.20000000000005</ele><time>2026-04-22T12:09:54.498Z</time></trkpt><trkpt lat="45.7424855" lon="8.5007396"><ele>382.0</ele><time>2026-04-22T12:09:55.498Z</time></trkpt><trkpt lat="45.7426127" lon="8.5007585"><ele>382.0</ele><time>2026-04-22T12:09:57.496Z</time></trkpt><trkpt lat="45.7426887" lon="8.5007829"><ele>382.0</ele><time>2026-04-22T12:09:58.498Z</time></trkpt><trkpt lat="45.7428" lon="8.5008138"><ele>382.0</ele><time>2026-04-22T12:10:00.497Z</time></trkpt><trkpt lat="45.7428644" lon="8.5008596"><ele>382.0</ele><time>2026-04-22T12:10:01.498Z</time></trkpt><trkpt lat="45.7429395" lon="8.5008919"><ele>382.0</ele><time>2026-04-22T12:10:02.497Z</time></trkpt><trkpt lat="45.7430082" lon="8.5009281"><ele>382.0</ele><time>2026-04-22T12:10:03.498Z</time></trkpt><trkpt lat="45.7430728" lon="8.500976"><ele>382.0</ele><time>2026-04-22T12:10:04.498Z</time></trkpt><trkpt lat="45.7432237" lon="8.5011345"><ele>382.0</ele><time>2026-04-22T12:10:06.497Z</time></trkpt><trkpt lat="45.7433239" lon="8.5012182"><ele>382.0</ele><time>2026-04-22T12:10:08.498Z</time></trkpt><trkpt lat="45.743382" lon="8.5012833"><ele>382.0</ele><time>2026-04-22T12:10:09.497Z</time></trkpt><trkpt lat="45.7434355" lon="8.5013541"><ele>382.40000000000003</ele><time>2026-04-22T12:10:10.497Z</time></trkpt><trkpt lat="45.7434914" lon="8.5014124"><ele>382.8</ele><time>2026-04-22T12:10:11.498Z</time></trkpt><trkpt lat="45.743573" lon="8.5015257"><ele>383.2</ele><time>2026-04-22T12:10:13.498Z</time></trkpt><trkpt lat="45.7436248" lon="8.5016653"><ele>383.6</ele><time>2026-04-22T12:10:15.498Z</time></trkpt><trkpt lat="45.7436857" lon="8.50181"><ele>384.0</ele><time>2026-04-22T12:10:17.497Z</time></trkpt><trkpt lat="45.7437352" lon="8.501962"><ele>382.79999999999995</ele><time>2026-04-22T12:10:19.497Z</time></trkpt><trkpt lat="45.7437759" lon="8.5021176"><ele>381.59999999999997</ele><time>2026-04-22T12:10:21.497Z</time></trkpt><trkpt lat="45.7437816" lon="8.5022092"><ele>380.4</ele><time>2026-04-22T12:10:22.498Z</time></trkpt><trkpt lat="45.7438098" lon="8.5023331"><ele>379.2</ele><time>2026-04-22T12:10:24.497Z</time></trkpt><trkpt lat="45.7438583" lon="8.5024147"><ele>378.0</ele><time>2026-04-22T12:10:27.498Z</time></trkpt><trkpt lat="45.743964" lon="8.5024285"><ele>378.0</ele><time>2026-04-22T12:10:29.498Z</time></trkpt><trkpt lat="45.74405" lon="8.5024242"><ele>378.0</ele><time>2026-04-22T12:10:30.497Z</time></trkpt><trkpt lat="45.7441437" lon="8.5024197"><ele>378.0</ele><time>2026-04-22T12:10:31.497Z</time></trkpt><trkpt lat="45.7442498" lon="8.5024114"><ele>378.0</ele><time>2026-04-22T12:10:32.497Z</time></trkpt><trkpt lat="45.7443504" lon="8.5024031"><ele>378.0</ele><time>2026-04-22T12:10:33.497Z</time></trkpt><trkpt lat="45.744446" lon="8.5023993"><ele>377.79999999999995</ele><time>2026-04-22T12:10:34.497Z</time></trkpt><trkpt lat="45.7445363" lon="8.5023953"><ele>377.6</ele><time>2026-04-22T12:10:35.498Z</time></trkpt><trkpt lat="45.7446226" lon="8.5023889"><ele>377.4</ele><time>2026-04-22T12:10:36.496Z</time></trkpt><trkpt lat="45.7447083" lon="8.5023548"><ele>377.20000000000005</ele><time>2026-04-22T12:10:37.498Z</time></trkpt><trkpt lat="45.7447956" lon="8.5023024"><ele>377.0</ele><time>2026-04-22T12:10:38.498Z</time></trkpt><trkpt lat="45.7448802" lon="8.5022247"><ele>377.0</ele><time>2026-04-22T12:10:39.497Z</time></trkpt><trkpt lat="45.744957" lon="8.5021422"><ele>377.0</ele><time>2026-04-22T12:10:40.497Z</time></trkpt><trkpt lat="45.7450226" lon="8.5020734"><ele>377.0</ele><time>2026-04-22T12:10:41.498Z</time></trkpt><trkpt lat="45.7450792" lon="8.5020257"><ele>377.0</ele><time>2026-04-22T12:10:42.497Z</time></trkpt><trkpt lat="45.745167" lon="8.5019718"><ele>377.0</ele><time>2026-04-22T12:10:44.498Z</time></trkpt><trkpt lat="45.7452425" lon="8.5019913"><ele>377.0</ele><time>2026-04-22T12:10:46.497Z</time></trkpt><trkpt lat="45.7453249" lon="8.5020954"><ele>377.5</ele><time>2026-04-22T12:10:48.497Z</time></trkpt><trkpt lat="45.7453676" lon="8.5021626"><ele>378.0</ele><time>2026-04-22T12:10:49.497Z</time></trkpt><trkpt lat="45.74546" lon="8.5022199"><ele>378.5</ele><time>2026-04-22T12:10:51.497Z</time></trkpt><trkpt lat="45.7455247" lon="8.5022242"><ele>379.0</ele><time>2026-04-22T12:10:52.496Z</time></trkpt><trkpt lat="45.7455964" lon="8.5022165"><ele>379.5</ele><time>2026-04-22T12:10:53.498Z</time></trkpt><trkpt lat="45.7456751" lon="8.5022082"><ele>380.0</ele><time>2026-04-22T12:10:54.498Z</time></trkpt><trkpt lat="45.7457626" lon="8.5021899"><ele>380.0</ele><time>2026-04-22T12:10:55.496Z</time></trkpt><trkpt lat="45.7458546" lon="8.5021735"><ele>380.0</ele><time>2026-04-22T12:10:56.497Z</time></trkpt><trkpt lat="45.745947" lon="8.502152"><ele>380.0</ele><time>2026-04-22T12:10:57.498Z</time></trkpt><trkpt lat="45.7460407" lon="8.5021355"><ele>380.0</ele><time>2026-04-22T12:10:58.497Z</time></trkpt><trkpt lat="45.7461268" lon="8.5021189"><ele>380.0</ele><time>2026-04-22T12:10:59.497Z</time></trkpt><trkpt lat="45.7462128" lon="8.5020953"><ele>379.83333333333337</ele><time>2026-04-22T12:11:00.497Z</time></trkpt><trkpt lat="45.7462933" lon="8.5020692"><ele>379.6666666666667</ele><time>2026-04-22T12:11:01.498Z</time></trkpt><trkpt lat="45.7463712" lon="8.5020351"><ele>379.5</ele><time>2026-04-22T12:11:02.497Z</time></trkpt><trkpt lat="45.7464497" lon="8.5019962"><ele>379.3333333333333</ele><time>2026-04-22T12:11:03.498Z</time></trkpt><trkpt lat="45.74654" lon="8.5019469"><ele>379.16666666666663</ele><time>2026-04-22T12:11:04.498Z</time></trkpt><trkpt lat="45.7466323" lon="8.5018821"><ele>379.0</ele><time>2026-04-22T12:11:05.497Z</time></trkpt><trkpt lat="45.7467203" lon="8.5018183"><ele>379.0</ele><time>2026-04-22T12:11:06.497Z</time></trkpt><trkpt lat="45.746805" lon="8.5017662"><ele>379.0</ele><time>2026-04-22T12:11:07.498Z</time></trkpt><trkpt lat="45.7469116" lon="8.5017255"><ele>379.0</ele><time>2026-04-22T12:11:08.498Z</time></trkpt><trkpt lat="45.7470212" lon="8.5016815"><ele>379.0</ele><time>2026-04-22T12:11:09.497Z</time></trkpt><trkpt lat="45.7471312" lon="8.5016286"><ele>379.0</ele><time>2026-04-22T12:11:10.497Z</time></trkpt><trkpt lat="45.7472548" lon="8.5015647"><ele>379.0</ele><time>2026-04-22T12:11:11.498Z</time></trkpt><trkpt lat="45.7473813" lon="8.501534"><ele>379.0</ele><time>2026-04-22T12:11:12.497Z</time></trkpt><trkpt lat="45.7475035" lon="8.5014715"><ele>379.0</ele><time>2026-04-22T12:11:13.496Z</time></trkpt><trkpt lat="45.7476552" lon="8.5014352"><ele>379.0</ele><time>2026-04-22T12:11:14.497Z</time></trkpt><trkpt lat="45.7477855" lon="8.5014053"><ele>379.0</ele><time>2026-04-22T12:11:15.498Z</time></trkpt><trkpt lat="45.7479321" lon="8.5013346"><ele>379.0</ele><time>2026-04-22T12:11:17.497Z</time></trkpt><trkpt lat="45.7480153" lon="8.5013041"><ele>379.0</ele><time>2026-04-22T12:11:18.498Z</time></trkpt><trkpt lat="45.748105" lon="8.5012741"><ele>379.0</ele><time>2026-04-22T12:11:19.497Z</time></trkpt><trkpt lat="45.7481924" lon="8.5012394"><ele>379.0</ele><time>2026-04-22T12:11:20.498Z</time></trkpt><trkpt lat="45.7482888" lon="8.5012004"><ele>379.5</ele><time>2026-04-22T12:11:21.498Z</time></trkpt><trkpt lat="45.7483717" lon="8.501165"><ele>380.0</ele><time>2026-04-22T12:11:22.498Z</time></trkpt><trkpt lat="45.7484465" lon="8.5011321"><ele>380.5</ele><time>2026-04-22T12:11:23.498Z</time></trkpt><trkpt lat="45.7485128" lon="8.5010895"><ele>381.0</ele><time>2026-04-22T12:11:24.497Z</time></trkpt><trkpt lat="45.7485818" lon="8.5010496"><ele>381.5</ele><time>2026-04-22T12:11:25.497Z</time></trkpt><trkpt lat="45.7486912" lon="8.5009855"><ele>382.0</ele><time>2026-04-22T12:11:27.498Z</time></trkpt><trkpt lat="45.7487809" lon="8.5009449"><ele>382.8</ele><time>2026-04-22T12:11:29.498Z</time></trkpt><trkpt lat="45.7488294" lon="8.5008723"><ele>383.6</ele><time>2026-04-22T12:11:31.498Z</time></trkpt><trkpt lat="45.7488288" lon="8.5007666"><ele>384.40000000000003</ele><time>2026-04-22T12:11:33.498Z</time></trkpt><trkpt lat="45.7487633" lon="8.5006484"><ele>385.20000000000005</ele><time>2026-04-22T12:11:35.498Z</time></trkpt><trkpt lat="45.7486916" lon="8.5005253"><ele>386.0</ele><time>2026-04-22T12:11:37.497Z</time></trkpt><trkpt lat="45.7486692" lon="8.5004027"><ele>386.4</ele><time>2026-04-22T12:11:39.498Z</time></trkpt><trkpt lat="45.7486357" lon="8.5002745"><ele>386.8</ele><time>2026-04-22T12:11:41.497Z</time></trkpt><trkpt lat="45.7486108" lon="8.5001246"><ele>387.2</ele><time>2026-04-22T12:11:43.497Z</time></trkpt><trkpt lat="45.7486415" lon="8.5000204"><ele>387.59999999999997</ele><time>2026-04-22T12:11:45.496Z</time></trkpt><trkpt lat="45.7486888" lon="8.4998864"><ele>388.0</ele><time>2026-04-22T12:11:47.497Z</time></trkpt><trkpt lat="45.7487238" lon="8.4997284"><ele>388.0</ele><time>2026-04-22T12:11:49.497Z</time></trkpt><trkpt lat="45.7487548" lon="8.4996087"><ele>388.0</ele><time>2026-04-22T12:11:51.496Z</time></trkpt><trkpt lat="45.7487521" lon="8.499515"><ele>388.0</ele><time>2026-04-22T12:11:52.497Z</time></trkpt><trkpt lat="45.7488028" lon="8.4993852"><ele>388.0</ele><time>2026-04-22T12:11:54.497Z</time></trkpt><trkpt lat="45.7488463" lon="8.4993153"><ele>388.0</ele><time>2026-04-22T12:11:55.497Z</time></trkpt><trkpt lat="45.7489216" lon="8.499161"><ele>390.4</ele><time>2026-04-22T12:11:57.497Z</time></trkpt><trkpt lat="45.7489612" lon="8.4990806"><ele>392.79999999999995</ele><time>2026-04-22T12:11:58.496Z</time></trkpt><trkpt lat="45.74903" lon="8.4989329"><ele>395.2</ele><time>2026-04-22T12:12:00.497Z</time></trkpt><trkpt lat="45.7490487" lon="8.4988449"><ele>397.6</ele><time>2026-04-22T12:12:01.497Z</time></trkpt><trkpt lat="45.749088" lon="8.4987001"><ele>400.0</ele><time>2026-04-22T12:12:03.497Z</time></trkpt><trkpt lat="45.7491251" lon="8.4985502"><ele>400.1666666666667</ele><time>2026-04-22T12:12:05.497Z</time></trkpt><trkpt lat="45.7491371" lon="8.4984534"><ele>400.33333333333337</ele><time>2026-04-22T12:12:06.495Z</time></trkpt><trkpt lat="45.7491068" lon="8.4983444"><ele>400.5</ele><time>2026-04-22T12:12:07.497Z</time></trkpt><trkpt lat="45.7490979" lon="8.4982212"><ele>400.66666666666663</ele><time>2026-04-22T12:12:08.497Z</time></trkpt><trkpt lat="45.7490865" lon="8.4981"><ele>400.8333333333333</ele><time>2026-04-22T12:12:09.497Z</time></trkpt><trkpt lat="45.7490813" lon="8.4979902"><ele>401.0</ele><time>2026-04-22T12:12:10.495Z</time></trkpt><trkpt lat="45.7490708" lon="8.4978909"><ele>400.99999999999994</ele><time>2026-04-22T12:12:11.496Z</time></trkpt><trkpt lat="45.749052" lon="8.4977936"><ele>401.0</ele><time>2026-04-22T12:12:12.497Z</time></trkpt><trkpt lat="45.7490393" lon="8.4977022"><ele>401.0</ele><time>2026-04-22T12:12:13.495Z</time></trkpt><trkpt lat="45.7490389" lon="8.4975706"><ele>401.0</ele><time>2026-04-22T12:12:15.497Z</time></trkpt><trkpt lat="45.7489772" lon="8.4975091"><ele>400.99999999999994</ele><time>2026-04-22T12:12:18.497Z</time></trkpt><trkpt lat="45.7488991" lon="8.4975096"><ele>401.0</ele><time>2026-04-22T12:12:20.497Z</time></trkpt><trkpt lat="45.7488438" lon="8.497393"><ele>401.0</ele><time>2026-04-22T12:12:23.496Z</time></trkpt><trkpt lat="45.748837" lon="8.4972585"><ele>401.0</ele><time>2026-04-22T12:12:25.496Z</time></trkpt><trkpt lat="45.7488441" lon="8.4971146"><ele>401.0</ele><time>2026-04-22T12:12:27.497Z</time></trkpt><trkpt lat="45.7488506" lon="8.4969487"><ele>401.0</ele><time>2026-04-22T12:12:29.497Z</time></trkpt><trkpt lat="45.7488505" lon="8.4968312"><ele>401.0</ele><time>2026-04-22T12:12:31.496Z</time></trkpt><trkpt lat="45.7488496" lon="8.4966586"><ele>400.66666666666663</ele><time>2026-04-22T12:12:33.496Z</time></trkpt><trkpt lat="45.7488658" lon="8.4965164"><ele>400.3333333333333</ele><time>2026-04-22T12:12:35.497Z</time></trkpt><trkpt lat="45.7488484" lon="8.4964063"><ele>400.0</ele><time>2026-04-22T12:12:36.496Z</time></trkpt><trkpt lat="45.7488678" lon="8.496264"><ele>399.66666666666663</ele><time>2026-04-22T12:12:40.497Z</time></trkpt><trkpt lat="45.7488994" lon="8.4961582"><ele>399.3333333333333</ele><time>2026-04-22T12:12:42.497Z</time></trkpt><trkpt lat="45.7489081" lon="8.4960607"><ele>399.0</ele><time>2026-04-22T12:12:44.496Z</time></trkpt><trkpt lat="45.7488535" lon="8.4959722"><ele>398.8333333333333</ele><time>2026-04-22T12:12:47.496Z</time></trkpt><trkpt lat="45.7487744" lon="8.4959892"><ele>398.66666666666663</ele><time>2026-04-22T12:12:50.496Z</time></trkpt><trkpt lat="45.7486968" lon="8.4959877"><ele>398.5</ele><time>2026-04-22T12:12:52.497Z</time></trkpt><trkpt lat="45.7486252" lon="8.4959765"><ele>398.3333333333333</ele><time>2026-04-22T12:12:55.497Z</time></trkpt><trkpt lat="45.7487122" lon="8.4959817"><ele>398.16666666666663</ele><time>2026-04-22T12:13:10.497Z</time></trkpt><trkpt lat="45.7488079" lon="8.4959723"><ele>398.0</ele><time>2026-04-22T12:13:13.497Z</time></trkpt><trkpt lat="45.7488798" lon="8.4959949"><ele>397.99999999999994</ele><time>2026-04-22T12:13:16.497Z</time></trkpt><trkpt lat="45.7488789" lon="8.4960933"><ele>398.0</ele><time>2026-04-22T12:13:19.497Z</time></trkpt><trkpt lat="45.7488812" lon="8.4961909"><ele>398.0</ele><time>2026-04-22T12:13:21.496Z</time></trkpt><trkpt lat="45.7489332" lon="8.4962421"><ele>398.0</ele><time>2026-04-22T12:13:24.496Z</time></trkpt><trkpt lat="45.7489842" lon="8.4961713"><ele>398.0</ele><time>2026-04-22T12:13:27.496Z</time></trkpt><trkpt lat="45.7489734" lon="8.4960749"><ele>397.99999999999994</ele><time>2026-04-22T12:13:29.497Z</time></trkpt><trkpt lat="45.7489915" lon="8.4959859"><ele>398.0</ele><time>2026-04-22T12:13:31.497Z</time></trkpt><trkpt lat="45.7490375" lon="8.4959053"><ele>397.99999999999994</ele><time>2026-04-22T12:13:33.496Z</time></trkpt><trkpt lat="45.749081" lon="8.4958073"><ele>398.0</ele><time>2026-04-22T12:13:35.497Z</time></trkpt><trkpt lat="45.7491251" lon="8.4957159"><ele>398.0</ele><time>2026-04-22T12:13:37.497Z</time></trkpt><trkpt lat="45.7491628" lon="8.4956305"><ele>398.0</ele><time>2026-04-22T12:13:40.496Z</time></trkpt><trkpt lat="45.7491621" lon="8.4955015"><ele>397.99999999999994</ele><time>2026-04-22T12:13:44.497Z</time></trkpt><trkpt lat="45.7491293" lon="8.4954"><ele>398.0</ele><time>2026-04-22T12:13:46.496Z</time></trkpt><trkpt lat="45.7491464" lon="8.495194"><ele>398.0</ele><time>2026-04-22T12:13:48.495Z</time></trkpt><trkpt lat="45.7491533" lon="8.4950334"><ele>398.0</ele><time>2026-04-22T12:13:50.497Z</time></trkpt><trkpt lat="45.7491319" lon="8.4948873"><ele>398.0</ele><time>2026-04-22T12:13:52.497Z</time></trkpt><trkpt lat="45.7491203" lon="8.494734"><ele>398.0</ele><time>2026-04-22T12:13:54.497Z</time></trkpt><trkpt lat="45.749115" lon="8.4945863"><ele>398.0</ele><time>2026-04-22T12:13:56.496Z</time></trkpt><trkpt lat="45.7491047" lon="8.494475"><ele>397.57142857142856</ele><time>2026-04-22T12:13:58.497Z</time></trkpt><trkpt lat="45.7490961" lon="8.4943699"><ele>397.1428571428571</ele><time>2026-04-22T12:14:00.497Z</time></trkpt><trkpt lat="45.7491001" lon="8.4942774"><ele>396.71428571428567</ele><time>2026-04-22T12:14:02.496Z</time></trkpt><trkpt lat="45.7490944" lon="8.4941861"><ele>396.2857142857143</ele><time>2026-04-22T12:14:04.497Z</time></trkpt><trkpt lat="45.7491104" lon="8.494072"><ele>395.8571428571429</ele><time>2026-04-22T12:14:07.496Z</time></trkpt><trkpt lat="45.7491553" lon="8.4939961"><ele>395.4285714285714</ele><time>2026-04-22T12:14:11.496Z</time></trkpt><trkpt lat="45.7491879" lon="8.4938908"><ele>395.0</ele><time>2026-04-22T12:14:14.497Z</time></trkpt><trkpt lat="45.7492223" lon="8.4938075"><ele>394.99999999999994</ele><time>2026-04-22T12:14:16.497Z</time></trkpt><trkpt lat="45.7492724" lon="8.4937333"><ele>395.0</ele><time>2026-04-22T12:14:18.496Z</time></trkpt><trkpt lat="45.7493207" lon="8.4936622"><ele>395.0</ele><time>2026-04-22T12:14:20.497Z</time></trkpt><trkpt lat="45.749361" lon="8.4935838"><ele>395.0</ele><time>2026-04-22T12:14:22.497Z</time></trkpt><trkpt lat="45.7494203" lon="8.4934884"><ele>394.99999999999994</ele><time>2026-04-22T12:14:25.497Z</time></trkpt><trkpt lat="45.7494509" lon="8.4933788"><ele>395.0</ele><time>2026-04-22T12:14:29.498Z</time></trkpt><trkpt lat="45.7494383" lon="8.4932649"><ele>395.2857142857143</ele><time>2026-04-22T12:14:33.497Z</time></trkpt><trkpt lat="45.7494269" lon="8.4931731"><ele>395.5714285714286</ele><time>2026-04-22T12:14:38.498Z</time></trkpt><trkpt lat="45.7494277" lon="8.4930803"><ele>395.8571428571429</ele><time>2026-04-22T12:14:45.498Z</time></trkpt><trkpt lat="45.7494087" lon="8.4929926"><ele>396.1428571428571</ele><time>2026-04-22T12:14:59.498Z</time></trkpt><trkpt lat="45.7493959" lon="8.4928958"><ele>396.42857142857144</ele><time>2026-04-22T12:15:05.497Z</time></trkpt><trkpt lat="45.7494011" lon="8.4928013"><ele>396.7142857142857</ele><time>2026-04-22T12:15:10.497Z</time></trkpt><trkpt lat="45.7494247" lon="8.4927096"><ele>397.0</ele><time>2026-04-22T12:15:13.497Z</time></trkpt><trkpt lat="45.7494684" lon="8.4926086"><ele>397.00000000000006</ele><time>2026-04-22T12:15:15.498Z</time></trkpt><trkpt lat="45.7494963" lon="8.4925045"><ele>397.0</ele><time>2026-04-22T12:15:17.497Z</time></trkpt><trkpt lat="45.7495309" lon="8.4924112"><ele>397.0</ele><time>2026-04-22T12:15:19.498Z</time></trkpt><trkpt lat="45.7496022" lon="8.4923193"><ele>397.0</ele><time>2026-04-22T12:15:21.498Z</time></trkpt><trkpt lat="45.7496601" lon="8.4922434"><ele>397.00000000000006</ele><time>2026-04-22T12:15:22.498Z</time></trkpt><trkpt lat="45.7497364" lon="8.4921332"><ele>397.0</ele><time>2026-04-22T12:15:24.497Z</time></trkpt><trkpt lat="45.7497725" lon="8.4920565"><ele>397.33333333333337</ele><time>2026-04-22T12:15:27.498Z</time></trkpt><trkpt lat="45.7498246" lon="8.49199"><ele>397.6666666666667</ele><time>2026-04-22T12:15:30.497Z</time></trkpt><trkpt lat="45.7498729" lon="8.4919159"><ele>398.0</ele><time>2026-04-22T12:15:32.498Z</time></trkpt><trkpt lat="45.7499296" lon="8.4918279"><ele>398.33333333333337</ele><time>2026-04-22T12:15:34.497Z</time></trkpt><trkpt lat="45.7499766" lon="8.4917254"><ele>398.6666666666667</ele><time>2026-04-22T12:15:36.498Z</time></trkpt><trkpt lat="45.750022" lon="8.4916194"><ele>399.0</ele><time>2026-04-22T12:15:38.496Z</time></trkpt><trkpt lat="45.7500637" lon="8.4915232"><ele>399.0</ele><time>2026-04-22T12:15:40.498Z</time></trkpt><trkpt lat="45.7501026" lon="8.491445"><ele>399.0</ele><time>2026-04-22T12:15:42.497Z</time></trkpt><trkpt lat="45.7501532" lon="8.491327"><ele>399.0</ele><time>2026-04-22T12:15:45.498Z</time></trkpt><trkpt lat="45.7501959" lon="8.4912423"><ele>399.0</ele><time>2026-04-22T12:15:47.497Z</time></trkpt><trkpt lat="45.7502296" lon="8.4911513"><ele>399.0</ele><time>2026-04-22T12:15:49.498Z</time></trkpt><trkpt lat="45.7502564" lon="8.4910596"><ele>399.0</ele><time>2026-04-22T12:15:51.497Z</time></trkpt><trkpt lat="45.7502803" lon="8.4909722"><ele>399.0</ele><time>2026-04-22T12:15:53.497Z</time></trkpt><trkpt lat="45.7502795" lon="8.4908791"><ele>399.0</ele><time>2026-04-22T12:15:55.497Z</time></trkpt><trkpt lat="45.7502835" lon="8.4907747"><ele>399.0</ele><time>2026-04-22T12:15:57.497Z</time></trkpt><trkpt lat="45.7503079" lon="8.4906488"><ele>399.0</ele><time>2026-04-22T12:15:59.498Z</time></trkpt><trkpt lat="45.750341" lon="8.4905212"><ele>399.0</ele><time>2026-04-22T12:16:02.497Z</time></trkpt><trkpt lat="45.7503761" lon="8.49042"><ele>399.0</ele><time>2026-04-22T12:16:04.497Z</time></trkpt><trkpt lat="45.7504329" lon="8.4903092"><ele>399.0</ele><time>2026-04-22T12:16:06.497Z</time></trkpt><trkpt lat="45.7504836" lon="8.4902484"><ele>399.0</ele><time>2026-04-22T12:16:07.497Z</time></trkpt><trkpt lat="45.7505353" lon="8.4901182"><ele>399.0</ele><time>2026-04-22T12:16:09.498Z</time></trkpt><trkpt lat="45.7505807" lon="8.4899885"><ele>399.0</ele><time>2026-04-22T12:16:11.497Z</time></trkpt><trkpt lat="45.7506175" lon="8.4898628"><ele>399.0</ele><time>2026-04-22T12:16:13.498Z</time></trkpt><trkpt lat="45.7506408" lon="8.4897726"><ele>399.0</ele><time>2026-04-22T12:16:14.498Z</time></trkpt><trkpt lat="45.7506901" lon="8.4896635"><ele>399.5</ele><time>2026-04-22T12:16:16.498Z</time></trkpt><trkpt lat="45.7507395" lon="8.48958"><ele>400.0</ele><time>2026-04-22T12:16:18.498Z</time></trkpt><trkpt lat="45.7507872" lon="8.4894856"><ele>400.5</ele><time>2026-04-22T12:16:20.498Z</time></trkpt><trkpt lat="45.7508202" lon="8.4893894"><ele>401.0</ele><time>2026-04-22T12:16:22.498Z</time></trkpt><trkpt lat="45.7508463" lon="8.4892585"><ele>401.5</ele><time>2026-04-22T12:16:24.497Z</time></trkpt><trkpt lat="45.7509035" lon="8.48914"><ele>402.0</ele><time>2026-04-22T12:16:26.498Z</time></trkpt><trkpt lat="45.7509194" lon="8.4890219"><ele>402.0</ele><time>2026-04-22T12:16:28.498Z</time></trkpt><trkpt lat="45.7508758" lon="8.4888954"><ele>402.0</ele><time>2026-04-22T12:16:30.497Z</time></trkpt><trkpt lat="45.7508844" lon="8.4887828"><ele>402.0</ele><time>2026-04-22T12:16:32.498Z</time></trkpt><trkpt lat="45.7508886" lon="8.4886335"><ele>402.0</ele><time>2026-04-22T12:16:34.497Z</time></trkpt><trkpt lat="45.7508993" lon="8.4885013"><ele>402.0</ele><time>2026-04-22T12:16:36.498Z</time></trkpt><trkpt lat="45.7508878" lon="8.4883417"><ele>402.5</ele><time>2026-04-22T12:16:38.497Z</time></trkpt><trkpt lat="45.7509154" lon="8.4882455"><ele>403.0</ele><time>2026-04-22T12:16:40.498Z</time></trkpt><trkpt lat="45.7509467" lon="8.4881512"><ele>403.5</ele><time>2026-04-22T12:16:42.498Z</time></trkpt><trkpt lat="45.7510137" lon="8.4880731"><ele>404.0</ele><time>2026-04-22T12:16:44.498Z</time></trkpt><trkpt lat="45.7510658" lon="8.4879931"><ele>404.5</ele><time>2026-04-22T12:16:46.497Z</time></trkpt><trkpt lat="45.7510982" lon="8.4878739"><ele>405.0</ele><time>2026-04-22T12:16:48.497Z</time></trkpt><trkpt lat="45.7511559" lon="8.487721"><ele>406.1428571428571</ele><time>2026-04-22T12:16:50.497Z</time></trkpt><trkpt lat="45.7512006" lon="8.4876488"><ele>407.2857142857143</ele><time>2026-04-22T12:16:51.497Z</time></trkpt><trkpt lat="45.7512661" lon="8.4875805"><ele>408.42857142857144</ele><time>2026-04-22T12:16:52.496Z</time></trkpt><trkpt lat="45.7513241" lon="8.4875423"><ele>409.57142857142856</ele><time>2026-04-22T12:16:53.498Z</time></trkpt><trkpt lat="45.7514204" lon="8.4874968"><ele>410.7142857142857</ele><time>2026-04-22T12:16:55.496Z</time></trkpt><trkpt lat="45.7514709" lon="8.48743"><ele>411.85714285714283</ele><time>2026-04-22T12:16:58.498Z</time></trkpt><trkpt lat="45.7515341" lon="8.4874101"><ele>413.0</ele><time>2026-04-22T12:17:00.498Z</time></trkpt><trkpt lat="45.7516085" lon="8.4874056"><ele>413.0</ele><time>2026-04-22T12:17:01.497Z</time></trkpt><trkpt lat="45.7516929" lon="8.4873931"><ele>413.0</ele><time>2026-04-22T12:17:02.497Z</time></trkpt><trkpt lat="45.7517966" lon="8.4873667"><ele>413.0</ele><time>2026-04-22T12:17:03.498Z</time></trkpt><trkpt lat="45.7519039" lon="8.4873268"><ele>413.0</ele><time>2026-04-22T12:17:04.497Z</time></trkpt><trkpt lat="45.752013" lon="8.4872844"><ele>413.0</ele><time>2026-04-22T12:17:05.497Z</time></trkpt><trkpt lat="45.7521252" lon="8.4872535"><ele>413.4</ele><time>2026-04-22T12:17:06.498Z</time></trkpt><trkpt lat="45.7522429" lon="8.4872321"><ele>413.79999999999995</ele><time>2026-04-22T12:17:07.497Z</time></trkpt><trkpt lat="45.7523611" lon="8.4872178"><ele>414.2</ele><time>2026-04-22T12:17:08.497Z</time></trkpt><trkpt lat="45.7524736" lon="8.4872111"><ele>414.6</ele><time>2026-04-22T12:17:09.498Z</time></trkpt><trkpt lat="45.7525706" lon="8.4872005"><ele>415.0</ele><time>2026-04-22T12:17:10.497Z</time></trkpt><trkpt lat="45.7526565" lon="8.4871885"><ele>415.14285714285717</ele><time>2026-04-22T12:17:11.498Z</time></trkpt><trkpt lat="45.752732" lon="8.4871795"><ele>415.28571428571433</ele><time>2026-04-22T12:17:12.498Z</time></trkpt><trkpt lat="45.7528029" lon="8.4871736"><ele>415.42857142857144</ele><time>2026-04-22T12:17:13.498Z</time></trkpt><trkpt lat="45.7528661" lon="8.4871685"><ele>415.57142857142856</ele><time>2026-04-22T12:17:14.497Z</time></trkpt><trkpt lat="45.7529311" lon="8.4871596"><ele>415.7142857142857</ele><time>2026-04-22T12:17:15.497Z</time></trkpt><trkpt lat="45.7530025" lon="8.4871483"><ele>415.85714285714283</ele><time>2026-04-22T12:17:16.498Z</time></trkpt><trkpt lat="45.7530649" lon="8.4871288"><ele>416.0</ele><time>2026-04-22T12:17:17.498Z</time></trkpt><trkpt lat="45.7531437" lon="8.4870038"><ele>416.0</ele><time>2026-04-22T12:17:19.498Z</time></trkpt><trkpt lat="45.7531523" lon="8.4869019"><ele>416.0</ele><time>2026-04-22T12:17:20.498Z</time></trkpt><trkpt lat="45.7531624" lon="8.4867835"><ele>416.0</ele><time>2026-04-22T12:17:21.497Z</time></trkpt><trkpt lat="45.7531895" lon="8.4866598"><ele>416.0</ele><time>2026-04-22T12:17:22.498Z</time></trkpt><trkpt lat="45.7532366" lon="8.4865348"><ele>416.0</ele><time>2026-04-22T12:17:23.496Z</time></trkpt><trkpt lat="45.7533003" lon="8.4863991"><ele>417.0</ele><time>2026-04-22T12:17:24.497Z</time></trkpt><trkpt lat="45.7533727" lon="8.4862558"><ele>418.0</ele><time>2026-04-22T12:17:25.498Z</time></trkpt><trkpt lat="45.7534508" lon="8.4861043"><ele>419.0</ele><time>2026-04-22T12:17:26.496Z</time></trkpt><trkpt lat="45.7535324" lon="8.4859501"><ele>420.0</ele><time>2026-04-22T12:17:27.498Z</time></trkpt><trkpt lat="45.7536145" lon="8.4857934"><ele>420.0</ele><time>2026-04-22T12:17:28.497Z</time></trkpt><trkpt lat="45.7536973" lon="8.4856332"><ele>420.0</ele><time>2026-04-22T12:17:29.498Z</time></trkpt><trkpt lat="45.753773" lon="8.4854809"><ele>420.0</ele><time>2026-04-22T12:17:30.498Z</time></trkpt><trkpt lat="45.7538426" lon="8.4853385"><ele>420.0</ele><time>2026-04-22T12:17:31.498Z</time></trkpt><trkpt lat="45.7539081" lon="8.4852082"><ele>419.8</ele><time>2026-04-22T12:17:32.498Z</time></trkpt><trkpt lat="45.7539705" lon="8.4850849"><ele>419.6</ele><time>2026-04-22T12:17:33.497Z</time></trkpt><trkpt lat="45.7540367" lon="8.4849597"><ele>419.4</ele><time>2026-04-22T12:17:34.498Z</time></trkpt><trkpt lat="45.7541039" lon="8.4848387"><ele>419.2</ele><time>2026-04-22T12:17:35.498Z</time></trkpt><trkpt lat="45.754169" lon="8.4847142"><ele>419.0</ele><time>2026-04-22T12:17:36.498Z</time></trkpt><trkpt lat="45.7542391" lon="8.4845857"><ele>418.75</ele><time>2026-04-22T12:17:37.496Z</time></trkpt><trkpt lat="45.7543184" lon="8.4844533"><ele>418.5</ele><time>2026-04-22T12:17:38.498Z</time></trkpt><trkpt lat="45.7544076" lon="8.4843331"><ele>418.25</ele><time>2026-04-22T12:17:39.497Z</time></trkpt><trkpt lat="45.7545086" lon="8.4842352"><ele>418.0</ele><time>2026-04-22T12:17:40.497Z</time></trkpt><trkpt lat="45.7546227" lon="8.4841664"><ele>418.79999999999995</ele><time>2026-04-22T12:17:41.497Z</time></trkpt><trkpt lat="45.7547432" lon="8.4841169"><ele>419.6</ele><time>2026-04-22T12:17:42.498Z</time></trkpt><trkpt lat="45.7548542" lon="8.4840768"><ele>420.4</ele><time>2026-04-22T12:17:43.498Z</time></trkpt><trkpt lat="45.7549581" lon="8.4840342"><ele>421.20000000000005</ele><time>2026-04-22T12:17:44.498Z</time></trkpt><trkpt lat="45.7550542" lon="8.4839967"><ele>422.0</ele><time>2026-04-22T12:17:45.497Z</time></trkpt><trkpt lat="45.7551428" lon="8.4839616"><ele>421.99999999999994</ele><time>2026-04-22T12:17:46.498Z</time></trkpt><trkpt lat="45.7552176" lon="8.4839309"><ele>422.0</ele><time>2026-04-22T12:17:47.498Z</time></trkpt><trkpt lat="45.7552814" lon="8.4839143"><ele>422.0</ele><time>2026-04-22T12:17:48.496Z</time></trkpt><trkpt lat="45.7553562" lon="8.4838961"><ele>422.0</ele><time>2026-04-22T12:17:50.496Z</time></trkpt><trkpt lat="45.7553987" lon="8.4837722"><ele>421.99999999999994</ele><time>2026-04-22T12:18:01.497Z</time></trkpt><trkpt lat="45.7553792" lon="8.4836862"><ele>422.0</ele><time>2026-04-22T12:18:02.497Z</time></trkpt><trkpt lat="45.7553446" lon="8.4835773"><ele>422.5</ele><time>2026-04-22T12:18:03.497Z</time></trkpt><trkpt lat="45.7552949" lon="8.4834516"><ele>423.0</ele><time>2026-04-22T12:18:04.497Z</time></trkpt><trkpt lat="45.7552366" lon="8.4833088"><ele>423.5</ele><time>2026-04-22T12:18:05.498Z</time></trkpt><trkpt lat="45.7551668" lon="8.4831422"><ele>424.0</ele><time>2026-04-22T12:18:06.498Z</time></trkpt><trkpt lat="45.7550942" lon="8.4829664"><ele>424.5</ele><time>2026-04-22T12:18:07.497Z</time></trkpt><trkpt lat="45.7550154" lon="8.4827801"><ele>425.0</ele><time>2026-04-22T12:18:08.498Z</time></trkpt><trkpt lat="45.7549424" lon="8.4826029"><ele>425.5</ele><time>2026-04-22T12:18:09.498Z</time></trkpt><trkpt lat="45.7548702" lon="8.4824283"><ele>426.0</ele><time>2026-04-22T12:18:10.498Z</time></trkpt><trkpt lat="45.7547996" lon="8.4822537"><ele>426.5</ele><time>2026-04-22T12:18:11.497Z</time></trkpt><trkpt lat="45.7547301" lon="8.4820838"><ele>427.0</ele><time>2026-04-22T12:18:12.498Z</time></trkpt><trkpt lat="45.7546631" lon="8.481918"><ele>427.5</ele><time>2026-04-22T12:18:13.497Z</time></trkpt><trkpt lat="45.7546" lon="8.4817613"><ele>428.0</ele><time>2026-04-22T12:18:14.497Z</time></trkpt><trkpt lat="45.7545412" lon="8.4816237"><ele>428.0</ele><time>2026-04-22T12:18:15.497Z</time></trkpt><trkpt lat="45.7544915" lon="8.4815081"><ele>427.99999999999994</ele><time>2026-04-22T12:18:16.498Z</time></trkpt><trkpt lat="45.7544561" lon="8.4814194"><ele>427.99999999999994</ele><time>2026-04-22T12:18:17.496Z</time></trkpt><trkpt lat="45.754419" lon="8.4812938"><ele>428.0</ele><time>2026-04-22T12:18:19.498Z</time></trkpt><trkpt lat="45.7544548" lon="8.4811718"><ele>428.0</ele><time>2026-04-22T12:18:21.497Z</time></trkpt><trkpt lat="45.7545182" lon="8.4810128"><ele>428.49999999999994</ele><time>2026-04-22T12:18:23.497Z</time></trkpt><trkpt lat="45.7545601" lon="8.4809269"><ele>429.0</ele><time>2026-04-22T12:18:24.498Z</time></trkpt><trkpt lat="45.7546046" lon="8.4808322"><ele>429.5</ele><time>2026-04-22T12:18:25.498Z</time></trkpt><trkpt lat="45.7546365" lon="8.4807177"><ele>430.0</ele><time>2026-04-22T12:18:26.498Z</time></trkpt><trkpt lat="45.7546758" lon="8.4805951"><ele>430.49999999999994</ele><time>2026-04-22T12:18:27.497Z</time></trkpt><trkpt lat="45.7547266" lon="8.4804739"><ele>431.0</ele><time>2026-04-22T12:18:28.498Z</time></trkpt><trkpt lat="45.7547863" lon="8.4803513"><ele>431.6</ele><time>2026-04-22T12:18:29.498Z</time></trkpt><trkpt lat="45.7548454" lon="8.480229"><ele>432.20000000000005</ele><time>2026-04-22T12:18:30.498Z</time></trkpt><trkpt lat="45.7548837" lon="8.4801085"><ele>432.79999999999995</ele><time>2026-04-22T12:18:31.497Z</time></trkpt><trkpt lat="45.7549179" lon="8.4799773"><ele>433.4</ele><time>2026-04-22T12:18:32.498Z</time></trkpt><trkpt lat="45.7549467" lon="8.4798611"><ele>434.0</ele><time>2026-04-22T12:18:33.498Z</time></trkpt><trkpt lat="45.7549736" lon="8.479754"><ele>433.99999999999994</ele><time>2026-04-22T12:18:34.496Z</time></trkpt><trkpt lat="45.7550012" lon="8.4796554"><ele>434.0</ele><time>2026-04-22T12:18:35.497Z</time></trkpt><trkpt lat="45.7550263" lon="8.479566"><ele>434.0</ele><time>2026-04-22T12:18:36.497Z</time></trkpt><trkpt lat="45.7550503" lon="8.4794819"><ele>434.0</ele><time>2026-04-22T12:18:37.497Z</time></trkpt><trkpt lat="45.7550835" lon="8.479332"><ele>433.99999999999994</ele><time>2026-04-22T12:18:39.497Z</time></trkpt><trkpt lat="45.7551" lon="8.479212"><ele>434.0</ele><time>2026-04-22T12:18:41.497Z</time></trkpt><trkpt lat="45.7551151" lon="8.4790896"><ele>433.8333333333333</ele><time>2026-04-22T12:18:44.497Z</time></trkpt><trkpt lat="45.7551106" lon="8.4789865"><ele>433.66666666666663</ele><time>2026-04-22T12:18:46.498Z</time></trkpt><trkpt lat="45.7550978" lon="8.4788154"><ele>433.5</ele><time>2026-04-22T12:18:48.496Z</time></trkpt><trkpt lat="45.7550856" lon="8.4787125"><ele>433.33333333333337</ele><time>2026-04-22T12:18:49.497Z</time></trkpt><trkpt lat="45.755068" lon="8.4786099"><ele>433.1666666666667</ele><time>2026-04-22T12:18:50.498Z</time></trkpt><trkpt lat="45.7550501" lon="8.4784947"><ele>433.0</ele><time>2026-04-22T12:18:51.497Z</time></trkpt><trkpt lat="45.7550336" lon="8.4783835"><ele>432.59999999999997</ele><time>2026-04-22T12:18:52.498Z</time></trkpt><trkpt lat="45.7550184" lon="8.47828"><ele>432.19999999999993</ele><time>2026-04-22T12:18:53.497Z</time></trkpt><trkpt lat="45.7550096" lon="8.478185"><ele>431.8</ele><time>2026-04-22T12:18:54.497Z</time></trkpt><trkpt lat="45.7550051" lon="8.4780144"><ele>431.4</ele><time>2026-04-22T12:18:56.497Z</time></trkpt><trkpt lat="45.7550261" lon="8.4778338"><ele>431.0</ele><time>2026-04-22T12:18:58.496Z</time></trkpt><trkpt lat="45.7550397" lon="8.4777397"><ele>431.49999999999994</ele><time>2026-04-22T12:18:59.498Z</time></trkpt><trkpt lat="45.7550553" lon="8.4776483"><ele>432.0</ele><time>2026-04-22T12:19:00.498Z</time></trkpt><trkpt lat="45.7550732" lon="8.4775617"><ele>432.5</ele><time>2026-04-22T12:19:01.498Z</time></trkpt><trkpt lat="45.7550938" lon="8.4774052"><ele>433.0</ele><time>2026-04-22T12:19:03.498Z</time></trkpt><trkpt lat="45.7551201" lon="8.4772975"><ele>433.49999999999994</ele><time>2026-04-22T12:19:05.498Z</time></trkpt><trkpt lat="45.7551988" lon="8.4772385"><ele>434.0</ele><time>2026-04-22T12:19:08.497Z</time></trkpt><trkpt lat="45.7552729" lon="8.4772387"><ele>433.99999999999994</ele><time>2026-04-22T12:19:10.498Z</time></trkpt><trkpt lat="45.7553367" lon="8.4772379"><ele>434.0</ele><time>2026-04-22T12:19:11.496Z</time></trkpt><trkpt lat="45.7554036" lon="8.4772349"><ele>434.0</ele><time>2026-04-22T12:19:12.497Z</time></trkpt><trkpt lat="45.7554689" lon="8.4772336"><ele>434.0</ele><time>2026-04-22T12:19:13.498Z</time></trkpt><trkpt lat="45.7555406" lon="8.4772089"><ele>433.99999999999994</ele><time>2026-04-22T12:19:14.496Z</time></trkpt><trkpt lat="45.7556121" lon="8.4771768"><ele>434.0</ele><time>2026-04-22T12:19:15.498Z</time></trkpt><trkpt lat="45.7557388" lon="8.4770936"><ele>432.3333333333333</ele><time>2026-04-22T12:19:17.497Z</time></trkpt><trkpt lat="45.7558105" lon="8.4770413"><ele>430.66666666666663</ele><time>2026-04-22T12:19:18.498Z</time></trkpt><trkpt lat="45.7558777" lon="8.4769886"><ele>429.0</ele><time>2026-04-22T12:19:19.498Z</time></trkpt><trkpt lat="45.7559445" lon="8.4769347"><ele>427.33333333333337</ele><time>2026-04-22T12:19:20.497Z</time></trkpt><trkpt lat="45.7560068" lon="8.4769043"><ele>425.6666666666667</ele><time>2026-04-22T12:19:21.497Z</time></trkpt><trkpt lat="45.7561207" lon="8.4768587"><ele>424.0</ele><time>2026-04-22T12:19:23.497Z</time></trkpt><trkpt lat="45.7562383" lon="8.4768568"><ele>424.00000000000006</ele><time>2026-04-22T12:19:25.498Z</time></trkpt><trkpt lat="45.756361" lon="8.4768785"><ele>424.0</ele><time>2026-04-22T12:19:27.498Z</time></trkpt><trkpt lat="45.7564305" lon="8.4768437"><ele>424.0</ele><time>2026-04-22T12:19:29.498Z</time></trkpt><trkpt lat="45.7564966" lon="8.4767587"><ele>424.0</ele><time>2026-04-22T12:19:31.498Z</time></trkpt><trkpt lat="45.7565432" lon="8.4766903"><ele>424.00000000000006</ele><time>2026-04-22T12:19:32.498Z</time></trkpt><trkpt lat="45.7566035" lon="8.4766274"><ele>424.0</ele><time>2026-04-22T12:19:33.498Z</time></trkpt><trkpt lat="45.7566687" lon="8.4765654"><ele>424.00000000000006</ele><time>2026-04-22T12:19:34.497Z</time></trkpt><trkpt lat="45.7567324" lon="8.4765074"><ele>424.0</ele><time>2026-04-22T12:19:35.497Z</time></trkpt><trkpt lat="45.7567949" lon="8.476449"><ele>424.0</ele><time>2026-04-22T12:19:36.498Z</time></trkpt><trkpt lat="45.7568505" lon="8.4763935"><ele>424.0</ele><time>2026-04-22T12:19:37.496Z</time></trkpt><trkpt lat="45.7569035" lon="8.4763378"><ele>424.00000000000006</ele><time>2026-04-22T12:19:38.498Z</time></trkpt><trkpt lat="45.7569578" lon="8.4762799"><ele>424.0</ele><time>2026-04-22T12:19:39.498Z</time></trkpt><trkpt lat="45.7570625" lon="8.476246"><ele>422.2</ele><time>2026-04-22T12:19:41.498Z</time></trkpt><trkpt lat="45.7571929" lon="8.4762271"><ele>420.4</ele><time>2026-04-22T12:19:43.497Z</time></trkpt><trkpt lat="45.7572765" lon="8.4762183"><ele>418.6</ele><time>2026-04-22T12:19:44.498Z</time></trkpt><trkpt lat="45.7573889" lon="8.476204"><ele>416.8</ele><time>2026-04-22T12:19:45.498Z</time></trkpt><trkpt lat="45.7574819" lon="8.4762063"><ele>415.0</ele><time>2026-04-22T12:19:46.498Z</time></trkpt><trkpt lat="45.7575702" lon="8.4761982"><ele>415.0</ele><time>2026-04-22T12:19:47.497Z</time></trkpt><trkpt lat="45.7576542" lon="8.4761864"><ele>415.0</ele><time>2026-04-22T12:19:48.497Z</time></trkpt><trkpt lat="45.7577293" lon="8.4761748"><ele>415.0</ele><time>2026-04-22T12:19:49.498Z</time></trkpt><trkpt lat="45.7577988" lon="8.4761606"><ele>415.0</ele><time>2026-04-22T12:19:50.497Z</time></trkpt><trkpt lat="45.757897" lon="8.4761437"><ele>415.0</ele><time>2026-04-22T12:19:52.497Z</time></trkpt><trkpt lat="45.7579906" lon="8.4759653"><ele>414.8</ele><time>2026-04-22T12:19:55.497Z</time></trkpt><trkpt lat="45.7580383" lon="8.4758898"><ele>414.6</ele><time>2026-04-22T12:19:56.498Z</time></trkpt><trkpt lat="45.7581214" lon="8.4757464"><ele>414.4</ele><time>2026-04-22T12:19:58.498Z</time></trkpt><trkpt lat="45.758141" lon="8.4756357"><ele>414.2</ele><time>2026-04-22T12:20:00.498Z</time></trkpt><trkpt lat="45.758174" lon="8.4754755"><ele>414.0</ele><time>2026-04-22T12:20:02.497Z</time></trkpt><trkpt lat="45.7581932" lon="8.4753158"><ele>414.0</ele><time>2026-04-22T12:20:04.498Z</time></trkpt><trkpt lat="45.7582059" lon="8.4752259"><ele>414.0</ele><time>2026-04-22T12:20:05.498Z</time></trkpt><trkpt lat="45.7582201" lon="8.4751322"><ele>414.0</ele><time>2026-04-22T12:20:06.498Z</time></trkpt><trkpt lat="45.7582297" lon="8.4750292"><ele>414.0</ele><time>2026-04-22T12:20:07.497Z</time></trkpt><trkpt lat="45.7582383" lon="8.4749287"><ele>414.0</ele><time>2026-04-22T12:20:08.498Z</time></trkpt><trkpt lat="45.7582482" lon="8.4747565"><ele>414.0</ele><time>2026-04-22T12:20:10.498Z</time></trkpt><trkpt lat="45.7582873" lon="8.474652"><ele>413.6666666666667</ele><time>2026-04-22T12:20:11.498Z</time></trkpt><trkpt lat="45.758322" lon="8.4745581"><ele>413.33333333333337</ele><time>2026-04-22T12:20:12.497Z</time></trkpt><trkpt lat="45.7583625" lon="8.4744763"><ele>413.0</ele><time>2026-04-22T12:20:13.498Z</time></trkpt><trkpt lat="45.7583959" lon="8.4743734"><ele>412.6666666666667</ele><time>2026-04-22T12:20:14.498Z</time></trkpt><trkpt lat="45.7584264" lon="8.474267"><ele>412.33333333333337</ele><time>2026-04-22T12:20:15.497Z</time></trkpt><trkpt lat="45.7584579" lon="8.4741659"><ele>412.0</ele><time>2026-04-22T12:20:16.497Z</time></trkpt><trkpt lat="45.7584796" lon="8.474066"><ele>411.99999999999994</ele><time>2026-04-22T12:20:17.498Z</time></trkpt><trkpt lat="45.7584966" lon="8.4739721"><ele>412.0</ele><time>2026-04-22T12:20:18.497Z</time></trkpt><trkpt lat="45.7585089" lon="8.4738651"><ele>412.0</ele><time>2026-04-22T12:20:19.498Z</time></trkpt><trkpt lat="45.7585251" lon="8.4737601"><ele>412.0</ele><time>2026-04-22T12:20:20.498Z</time></trkpt><trkpt lat="45.7585436" lon="8.473653"><ele>412.0</ele><time>2026-04-22T12:20:21.497Z</time></trkpt><trkpt lat="45.7585686" lon="8.4735485"><ele>411.99999999999994</ele><time>2026-04-22T12:20:22.497Z</time></trkpt><trkpt lat="45.7585913" lon="8.4734468"><ele>412.0</ele><time>2026-04-22T12:20:23.497Z</time></trkpt><trkpt lat="45.7586095" lon="8.4733523"><ele>411.8</ele><time>2026-04-22T12:20:24.498Z</time></trkpt><trkpt lat="45.7586173" lon="8.4731898"><ele>411.6</ele><time>2026-04-22T12:20:26.498Z</time></trkpt><trkpt lat="45.7586072" lon="8.4730576"><ele>411.40000000000003</ele><time>2026-04-22T12:20:28.498Z</time></trkpt><trkpt lat="45.7586143" lon="8.4729404"><ele>411.20000000000005</ele><time>2026-04-22T12:20:30.497Z</time></trkpt><trkpt lat="45.7586455" lon="8.4728005"><ele>411.0</ele><time>2026-04-22T12:20:32.498Z</time></trkpt><trkpt lat="45.7586367" lon="8.4727109"><ele>411.8</ele><time>2026-04-22T12:20:33.498Z</time></trkpt><trkpt lat="45.7586517" lon="8.4725784"><ele>412.6</ele><time>2026-04-22T12:20:35.498Z</time></trkpt><trkpt lat="45.7587457" lon="8.4725218"><ele>413.4</ele><time>2026-04-22T12:20:38.498Z</time></trkpt><trkpt lat="45.7588784" lon="8.4726069"><ele>414.2</ele><time>2026-04-22T12:20:40.497Z</time></trkpt><trkpt lat="45.7589695" lon="8.472655"><ele>415.0</ele><time>2026-04-22T12:20:41.497Z</time></trkpt><trkpt lat="45.7590692" lon="8.4727011"><ele>415.0</ele><time>2026-04-22T12:20:42.497Z</time></trkpt><trkpt lat="45.7591834" lon="8.4727462"><ele>415.0</ele><time>2026-04-22T12:20:43.498Z</time></trkpt><trkpt lat="45.7593032" lon="8.4727847"><ele>415.0</ele><time>2026-04-22T12:20:44.497Z</time></trkpt><trkpt lat="45.7594375" lon="8.4728088"><ele>415.0</ele><time>2026-04-22T12:20:45.497Z</time></trkpt><trkpt lat="45.7595695" lon="8.4728326"><ele>414.75</ele><time>2026-04-22T12:20:46.496Z</time></trkpt><trkpt lat="45.7597007" lon="8.4728669"><ele>414.5</ele><time>2026-04-22T12:20:47.498Z</time></trkpt><trkpt lat="45.7598022" lon="8.4729429"><ele>414.25</ele><time>2026-04-22T12:20:48.498Z</time></trkpt><trkpt lat="45.7599123" lon="8.4730344"><ele>414.0</ele><time>2026-04-22T12:20:49.497Z</time></trkpt><trkpt lat="45.7600004" lon="8.4731411"><ele>413.6</ele><time>2026-04-22T12:20:50.498Z</time></trkpt><trkpt lat="45.7600803" lon="8.4732523"><ele>413.2</ele><time>2026-04-22T12:20:51.497Z</time></trkpt><trkpt lat="45.7601588" lon="8.4733547"><ele>412.8</ele><time>2026-04-22T12:20:52.498Z</time></trkpt><trkpt lat="45.7602327" lon="8.4734455"><ele>412.40000000000003</ele><time>2026-04-22T12:20:53.497Z</time></trkpt><trkpt lat="45.7602946" lon="8.4735296"><ele>412.0</ele><time>2026-04-22T12:20:54.498Z</time></trkpt><trkpt lat="45.7603348" lon="8.4736115"><ele>411.8</ele><time>2026-04-22T12:20:55.497Z</time></trkpt><trkpt lat="45.7603289" lon="8.4737786"><ele>411.6</ele><time>2026-04-22T12:20:57.497Z</time></trkpt><trkpt lat="45.760256" lon="8.4739582"><ele>411.40000000000003</ele><time>2026-04-22T12:20:59.498Z</time></trkpt><trkpt lat="45.760216" lon="8.4740521"><ele>411.20000000000005</ele><time>2026-04-22T12:21:00.498Z</time></trkpt><trkpt lat="45.7601795" lon="8.4741277"><ele>411.0</ele><time>2026-04-22T12:21:01.496Z</time></trkpt><trkpt lat="45.7601431" lon="8.4742649"><ele>411.0</ele><time>2026-04-22T12:21:03.498Z</time></trkpt><trkpt lat="45.7601885" lon="8.4744106"><ele>411.0</ele><time>2026-04-22T12:21:05.497Z</time></trkpt><trkpt lat="45.7602434" lon="8.4744769"><ele>411.0</ele><time>2026-04-22T12:21:06.498Z</time></trkpt><trkpt lat="45.7602962" lon="8.4745385"><ele>411.0</ele><time>2026-04-22T12:21:07.497Z</time></trkpt><trkpt lat="45.7603585" lon="8.4745904"><ele>411.0</ele><time>2026-04-22T12:21:08.497Z</time></trkpt><trkpt lat="45.7604202" lon="8.4746577"><ele>411.0</ele><time>2026-04-22T12:21:09.498Z</time></trkpt><trkpt lat="45.7605613" lon="8.4747232"><ele>410.75</ele><time>2026-04-22T12:21:10.498Z</time></trkpt><trkpt lat="45.7606729" lon="8.4747941"><ele>410.5</ele><time>2026-04-22T12:21:11.498Z</time></trkpt><trkpt lat="45.7607758" lon="8.4748686"><ele>410.25</ele><time>2026-04-22T12:21:12.498Z</time></trkpt><trkpt lat="45.7608876" lon="8.4749416"><ele>410.0</ele><time>2026-04-22T12:21:13.498Z</time></trkpt><trkpt lat="45.7609837" lon="8.4750157"><ele>410.4</ele><time>2026-04-22T12:21:14.498Z</time></trkpt><trkpt lat="45.7610785" lon="8.4750948"><ele>410.8</ele><time>2026-04-22T12:21:15.497Z</time></trkpt><trkpt lat="45.7611672" lon="8.475172"><ele>411.20000000000005</ele><time>2026-04-22T12:21:16.497Z</time></trkpt><trkpt lat="45.7612576" lon="8.4752586"><ele>411.6</ele><time>2026-04-22T12:21:17.498Z</time></trkpt><trkpt lat="45.7613532" lon="8.4753453"><ele>412.0</ele><time>2026-04-22T12:21:18.498Z</time></trkpt><trkpt lat="45.7614503" lon="8.4754474"><ele>412.20000000000005</ele><time>2026-04-22T12:21:19.498Z</time></trkpt><trkpt lat="45.7615306" lon="8.4755175"><ele>412.4</ele><time>2026-04-22T12:21:20.497Z</time></trkpt><trkpt lat="45.7615906" lon="8.4755854"><ele>412.6</ele><time>2026-04-22T12:21:21.498Z</time></trkpt><trkpt lat="45.7616446" lon="8.4756537"><ele>412.79999999999995</ele><time>2026-04-22T12:21:22.498Z</time></trkpt><trkpt lat="45.7616713" lon="8.4757458"><ele>413.0</ele><time>2026-04-22T12:21:23.498Z</time></trkpt><trkpt lat="45.7617628" lon="8.4759253"><ele>413.0</ele><time>2026-04-22T12:21:25.497Z</time></trkpt><trkpt lat="45.7617204" lon="8.47606"><ele>413.0</ele><time>2026-04-22T12:21:26.497Z</time></trkpt><trkpt lat="45.7617066" lon="8.476295"><ele>413.0</ele><time>2026-04-22T12:21:27.498Z</time></trkpt><trkpt lat="45.7617142" lon="8.4764455"><ele>413.0</ele><time>2026-04-22T12:21:28.498Z</time></trkpt><trkpt lat="45.7617063" lon="8.4765814"><ele>413.0</ele><time>2026-04-22T12:21:29.497Z</time></trkpt><trkpt lat="45.7617002" lon="8.476709"><ele>413.0</ele><time>2026-04-22T12:21:30.497Z</time></trkpt><trkpt lat="45.7617232" lon="8.4768637"><ele>413.0</ele><time>2026-04-22T12:21:31.498Z</time></trkpt><trkpt lat="45.7617328" lon="8.4770003"><ele>413.0</ele><time>2026-04-22T12:21:32.497Z</time></trkpt><trkpt lat="45.7617499" lon="8.4771527"><ele>413.0</ele><time>2026-04-22T12:21:33.498Z</time></trkpt><trkpt lat="45.7616992" lon="8.4773529"><ele>413.25</ele><time>2026-04-22T12:21:35.497Z</time></trkpt><trkpt lat="45.7615934" lon="8.4775061"><ele>413.5</ele><time>2026-04-22T12:21:37.497Z</time></trkpt><trkpt lat="45.761506" lon="8.477627"><ele>413.75</ele><time>2026-04-22T12:21:38.497Z</time></trkpt><trkpt lat="45.7614444" lon="8.4777375"><ele>414.0</ele><time>2026-04-22T12:21:39.498Z</time></trkpt><trkpt lat="45.7613879" lon="8.4778392"><ele>414.0</ele><time>2026-04-22T12:21:40.498Z</time></trkpt><trkpt lat="45.7613284" lon="8.4779303"><ele>414.0</ele><time>2026-04-22T12:21:41.497Z</time></trkpt><trkpt lat="45.7612709" lon="8.4780142"><ele>414.0</ele><time>2026-04-22T12:21:42.498Z</time></trkpt><trkpt lat="45.761205" lon="8.4781112"><ele>414.0</ele><time>2026-04-22T12:21:43.497Z</time></trkpt><trkpt lat="45.7611362" lon="8.4782058"><ele>414.0</ele><time>2026-04-22T12:21:44.497Z</time></trkpt><trkpt lat="45.7610608" lon="8.478291"><ele>413.79999999999995</ele><time>2026-04-22T12:21:45.498Z</time></trkpt><trkpt lat="45.7609878" lon="8.4783698"><ele>413.59999999999997</ele><time>2026-04-22T12:21:46.498Z</time></trkpt><trkpt lat="45.7609059" lon="8.4784495"><ele>413.4</ele><time>2026-04-22T12:21:47.497Z</time></trkpt><trkpt lat="45.7608125" lon="8.478548"><ele>413.2</ele><time>2026-04-22T12:21:48.497Z</time></trkpt><trkpt lat="45.7607342" lon="8.4786285"><ele>413.0</ele><time>2026-04-22T12:21:49.498Z</time></trkpt><trkpt lat="45.7606783" lon="8.4786761"><ele>412.99999999999994</ele><time>2026-04-22T12:21:50.498Z</time></trkpt><trkpt lat="45.7606222" lon="8.4787282"><ele>413.0</ele><time>2026-04-22T12:21:52.498Z</time></trkpt><trkpt lat="45.7605503" lon="8.4788072"><ele>413.0</ele><time>2026-04-22T12:21:54.498Z</time></trkpt><trkpt lat="45.7604873" lon="8.4788653"><ele>413.0</ele><time>2026-04-22T12:21:55.497Z</time></trkpt><trkpt lat="45.7604265" lon="8.4789234"><ele>412.99999999999994</ele><time>2026-04-22T12:21:56.496Z</time></trkpt><trkpt lat="45.7603433" lon="8.4790117"><ele>413.0</ele><time>2026-04-22T12:21:58.496Z</time></trkpt><trkpt lat="45.7602675" lon="8.4790178"><ele>412.99999999999994</ele><time>2026-04-22T12:22:01.498Z</time></trkpt><trkpt lat="45.7602743" lon="8.4788881"><ele>413.0</ele><time>2026-04-22T12:22:03.497Z</time></trkpt><trkpt lat="45.7602825" lon="8.4787883"><ele>413.0</ele><time>2026-04-22T12:22:04.498Z</time></trkpt><trkpt lat="45.7602823" lon="8.4786713"><ele>413.0</ele><time>2026-04-22T12:22:05.497Z</time></trkpt><trkpt lat="45.7602809" lon="8.4785403"><ele>412.99999999999994</ele><time>2026-04-22T12:22:06.497Z</time></trkpt><trkpt lat="45.7602778" lon="8.4784024"><ele>413.0</ele><time>2026-04-22T12:22:07.498Z</time></trkpt><trkpt lat="45.7602691" lon="8.4782522"><ele>413.0</ele><time>2026-04-22T12:22:08.498Z</time></trkpt><trkpt lat="45.7602572" lon="8.4780958"><ele>413.0</ele><time>2026-04-22T12:22:09.497Z</time></trkpt><trkpt lat="45.7602436" lon="8.4779314"><ele>413.0</ele><time>2026-04-22T12:22:10.497Z</time></trkpt><trkpt lat="45.7602297" lon="8.4777556"><ele>413.0</ele><time>2026-04-22T12:22:11.498Z</time></trkpt><trkpt lat="45.7602194" lon="8.4775999"><ele>413.4</ele><time>2026-04-22T12:22:12.497Z</time></trkpt><trkpt lat="45.7602185" lon="8.4774499"><ele>413.79999999999995</ele><time>2026-04-22T12:22:13.498Z</time></trkpt><trkpt lat="45.7602169" lon="8.4773082"><ele>414.2</ele><time>2026-04-22T12:22:14.497Z</time></trkpt><trkpt lat="45.7602056" lon="8.4771656"><ele>414.6</ele><time>2026-04-22T12:22:15.498Z</time></trkpt><trkpt lat="45.7601783" lon="8.4770206"><ele>415.0</ele><time>2026-04-22T12:22:16.497Z</time></trkpt><trkpt lat="45.7601409" lon="8.4768719"><ele>415.0</ele><time>2026-04-22T12:22:17.498Z</time></trkpt><trkpt lat="45.7601008" lon="8.4767185"><ele>415.0</ele><time>2026-04-22T12:22:18.497Z</time></trkpt><trkpt lat="45.7600579" lon="8.4765573"><ele>415.0</ele><time>2026-04-22T12:22:19.497Z</time></trkpt><trkpt lat="45.7600186" lon="8.4764022"><ele>415.0</ele><time>2026-04-22T12:22:20.497Z</time></trkpt><trkpt lat="45.7599869" lon="8.4762479"><ele>415.0</ele><time>2026-04-22T12:22:21.498Z</time></trkpt><trkpt lat="45.7599636" lon="8.4760817"><ele>415.0</ele><time>2026-04-22T12:22:22.497Z</time></trkpt><trkpt lat="45.7599436" lon="8.4759072"><ele>415.0</ele><time>2026-04-22T12:22:23.497Z</time></trkpt><trkpt lat="45.759925" lon="8.4757356"><ele>415.0</ele><time>2026-04-22T12:22:24.498Z</time></trkpt><trkpt lat="45.7599085" lon="8.4755721"><ele>414.2</ele><time>2026-04-22T12:22:25.497Z</time></trkpt><trkpt lat="45.759894" lon="8.4754049"><ele>413.4</ele><time>2026-04-22T12:22:26.497Z</time></trkpt><trkpt lat="45.7598827" lon="8.4752396"><ele>412.6</ele><time>2026-04-22T12:22:27.497Z</time></trkpt><trkpt lat="45.7598748" lon="8.4750866"><ele>411.8</ele><time>2026-04-22T12:22:28.497Z</time></trkpt><trkpt lat="45.7598714" lon="8.4749433"><ele>411.0</ele><time>2026-04-22T12:22:29.498Z</time></trkpt><trkpt lat="45.7598853" lon="8.4748108"><ele>411.0</ele><time>2026-04-22T12:22:30.497Z</time></trkpt><trkpt lat="45.7599139" lon="8.4746972"><ele>411.0</ele><time>2026-04-22T12:22:31.497Z</time></trkpt><trkpt lat="45.7599492" lon="8.4746002"><ele>411.0</ele><time>2026-04-22T12:22:32.498Z</time></trkpt><trkpt lat="45.7599845" lon="8.4745159"><ele>411.0</ele><time>2026-04-22T12:22:33.498Z</time></trkpt><trkpt lat="45.7600205" lon="8.4744416"><ele>411.0</ele><time>2026-04-22T12:22:34.497Z</time></trkpt><trkpt lat="45.7600783" lon="8.4743386"><ele>411.0</ele><time>2026-04-22T12:22:36.497Z</time></trkpt><trkpt lat="45.7601569" lon="8.4743596"><ele>410.8333333333333</ele><time>2026-04-22T12:22:39.497Z</time></trkpt><trkpt lat="45.7602213" lon="8.4744477"><ele>410.66666666666663</ele><time>2026-04-22T12:22:41.497Z</time></trkpt><trkpt lat="45.7603222" lon="8.474541"><ele>410.5</ele><time>2026-04-22T12:22:43.498Z</time></trkpt><trkpt lat="45.760388" lon="8.474589"><ele>410.3333333333333</ele><time>2026-04-22T12:22:44.498Z</time></trkpt><trkpt lat="45.7604591" lon="8.4746392"><ele>410.16666666666663</ele><time>2026-04-22T12:22:45.497Z</time></trkpt><trkpt lat="45.7605389" lon="8.4746881"><ele>410.0</ele><time>2026-04-22T12:22:46.497Z</time></trkpt><trkpt lat="45.7606262" lon="8.4747407"><ele>410.0</ele><time>2026-04-22T12:22:47.497Z</time></trkpt><trkpt lat="45.7607159" lon="8.4747956"><ele>410.0</ele><time>2026-04-22T12:22:48.498Z</time></trkpt><trkpt lat="45.7608037" lon="8.4748593"><ele>410.0</ele><time>2026-04-22T12:22:49.497Z</time></trkpt><trkpt lat="45.7608896" lon="8.4749331"><ele>410.0</ele><time>2026-04-22T12:22:50.498Z</time></trkpt><trkpt lat="45.7609748" lon="8.4750097"><ele>410.0</ele><time>2026-04-22T12:22:51.497Z</time></trkpt><trkpt lat="45.7610621" lon="8.4750849"><ele>410.3333333333333</ele><time>2026-04-22T12:22:52.498Z</time></trkpt><trkpt lat="45.761148" lon="8.4751525"><ele>410.66666666666663</ele><time>2026-04-22T12:22:53.497Z</time></trkpt><trkpt lat="45.761229" lon="8.4752149"><ele>411.0</ele><time>2026-04-22T12:22:54.498Z</time></trkpt><trkpt lat="45.7613007" lon="8.4752737"><ele>411.33333333333337</ele><time>2026-04-22T12:22:55.498Z</time></trkpt><trkpt lat="45.7613676" lon="8.4753261"><ele>411.6666666666667</ele><time>2026-04-22T12:22:56.497Z</time></trkpt><trkpt lat="45.7614293" lon="8.4753766"><ele>412.0</ele><time>2026-04-22T12:22:57.498Z</time></trkpt><trkpt lat="45.7614873" lon="8.4754299"><ele>412.20000000000005</ele><time>2026-04-22T12:22:58.497Z</time></trkpt><trkpt lat="45.7615406" lon="8.4754804"><ele>412.4</ele><time>2026-04-22T12:22:59.498Z</time></trkpt><trkpt lat="45.7616207" lon="8.4756048"><ele>412.6</ele><time>2026-04-22T12:23:01.497Z</time></trkpt><trkpt lat="45.7616592" lon="8.4757689"><ele>412.79999999999995</ele><time>2026-04-22T12:23:03.498Z</time></trkpt><trkpt lat="45.7616843" lon="8.475907"><ele>413.0</ele><time>2026-04-22T12:23:05.498Z</time></trkpt><trkpt lat="45.7617999" lon="8.4759825"><ele>413.0</ele><time>2026-04-22T12:23:07.498Z</time></trkpt><trkpt lat="45.7618802" lon="8.476032"><ele>413.0</ele><time>2026-04-22T12:23:08.497Z</time></trkpt><trkpt lat="45.7619685" lon="8.4760814"><ele>413.0</ele><time>2026-04-22T12:23:09.498Z</time></trkpt><trkpt lat="45.7620608" lon="8.4761416"><ele>413.0</ele><time>2026-04-22T12:23:10.498Z</time></trkpt><trkpt lat="45.7621539" lon="8.4762119"><ele>413.0</ele><time>2026-04-22T12:23:11.498Z</time></trkpt><trkpt lat="45.7622493" lon="8.476287"><ele>413.0</ele><time>2026-04-22T12:23:12.496Z</time></trkpt><trkpt lat="45.7623378" lon="8.476358"><ele>413.0</ele><time>2026-04-22T12:23:13.498Z</time></trkpt><trkpt lat="45.7624273" lon="8.4764344"><ele>413.0</ele><time>2026-04-22T12:23:14.498Z</time></trkpt><trkpt lat="45.7625182" lon="8.4765163"><ele>413.0</ele><time>2026-04-22T12:23:15.497Z</time></trkpt><trkpt lat="45.7626119" lon="8.4766033"><ele>413.0</ele><time>2026-04-22T12:23:16.498Z</time></trkpt><trkpt lat="45.7627069" lon="8.4766805"><ele>414.0</ele><time>2026-04-22T12:23:17.498Z</time></trkpt><trkpt lat="45.7628075" lon="8.4767511"><ele>415.0</ele><time>2026-04-22T12:23:18.497Z</time></trkpt><trkpt lat="45.76291" lon="8.4768204"><ele>416.0</ele><time>2026-04-22T12:23:19.498Z</time></trkpt><trkpt lat="45.7630172" lon="8.4768915"><ele>417.0</ele><time>2026-04-22T12:23:20.498Z</time></trkpt><trkpt lat="45.7631265" lon="8.4769637"><ele>417.0</ele><time>2026-04-22T12:23:21.498Z</time></trkpt><trkpt lat="45.7632265" lon="8.4770304"><ele>417.0</ele><time>2026-04-22T12:23:22.498Z</time></trkpt><trkpt lat="45.7633173" lon="8.4770941"><ele>417.0</ele><time>2026-04-22T12:23:23.497Z</time></trkpt><trkpt lat="45.7634001" lon="8.477158"><ele>417.0</ele><time>2026-04-22T12:23:24.498Z</time></trkpt><trkpt lat="45.7634798" lon="8.4772146"><ele>417.0</ele><time>2026-04-22T12:23:25.497Z</time></trkpt><trkpt lat="45.7635642" lon="8.4772719"><ele>417.8</ele><time>2026-04-22T12:23:26.497Z</time></trkpt><trkpt lat="45.7636444" lon="8.4773404"><ele>418.6</ele><time>2026-04-22T12:23:27.497Z</time></trkpt><trkpt lat="45.7637189" lon="8.477425"><ele>419.40000000000003</ele><time>2026-04-22T12:23:28.496Z</time></trkpt><trkpt lat="45.7637821" lon="8.4775277"><ele>420.20000000000005</ele><time>2026-04-22T12:23:29.498Z</time></trkpt><trkpt lat="45.7638377" lon="8.4776391"><ele>421.0</ele><time>2026-04-22T12:23:30.497Z</time></trkpt><trkpt lat="45.7638836" lon="8.4777614"><ele>421.00000000000006</ele><time>2026-04-22T12:23:31.498Z</time></trkpt><trkpt lat="45.7639351" lon="8.4778946"><ele>421.0</ele><time>2026-04-22T12:23:32.497Z</time></trkpt><trkpt lat="45.7639882" lon="8.4780238"><ele>421.0</ele><time>2026-04-22T12:23:33.498Z</time></trkpt><trkpt lat="45.7640267" lon="8.4781135"><ele>421.0</ele><time>2026-04-22T12:23:34.497Z</time></trkpt><trkpt lat="45.7640595" lon="8.4782001"><ele>421.00000000000006</ele><time>2026-04-22T12:23:36.498Z</time></trkpt><trkpt lat="45.7640987" lon="8.4782784"><ele>421.0</ele><time>2026-04-22T12:23:39.497Z</time></trkpt><trkpt lat="45.7641382" lon="8.4783492"><ele>421.20000000000005</ele><time>2026-04-22T12:23:40.498Z</time></trkpt><trkpt lat="45.7641975" lon="8.4784358"><ele>421.40000000000003</ele><time>2026-04-22T12:23:41.498Z</time></trkpt><trkpt lat="45.7642842" lon="8.4785192"><ele>421.6</ele><time>2026-04-22T12:23:42.498Z</time></trkpt><trkpt lat="45.7643876" lon="8.4785926"><ele>421.8</ele><time>2026-04-22T12:23:43.498Z</time></trkpt><trkpt lat="45.7644963" lon="8.4786576"><ele>422.0</ele><time>2026-04-22T12:23:44.498Z</time></trkpt><trkpt lat="45.7645972" lon="8.478718"><ele>421.99999999999994</ele><time>2026-04-22T12:23:45.497Z</time></trkpt><trkpt lat="45.7646853" lon="8.4787862"><ele>422.0</ele><time>2026-04-22T12:23:46.498Z</time></trkpt><trkpt lat="45.7647512" lon="8.4788721"><ele>422.0</ele><time>2026-04-22T12:23:47.498Z</time></trkpt><trkpt lat="45.7647903" lon="8.4789697"><ele>422.0</ele><time>2026-04-22T12:23:48.497Z</time></trkpt><trkpt lat="45.7648078" lon="8.4790609"><ele>421.99999999999994</ele><time>2026-04-22T12:23:49.498Z</time></trkpt><trkpt lat="45.7648482" lon="8.4791926"><ele>422.0</ele><time>2026-04-22T12:23:51.497Z</time></trkpt><trkpt lat="45.764894" lon="8.479273"><ele>422.0</ele><time>2026-04-22T12:23:53.497Z</time></trkpt><trkpt lat="45.764926" lon="8.4793975"><ele>422.0</ele><time>2026-04-22T12:24:01.498Z</time></trkpt><trkpt lat="45.7649259" lon="8.4795432"><ele>422.0</ele><time>2026-04-22T12:24:03.498Z</time></trkpt><trkpt lat="45.7649011" lon="8.479687"><ele>422.0</ele><time>2026-04-22T12:24:05.496Z</time></trkpt><trkpt lat="45.764896" lon="8.4798505"><ele>422.0</ele><time>2026-04-22T12:24:07.498Z</time></trkpt><trkpt lat="45.7649364" lon="8.480017"><ele>422.99999999999994</ele><time>2026-04-22T12:24:09.498Z</time></trkpt><trkpt lat="45.7649696" lon="8.4800976"><ele>424.0</ele><time>2026-04-22T12:24:10.498Z</time></trkpt><trkpt lat="45.7650041" lon="8.4801757"><ele>425.0</ele><time>2026-04-22T12:24:11.498Z</time></trkpt><trkpt lat="45.7650448" lon="8.4802492"><ele>426.0</ele><time>2026-04-22T12:24:12.497Z</time></trkpt><trkpt lat="45.7650881" lon="8.4803275"><ele>426.99999999999994</ele><time>2026-04-22T12:24:13.497Z</time></trkpt><trkpt lat="45.7651415" lon="8.4804038"><ele>428.0</ele><time>2026-04-22T12:24:14.498Z</time></trkpt><trkpt lat="45.765226" lon="8.4805356"><ele>429.0</ele><time>2026-04-22T12:24:16.498Z</time></trkpt><trkpt lat="45.7652647" lon="8.4806977"><ele>430.0</ele><time>2026-04-22T12:24:18.497Z</time></trkpt><trkpt lat="45.7653" lon="8.480842"><ele>431.0</ele><time>2026-04-22T12:24:20.497Z</time></trkpt><trkpt lat="45.7653417" lon="8.4809862"><ele>432.0</ele><time>2026-04-22T12:24:22.497Z</time></trkpt><trkpt lat="45.7653855" lon="8.4811511"><ele>432.0</ele><time>2026-04-22T12:24:24.498Z</time></trkpt><trkpt lat="45.7654047" lon="8.48124"><ele>432.00000000000006</ele><time>2026-04-22T12:24:25.497Z</time></trkpt><trkpt lat="45.7654213" lon="8.4813281"><ele>432.00000000000006</ele><time>2026-04-22T12:24:26.497Z</time></trkpt><trkpt lat="45.7654397" lon="8.4814837"><ele>432.0</ele><time>2026-04-22T12:24:28.498Z</time></trkpt><trkpt lat="45.7654507" lon="8.4816214"><ele>432.0</ele><time>2026-04-22T12:24:30.498Z</time></trkpt><trkpt lat="45.7654598" lon="8.4817892"><ele>431.3333333333333</ele><time>2026-04-22T12:24:32.497Z</time></trkpt><trkpt lat="45.7654668" lon="8.4818833"><ele>430.66666666666663</ele><time>2026-04-22T12:24:33.496Z</time></trkpt><trkpt lat="45.7654701" lon="8.4819794"><ele>430.0</ele><time>2026-04-22T12:24:34.497Z</time></trkpt><trkpt lat="45.7654728" lon="8.4820775"><ele>429.3333333333333</ele><time>2026-04-22T12:24:35.497Z</time></trkpt><trkpt lat="45.7654749" lon="8.4821694"><ele>428.66666666666663</ele><time>2026-04-22T12:24:36.498Z</time></trkpt><trkpt lat="45.7654744" lon="8.4823211"><ele>428.0</ele><time>2026-04-22T12:24:38.497Z</time></trkpt><trkpt lat="45.7654588" lon="8.4824702"><ele>427.8571428571429</ele><time>2026-04-22T12:24:41.497Z</time></trkpt><trkpt lat="45.7654837" lon="8.4826375"><ele>427.7142857142857</ele><time>2026-04-22T12:24:43.497Z</time></trkpt><trkpt lat="45.7654966" lon="8.4827305"><ele>427.57142857142856</ele><time>2026-04-22T12:24:44.497Z</time></trkpt><trkpt lat="45.7655109" lon="8.4828244"><ele>427.42857142857144</ele><time>2026-04-22T12:24:45.499Z</time></trkpt><trkpt lat="45.7655278" lon="8.4829154"><ele>427.2857142857143</ele><time>2026-04-22T12:24:46.498Z</time></trkpt><trkpt lat="45.7655427" lon="8.4830065"><ele>427.14285714285717</ele><time>2026-04-22T12:24:47.499Z</time></trkpt><trkpt lat="45.7655557" lon="8.4830988"><ele>427.0</ele><time>2026-04-22T12:24:48.498Z</time></trkpt><trkpt lat="45.7655716" lon="8.483255"><ele>426.50000000000006</ele><time>2026-04-22T12:24:50.498Z</time></trkpt><trkpt lat="45.7655708" lon="8.4833682"><ele>426.0</ele><time>2026-04-22T12:24:52.499Z</time></trkpt><trkpt lat="45.765561" lon="8.4835212"><ele>425.5</ele><time>2026-04-22T12:24:54.499Z</time></trkpt><trkpt lat="45.7655431" lon="8.4836857"><ele>425.0</ele><time>2026-04-22T12:24:56.498Z</time></trkpt><trkpt lat="45.7655385" lon="8.4837816"><ele>424.50000000000006</ele><time>2026-04-22T12:24:57.498Z</time></trkpt><trkpt lat="45.7655416" lon="8.4838816"><ele>424.0</ele><time>2026-04-22T12:24:58.499Z</time></trkpt><trkpt lat="45.765557" lon="8.4839778"><ele>424.0</ele><time>2026-04-22T12:24:59.498Z</time></trkpt><trkpt lat="45.7655841" lon="8.484072"><ele>424.0</ele><time>2026-04-22T12:25:00.498Z</time></trkpt><trkpt lat="45.7656094" lon="8.4841645"><ele>424.0</ele><time>2026-04-22T12:25:01.499Z</time></trkpt><trkpt lat="45.7656547" lon="8.4843151"><ele>424.0</ele><time>2026-04-22T12:25:03.498Z</time></trkpt><trkpt lat="45.7657079" lon="8.4844708"><ele>424.0</ele><time>2026-04-22T12:25:05.499Z</time></trkpt><trkpt lat="45.7657776" lon="8.4846197"><ele>424.00000000000006</ele><time>2026-04-22T12:25:07.498Z</time></trkpt><trkpt lat="45.7658196" lon="8.4847058"><ele>424.0</ele><time>2026-04-22T12:25:08.498Z</time></trkpt><trkpt lat="45.765863" lon="8.4847854"><ele>424.0</ele><time>2026-04-22T12:25:09.498Z</time></trkpt><trkpt lat="45.7659027" lon="8.4848571"><ele>424.0</ele><time>2026-04-22T12:25:10.499Z</time></trkpt><trkpt lat="45.7659757" lon="8.484939"><ele>424.00000000000006</ele><time>2026-04-22T12:25:12.498Z</time></trkpt><trkpt lat="45.766058" lon="8.4850478"><ele>424.0</ele><time>2026-04-22T12:25:14.498Z</time></trkpt><trkpt lat="45.7661018" lon="8.4851202"><ele>424.2</ele><time>2026-04-22T12:25:15.498Z</time></trkpt><trkpt lat="45.766155" lon="8.4851885"><ele>424.4</ele><time>2026-04-22T12:25:16.498Z</time></trkpt><trkpt lat="45.7662101" lon="8.4852505"><ele>424.6</ele><time>2026-04-22T12:25:17.499Z</time></trkpt><trkpt lat="45.7663052" lon="8.4853546"><ele>424.8</ele><time>2026-04-22T12:25:19.499Z</time></trkpt><trkpt lat="45.7663843" lon="8.4854517"><ele>425.0</ele><time>2026-04-22T12:25:21.499Z</time></trkpt><trkpt lat="45.7664694" lon="8.4855561"><ele>423.75</ele><time>2026-04-22T12:25:23.498Z</time></trkpt><trkpt lat="45.7665529" lon="8.4856709"><ele>422.5</ele><time>2026-04-22T12:25:25.499Z</time></trkpt><trkpt lat="45.7666482" lon="8.4857649"><ele>421.25</ele><time>2026-04-22T12:25:27.499Z</time></trkpt><trkpt lat="45.7667547" lon="8.4858472"><ele>420.0</ele><time>2026-04-22T12:25:29.498Z</time></trkpt><trkpt lat="45.7668447" lon="8.4859082"><ele>420.1666666666667</ele><time>2026-04-22T12:25:31.498Z</time></trkpt><trkpt lat="45.7669075" lon="8.4858983"><ele>420.33333333333337</ele><time>2026-04-22T12:25:34.499Z</time></trkpt><trkpt lat="45.7668922" lon="8.4857449"><ele>420.5</ele><time>2026-04-22T12:25:37.498Z</time></trkpt><trkpt lat="45.7668864" lon="8.4856314"><ele>420.6666666666667</ele><time>2026-04-22T12:25:39.498Z</time></trkpt><trkpt lat="45.7669434" lon="8.4855675"><ele>420.83333333333337</ele><time>2026-04-22T12:25:41.498Z</time></trkpt><trkpt lat="45.7670299" lon="8.4854787"><ele>421.0</ele><time>2026-04-22T12:25:43.498Z</time></trkpt><trkpt lat="45.7671325" lon="8.4853802"><ele>422.1666666666667</ele><time>2026-04-22T12:25:45.498Z</time></trkpt><trkpt lat="45.7671897" lon="8.4853236"><ele>423.33333333333337</ele><time>2026-04-22T12:25:46.499Z</time></trkpt><trkpt lat="45.7672467" lon="8.4852576"><ele>424.5</ele><time>2026-04-22T12:25:47.499Z</time></trkpt><trkpt lat="45.7673086" lon="8.485198"><ele>425.66666666666663</ele><time>2026-04-22T12:25:48.498Z</time></trkpt><trkpt lat="45.767413" lon="8.4851103"><ele>426.8333333333333</ele><time>2026-04-22T12:25:50.499Z</time></trkpt><trkpt lat="45.7674718" lon="8.4850597"><ele>428.0</ele><time>2026-04-22T12:25:51.498Z</time></trkpt><trkpt lat="45.7675305" lon="8.4850142"><ele>428.00000000000006</ele><time>2026-04-22T12:25:52.499Z</time></trkpt><trkpt lat="45.7675913" lon="8.4849715"><ele>428.0</ele><time>2026-04-22T12:25:53.498Z</time></trkpt><trkpt lat="45.7676501" lon="8.4849243"><ele>428.0</ele><time>2026-04-22T12:25:54.499Z</time></trkpt><trkpt lat="45.7677072" lon="8.4848759"><ele>428.0</ele><time>2026-04-22T12:25:55.499Z</time></trkpt><trkpt lat="45.7677648" lon="8.4848252"><ele>428.0</ele><time>2026-04-22T12:25:56.499Z</time></trkpt><trkpt lat="45.7678227" lon="8.4847704"><ele>428.00000000000006</ele><time>2026-04-22T12:25:57.499Z</time></trkpt><trkpt lat="45.7678758" lon="8.4847136"><ele>428.0</ele><time>2026-04-22T12:25:58.498Z</time></trkpt><trkpt lat="45.7679359" lon="8.4846531"><ele>428.49999999999994</ele><time>2026-04-22T12:25:59.499Z</time></trkpt><trkpt lat="45.7679965" lon="8.4845965"><ele>429.0</ele><time>2026-04-22T12:26:00.498Z</time></trkpt><trkpt lat="45.7680607" lon="8.4845313"><ele>429.5</ele><time>2026-04-22T12:26:01.498Z</time></trkpt><trkpt lat="45.7681292" lon="8.484477"><ele>430.0</ele><time>2026-04-22T12:26:02.497Z</time></trkpt><trkpt lat="45.7682306" lon="8.484394"><ele>430.49999999999994</ele><time>2026-04-22T12:26:04.498Z</time></trkpt><trkpt lat="45.7682984" lon="8.4843368"><ele>431.0</ele><time>2026-04-22T12:26:06.499Z</time></trkpt><trkpt lat="45.7683273" lon="8.4842438"><ele>432.8</ele><time>2026-04-22T12:26:08.498Z</time></trkpt><trkpt lat="45.768323" lon="8.4841213"><ele>434.6</ele><time>2026-04-22T12:26:10.499Z</time></trkpt><trkpt lat="45.7683018" lon="8.4839908"><ele>436.4</ele><time>2026-04-22T12:26:12.498Z</time></trkpt><trkpt lat="45.7682718" lon="8.4838515"><ele>438.2</ele><time>2026-04-22T12:26:14.498Z</time></trkpt><trkpt lat="45.768225" lon="8.483704"><ele>440.0</ele><time>2026-04-22T12:26:16.498Z</time></trkpt><trkpt lat="45.7681917" lon="8.4836196"><ele>441.0</ele><time>2026-04-22T12:26:17.498Z</time></trkpt><trkpt lat="45.7681647" lon="8.483538"><ele>442.0</ele><time>2026-04-22T12:26:18.498Z</time></trkpt><trkpt lat="45.7681014" lon="8.4833897"><ele>443.0</ele><time>2026-04-22T12:26:20.498Z</time></trkpt><trkpt lat="45.7680696" lon="8.4833078"><ele>444.0</ele><time>2026-04-22T12:26:21.499Z</time></trkpt><trkpt lat="45.768025" lon="8.4831816"><ele>445.0</ele><time>2026-04-22T12:26:23.498Z</time></trkpt><trkpt lat="45.768006" lon="8.4830387"><ele>445.00000000000006</ele><time>2026-04-22T12:26:25.498Z</time></trkpt><trkpt lat="45.768009" lon="8.4829309"><ele>445.0</ele><time>2026-04-22T12:26:27.499Z</time></trkpt><trkpt lat="45.7680495" lon="8.4828214"><ele>445.0</ele><time>2026-04-22T12:26:29.499Z</time></trkpt><trkpt lat="45.7680958" lon="8.4826836"><ele>445.0</ele><time>2026-04-22T12:26:31.499Z</time></trkpt><trkpt lat="45.7681418" lon="8.4825762"><ele>445.00000000000006</ele><time>2026-04-22T12:26:33.498Z</time></trkpt><trkpt lat="45.7681957" lon="8.482493"><ele>445.0</ele><time>2026-04-22T12:26:35.499Z</time></trkpt><trkpt lat="45.7682536" lon="8.4824246"><ele>445.6</ele><time>2026-04-22T12:26:37.498Z</time></trkpt><trkpt lat="45.768351" lon="8.4823838"><ele>446.2</ele><time>2026-04-22T12:26:39.498Z</time></trkpt><trkpt lat="45.7684441" lon="8.4823471"><ele>446.79999999999995</ele><time>2026-04-22T12:26:41.499Z</time></trkpt><trkpt lat="45.768551" lon="8.4822734"><ele>447.4</ele><time>2026-04-22T12:26:43.499Z</time></trkpt><trkpt lat="45.7685792" lon="8.4821485"><ele>448.0</ele><time>2026-04-22T12:26:45.498Z</time></trkpt><trkpt lat="45.7685402" lon="8.4820245"><ele>448.00000000000006</ele><time>2026-04-22T12:26:47.499Z</time></trkpt><trkpt lat="45.7685574" lon="8.4818686"><ele>448.0</ele><time>2026-04-22T12:26:49.499Z</time></trkpt><trkpt lat="45.7686046" lon="8.4817634"><ele>448.0</ele><time>2026-04-22T12:26:51.499Z</time></trkpt><trkpt lat="45.7686764" lon="8.4817219"><ele>448.0</ele><time>2026-04-22T12:26:53.499Z</time></trkpt><trkpt lat="45.7687512" lon="8.4816914"><ele>448.00000000000006</ele><time>2026-04-22T12:26:55.499Z</time></trkpt><trkpt lat="45.768826" lon="8.4816599"><ele>448.0</ele><time>2026-04-22T12:26:57.497Z</time></trkpt><trkpt lat="45.7688369" lon="8.4815609"><ele>448.00000000000006</ele><time>2026-04-22T12:26:59.499Z</time></trkpt><trkpt lat="45.768819" lon="8.481467"><ele>448.0</ele><time>2026-04-22T12:27:08.498Z</time></trkpt><trkpt lat="45.7688916" lon="8.4813948"><ele>448.0</ele><time>2026-04-22T12:27:12.499Z</time></trkpt><trkpt lat="45.7689163" lon="8.4812407"><ele>448.0</ele><time>2026-04-22T12:27:14.498Z</time></trkpt><trkpt lat="45.7689617" lon="8.4811244"><ele>448.00000000000006</ele><time>2026-04-22T12:27:16.499Z</time></trkpt><trkpt lat="45.7689691" lon="8.4810051"><ele>448.0</ele><time>2026-04-22T12:27:18.499Z</time></trkpt><trkpt lat="45.7689503" lon="8.4808741"><ele>447.6666666666667</ele><time>2026-04-22T12:27:20.498Z</time></trkpt><trkpt lat="45.7689125" lon="8.4807891"><ele>447.33333333333337</ele><time>2026-04-22T12:27:22.498Z</time></trkpt><trkpt lat="45.7688618" lon="8.4807245"><ele>447.0</ele><time>2026-04-22T12:27:23.498Z</time></trkpt><trkpt lat="45.7688334" lon="8.4806268"><ele>446.66666666666663</ele><time>2026-04-22T12:27:26.499Z</time></trkpt><trkpt lat="45.7687717" lon="8.4805186"><ele>446.3333333333333</ele><time>2026-04-22T12:27:28.499Z</time></trkpt><trkpt lat="45.7686881" lon="8.4804066"><ele>446.0</ele><time>2026-04-22T12:27:30.498Z</time></trkpt><trkpt lat="45.7686909" lon="8.4802726"><ele>445.66666666666663</ele><time>2026-04-22T12:27:32.498Z</time></trkpt><trkpt lat="45.7686417" lon="8.4801957"><ele>445.3333333333333</ele><time>2026-04-22T12:27:34.499Z</time></trkpt><trkpt lat="45.768592" lon="8.480129"><ele>445.0</ele><time>2026-04-22T12:27:36.499Z</time></trkpt><trkpt lat="45.7685345" lon="8.4800388"><ele>444.66666666666663</ele><time>2026-04-22T12:27:38.499Z</time></trkpt><trkpt lat="45.768477" lon="8.4799458"><ele>444.3333333333333</ele><time>2026-04-22T12:27:40.497Z</time></trkpt><trkpt lat="45.7684161" lon="8.4798657"><ele>444.0</ele><time>2026-04-22T12:27:41.498Z</time></trkpt><trkpt lat="45.768405" lon="8.4797514"><ele>443.3333333333333</ele><time>2026-04-22T12:27:44.498Z</time></trkpt><trkpt lat="45.7683394" lon="8.4796777"><ele>442.66666666666663</ele><time>2026-04-22T12:27:48.499Z</time></trkpt><trkpt lat="45.7682572" lon="8.4796408"><ele>442.0</ele><time>2026-04-22T12:27:50.498Z</time></trkpt><trkpt lat="45.7682078" lon="8.4795406"><ele>441.3333333333333</ele><time>2026-04-22T12:27:53.498Z</time></trkpt><trkpt lat="45.7681974" lon="8.4794321"><ele>440.66666666666663</ele><time>2026-04-22T12:27:55.498Z</time></trkpt><trkpt lat="45.7681341" lon="8.4793453"><ele>440.0</ele><time>2026-04-22T12:27:57.498Z</time></trkpt><trkpt lat="45.7680819" lon="8.4792603"><ele>439.99999999999994</ele><time>2026-04-22T12:27:59.499Z</time></trkpt><trkpt lat="45.7680142" lon="8.4791811"><ele>440.0</ele><time>2026-04-22T12:28:02.499Z</time></trkpt><trkpt lat="45.7680653" lon="8.4791073"><ele>440.0</ele><time>2026-04-22T12:28:06.498Z</time></trkpt><trkpt lat="45.7681342" lon="8.4790527"><ele>440.0</ele><time>2026-04-22T12:28:08.499Z</time></trkpt><trkpt lat="45.7682002" lon="8.4789964"><ele>439.99999999999994</ele><time>2026-04-22T12:28:10.497Z</time></trkpt><trkpt lat="45.7682571" lon="8.4789011"><ele>440.0</ele><time>2026-04-22T12:28:12.498Z</time></trkpt><trkpt lat="45.7682875" lon="8.4788218"><ele>439.66666666666663</ele><time>2026-04-22T12:28:13.498Z</time></trkpt><trkpt lat="45.768305" lon="8.4786615"><ele>439.3333333333333</ele><time>2026-04-22T12:28:15.498Z</time></trkpt><trkpt lat="45.768315" lon="8.4785318"><ele>439.0</ele><time>2026-04-22T12:28:16.499Z</time></trkpt><trkpt lat="45.768311" lon="8.4784264"><ele>438.66666666666663</ele><time>2026-04-22T12:28:17.499Z</time></trkpt><trkpt lat="45.7683185" lon="8.4783252"><ele>438.3333333333333</ele><time>2026-04-22T12:28:18.498Z</time></trkpt><trkpt lat="45.7683321" lon="8.4782357"><ele>438.0</ele><time>2026-04-22T12:28:19.499Z</time></trkpt><trkpt lat="45.7683825" lon="8.4780829"><ele>438.0</ele><time>2026-04-22T12:28:21.497Z</time></trkpt><trkpt lat="45.7684432" lon="8.4780432"><ele>437.99999999999994</ele><time>2026-04-22T12:28:25.499Z</time></trkpt><trkpt lat="45.7685504" lon="8.4780656"><ele>437.99999999999994</ele><time>2026-04-22T12:28:27.498Z</time></trkpt><trkpt lat="45.7686244" lon="8.4781659"><ele>438.0</ele><time>2026-04-22T12:28:29.498Z</time></trkpt><trkpt lat="45.7686897" lon="8.4782578"><ele>438.0</ele><time>2026-04-22T12:28:31.499Z</time></trkpt><trkpt lat="45.7687543" lon="8.4783683"><ele>439.0</ele><time>2026-04-22T12:28:33.499Z</time></trkpt><trkpt lat="45.7687934" lon="8.4784401"><ele>440.0</ele><time>2026-04-22T12:28:34.498Z</time></trkpt><trkpt lat="45.7688391" lon="8.478517"><ele>441.0</ele><time>2026-04-22T12:28:35.497Z</time></trkpt><trkpt lat="45.7688757" lon="8.4786109"><ele>442.0</ele><time>2026-04-22T12:28:36.498Z</time></trkpt><trkpt lat="45.7689068" lon="8.478695"><ele>443.0</ele><time>2026-04-22T12:28:37.499Z</time></trkpt><trkpt lat="45.7689656" lon="8.47876"><ele>444.0</ele><time>2026-04-22T12:28:38.499Z</time></trkpt><trkpt lat="45.7690012" lon="8.4788373"><ele>445.0</ele><time>2026-04-22T12:28:39.499Z</time></trkpt><trkpt lat="45.7690534" lon="8.4789067"><ele>445.00000000000006</ele><time>2026-04-22T12:28:40.499Z</time></trkpt><trkpt lat="45.7690966" lon="8.479009"><ele>445.0</ele><time>2026-04-22T12:28:41.499Z</time></trkpt><trkpt lat="45.7691501" lon="8.479109"><ele>445.0</ele><time>2026-04-22T12:28:42.499Z</time></trkpt><trkpt lat="45.7691948" lon="8.4792104"><ele>445.0</ele><time>2026-04-22T12:28:43.498Z</time></trkpt><trkpt lat="45.7692305" lon="8.4793317"><ele>445.00000000000006</ele><time>2026-04-22T12:28:44.499Z</time></trkpt><trkpt lat="45.7692679" lon="8.4794215"><ele>445.0</ele><time>2026-04-22T12:28:45.498Z</time></trkpt><trkpt lat="45.7693464" lon="8.4795481"><ele>446.4</ele><time>2026-04-22T12:28:47.499Z</time></trkpt><trkpt lat="45.7694108" lon="8.4796524"><ele>447.8</ele><time>2026-04-22T12:28:49.498Z</time></trkpt><trkpt lat="45.7694966" lon="8.4797861"><ele>449.20000000000005</ele><time>2026-04-22T12:28:51.499Z</time></trkpt><trkpt lat="45.7695161" lon="8.4799248"><ele>450.6</ele><time>2026-04-22T12:28:53.499Z</time></trkpt><trkpt lat="45.76954" lon="8.4800341"><ele>452.0</ele><time>2026-04-22T12:28:54.499Z</time></trkpt><trkpt lat="45.7695732" lon="8.4801225"><ele>452.0</ele><time>2026-04-22T12:28:55.499Z</time></trkpt><trkpt lat="45.7696041" lon="8.4802736"><ele>452.00000000000006</ele><time>2026-04-22T12:28:57.499Z</time></trkpt><trkpt lat="45.769645" lon="8.4803888"><ele>452.00000000000006</ele><time>2026-04-22T12:28:59.499Z</time></trkpt><trkpt lat="45.7696746" lon="8.4805203"><ele>452.0</ele><time>2026-04-22T12:29:01.499Z</time></trkpt><trkpt lat="45.7697121" lon="8.480662"><ele>452.0</ele><time>2026-04-22T12:29:03.498Z</time></trkpt><trkpt lat="45.7697535" lon="8.4808096"><ele>450.6</ele><time>2026-04-22T12:29:05.499Z</time></trkpt><trkpt lat="45.7697966" lon="8.4809489"><ele>449.20000000000005</ele><time>2026-04-22T12:29:07.499Z</time></trkpt><trkpt lat="45.769822" lon="8.4810983"><ele>447.8</ele><time>2026-04-22T12:29:09.498Z</time></trkpt><trkpt lat="45.7698552" lon="8.4812197"><ele>446.4</ele><time>2026-04-22T12:29:11.499Z</time></trkpt><trkpt lat="45.769913" lon="8.4813299"><ele>445.0</ele><time>2026-04-22T12:29:13.499Z</time></trkpt><trkpt lat="45.7700018" lon="8.4814328"><ele>444.6666666666667</ele><time>2026-04-22T12:29:15.498Z</time></trkpt><trkpt lat="45.7700776" lon="8.4815074"><ele>444.33333333333337</ele><time>2026-04-22T12:29:16.499Z</time></trkpt><trkpt lat="45.7701203" lon="8.481591"><ele>444.0</ele><time>2026-04-22T12:29:17.498Z</time></trkpt><trkpt lat="45.7701519" lon="8.4816911"><ele>443.66666666666663</ele><time>2026-04-22T12:29:18.499Z</time></trkpt><trkpt lat="45.7702003" lon="8.4818173"><ele>443.3333333333333</ele><time>2026-04-22T12:29:20.499Z</time></trkpt><trkpt lat="45.7701985" lon="8.481959"><ele>443.0</ele><time>2026-04-22T12:29:22.499Z</time></trkpt><trkpt lat="45.7701731" lon="8.4821079"><ele>443.0</ele><time>2026-04-22T12:29:24.499Z</time></trkpt><trkpt lat="45.7701473" lon="8.4823248"><ele>443.0</ele><time>2026-04-22T12:29:26.498Z</time></trkpt><trkpt lat="45.7701297" lon="8.4824333"><ele>443.0</ele><time>2026-04-22T12:29:27.499Z</time></trkpt><trkpt lat="45.7701494" lon="8.4825978"><ele>443.0</ele><time>2026-04-22T12:29:29.499Z</time></trkpt><trkpt lat="45.7701833" lon="8.4827614"><ele>444.8333333333333</ele><time>2026-04-22T12:29:31.499Z</time></trkpt><trkpt lat="45.7702144" lon="8.4828541"><ele>446.66666666666663</ele><time>2026-04-22T12:29:32.498Z</time></trkpt><trkpt lat="45.7702615" lon="8.4830248"><ele>448.5</ele><time>2026-04-22T12:29:34.499Z</time></trkpt><trkpt lat="45.7703044" lon="8.483095"><ele>450.33333333333337</ele><time>2026-04-22T12:29:35.498Z</time></trkpt><trkpt lat="45.7703572" lon="8.4832227"><ele>452.1666666666667</ele><time>2026-04-22T12:29:37.498Z</time></trkpt><trkpt lat="45.7703877" lon="8.4833153"><ele>454.0</ele><time>2026-04-22T12:29:39.499Z</time></trkpt><trkpt lat="45.770417" lon="8.4833989"><ele>454.0</ele><time>2026-04-22T12:29:41.499Z</time></trkpt><trkpt lat="45.7704105" lon="8.4835145"><ele>454.00000000000006</ele><time>2026-04-22T12:29:43.499Z</time></trkpt><trkpt lat="45.770393" lon="8.4836212"><ele>454.0</ele><time>2026-04-22T12:29:44.499Z</time></trkpt><trkpt lat="45.7703766" lon="8.4837256"><ele>454.0</ele><time>2026-04-22T12:29:45.499Z</time></trkpt><trkpt lat="45.7703592" lon="8.4838267"><ele>454.00000000000006</ele><time>2026-04-22T12:29:46.498Z</time></trkpt><trkpt lat="45.7703364" lon="8.4839209"><ele>454.0</ele><time>2026-04-22T12:29:47.498Z</time></trkpt><trkpt lat="45.7703131" lon="8.4840152"><ele>454.0</ele><time>2026-04-22T12:29:48.498Z</time></trkpt><trkpt lat="45.7702918" lon="8.484121"><ele>453.1666666666667</ele><time>2026-04-22T12:29:49.499Z</time></trkpt><trkpt lat="45.7702639" lon="8.4842209"><ele>452.33333333333337</ele><time>2026-04-22T12:29:50.499Z</time></trkpt><trkpt lat="45.770236" lon="8.4843081"><ele>451.5</ele><time>2026-04-22T12:29:51.498Z</time></trkpt><trkpt lat="45.7702048" lon="8.4843865"><ele>450.66666666666663</ele><time>2026-04-22T12:29:52.498Z</time></trkpt><trkpt lat="45.7701392" lon="8.4845263"><ele>449.8333333333333</ele><time>2026-04-22T12:29:54.499Z</time></trkpt><trkpt lat="45.7700726" lon="8.4846289"><ele>449.0</ele><time>2026-04-22T12:29:56.498Z</time></trkpt><trkpt lat="45.7699709" lon="8.4847283"><ele>446.4</ele><time>2026-04-22T12:29:58.497Z</time></trkpt><trkpt lat="45.7699034" lon="8.4847688"><ele>443.79999999999995</ele><time>2026-04-22T12:29:59.499Z</time></trkpt><trkpt lat="45.7698231" lon="8.4848158"><ele>441.20000000000005</ele><time>2026-04-22T12:30:00.499Z</time></trkpt><trkpt lat="45.7697284" lon="8.4848714"><ele>438.6</ele><time>2026-04-22T12:30:01.498Z</time></trkpt><trkpt lat="45.7696314" lon="8.4849201"><ele>436.0</ele><time>2026-04-22T12:30:02.499Z</time></trkpt><trkpt lat="45.7695406" lon="8.4849594"><ele>436.0</ele><time>2026-04-22T12:30:03.499Z</time></trkpt><trkpt lat="45.7694486" lon="8.4849892"><ele>436.0</ele><time>2026-04-22T12:30:04.499Z</time></trkpt><trkpt lat="45.769351" lon="8.4850142"><ele>436.0</ele><time>2026-04-22T12:30:05.499Z</time></trkpt><trkpt lat="45.7692543" lon="8.485012"><ele>436.0</ele><time>2026-04-22T12:30:06.499Z</time></trkpt><trkpt lat="45.7691838" lon="8.4850663"><ele>436.0</ele><time>2026-04-22T12:30:07.499Z</time></trkpt><trkpt lat="45.7690984" lon="8.4851305"><ele>436.0</ele><time>2026-04-22T12:30:08.497Z</time></trkpt><trkpt lat="45.7690147" lon="8.4851955"><ele>436.0</ele><time>2026-04-22T12:30:09.499Z</time></trkpt><trkpt lat="45.7689297" lon="8.4853005"><ele>436.0</ele><time>2026-04-22T12:30:10.498Z</time></trkpt><trkpt lat="45.768848" lon="8.4854154"><ele>436.0</ele><time>2026-04-22T12:30:11.498Z</time></trkpt><trkpt lat="45.7687667" lon="8.4855213"><ele>436.0</ele><time>2026-04-22T12:30:12.499Z</time></trkpt><trkpt lat="45.7686898" lon="8.4856165"><ele>436.0</ele><time>2026-04-22T12:30:13.499Z</time></trkpt><trkpt lat="45.7686205" lon="8.4857069"><ele>436.0</ele><time>2026-04-22T12:30:14.499Z</time></trkpt><trkpt lat="45.7685572" lon="8.4857784"><ele>436.0</ele><time>2026-04-22T12:30:15.498Z</time></trkpt><trkpt lat="45.7684827" lon="8.485868"><ele>436.0</ele><time>2026-04-22T12:30:16.498Z</time></trkpt><trkpt lat="45.7684062" lon="8.4859661"><ele>436.0</ele><time>2026-04-22T12:30:17.498Z</time></trkpt><trkpt lat="45.7683383" lon="8.4860687"><ele>433.83333333333337</ele><time>2026-04-22T12:30:18.498Z</time></trkpt><trkpt lat="45.7682838" lon="8.4861821"><ele>431.6666666666667</ele><time>2026-04-22T12:30:19.499Z</time></trkpt><trkpt lat="45.7682417" lon="8.4862857"><ele>429.5</ele><time>2026-04-22T12:30:20.499Z</time></trkpt><trkpt lat="45.7681977" lon="8.4863663"><ele>427.33333333333337</ele><time>2026-04-22T12:30:21.497Z</time></trkpt><trkpt lat="45.7681288" lon="8.486402"><ele>425.1666666666667</ele><time>2026-04-22T12:30:22.498Z</time></trkpt><trkpt lat="45.7680444" lon="8.4864391"><ele>423.0</ele><time>2026-04-22T12:30:23.498Z</time></trkpt><trkpt lat="45.7679655" lon="8.4864881"><ele>422.6666666666667</ele><time>2026-04-22T12:30:24.498Z</time></trkpt><trkpt lat="45.7678925" lon="8.4865519"><ele>422.33333333333337</ele><time>2026-04-22T12:30:25.498Z</time></trkpt><trkpt lat="45.7678542" lon="8.4866368"><ele>422.0</ele><time>2026-04-22T12:30:26.498Z</time></trkpt><trkpt lat="45.767805" lon="8.4867052"><ele>421.6666666666667</ele><time>2026-04-22T12:30:27.499Z</time></trkpt><trkpt lat="45.7677197" lon="8.4868112"><ele>421.33333333333337</ele><time>2026-04-22T12:30:29.499Z</time></trkpt><trkpt lat="45.7676752" lon="8.4868805"><ele>421.0</ele><time>2026-04-22T12:30:32.499Z</time></trkpt><trkpt lat="45.7677091" lon="8.486993"><ele>421.00000000000006</ele><time>2026-04-22T12:30:34.498Z</time></trkpt><trkpt lat="45.7677375" lon="8.4870743"><ele>421.0</ele><time>2026-04-22T12:30:35.498Z</time></trkpt><trkpt lat="45.7677681" lon="8.4871557"><ele>421.0</ele><time>2026-04-22T12:30:36.498Z</time></trkpt><trkpt lat="45.7677915" lon="8.4872403"><ele>421.0</ele><time>2026-04-22T12:30:37.498Z</time></trkpt><trkpt lat="45.7678075" lon="8.4873476"><ele>421.0</ele><time>2026-04-22T12:30:38.499Z</time></trkpt><trkpt lat="45.7678184" lon="8.4874377"><ele>421.00000000000006</ele><time>2026-04-22T12:30:39.498Z</time></trkpt><trkpt lat="45.7678219" lon="8.4875889"><ele>421.0</ele><time>2026-04-22T12:30:41.499Z</time></trkpt><trkpt lat="45.7678133" lon="8.4877272"><ele>420.6</ele><time>2026-04-22T12:30:43.498Z</time></trkpt><trkpt lat="45.7677623" lon="8.4878911"><ele>420.20000000000005</ele><time>2026-04-22T12:30:45.498Z</time></trkpt><trkpt lat="45.7677361" lon="8.4879782"><ele>419.79999999999995</ele><time>2026-04-22T12:30:46.498Z</time></trkpt><trkpt lat="45.7677098" lon="8.4880643"><ele>419.4</ele><time>2026-04-22T12:30:47.499Z</time></trkpt><trkpt lat="45.7676911" lon="8.4882321"><ele>419.0</ele><time>2026-04-22T12:30:49.498Z</time></trkpt><trkpt lat="45.767685" lon="8.4884187"><ele>417.99999999999994</ele><time>2026-04-22T12:30:51.498Z</time></trkpt><trkpt lat="45.7676641" lon="8.4885195"><ele>417.0</ele><time>2026-04-22T12:30:52.499Z</time></trkpt><trkpt lat="45.767645" lon="8.4886218"><ele>416.0</ele><time>2026-04-22T12:30:53.498Z</time></trkpt><trkpt lat="45.767619" lon="8.4887209"><ele>415.0</ele><time>2026-04-22T12:30:54.499Z</time></trkpt><trkpt lat="45.7675907" lon="8.4888113"><ele>413.99999999999994</ele><time>2026-04-22T12:30:55.499Z</time></trkpt><trkpt lat="45.767544" lon="8.4889679"><ele>413.0</ele><time>2026-04-22T12:30:57.499Z</time></trkpt><trkpt lat="45.7675096" lon="8.4891244"><ele>412.99999999999994</ele><time>2026-04-22T12:30:59.498Z</time></trkpt><trkpt lat="45.7674765" lon="8.4892082"><ele>413.0</ele><time>2026-04-22T12:31:00.499Z</time></trkpt><trkpt lat="45.7674381" lon="8.4893033"><ele>413.0</ele><time>2026-04-22T12:31:01.498Z</time></trkpt><trkpt lat="45.7673971" lon="8.4894009"><ele>413.0</ele><time>2026-04-22T12:31:02.499Z</time></trkpt><trkpt lat="45.7673599" lon="8.4894936"><ele>412.99999999999994</ele><time>2026-04-22T12:31:03.498Z</time></trkpt><trkpt lat="45.7673254" lon="8.4895784"><ele>413.0</ele><time>2026-04-22T12:31:04.498Z</time></trkpt><trkpt lat="45.7672744" lon="8.4897181"><ele>414.0</ele><time>2026-04-22T12:31:06.498Z</time></trkpt><trkpt lat="45.7672273" lon="8.4898327"><ele>414.0</ele><time>2026-04-22T12:31:08.499Z</time></trkpt><trkpt lat="45.7671915" lon="8.4899108"><ele>414.0</ele><time>2026-04-22T12:31:10.498Z</time></trkpt></trkseg></trk></gpx>